IBE6123 YMML-LEMD
Flight info
| Callsign | IBE6123 |
|---|---|
| Flight time | 20h 45m |
| Altitude | 30000 |
| Route | PEDNI H345 AD N640 NOPED/N0492F320 N640 PIPOV/N0495F340 N640 KAT R461 JATON/N0490F360 R461 MDI M300 LOTAV/N0483F380 M300 EMURU P570 ITURA M762 VAXAS DCT UMAMI DCT TUDIS N571 ALPOB L768 AAR V45 TRF/N0478F400 R652 OBROD Q163 GENEX L53 STEPA M1 KAVOS UM1 SIT UP23 LORNO DCT MASOT DCT ROSAS DCT GERMO DCT XATOS DCT MORSS DCT LISAS/N0479F410 DCT CASIM/N0478F400 DCT ADUXO |
| Aircraft | B77L/H-SDE1E2E3FGHIJ2J3J4J5M1RWXY/LB1D1 |
Departure
| Time | 2026-05-06 19:29 |
|---|---|
| Airport | Melbourne Airport (YMML) |
Arrival
| Time | 2026-05-07 16:15 |
|---|---|
| Airport | Adolfo Suárez Madrid–Barajas Airport (LEMD) |
| Time | Latitude | Longitude | Altitude | Speed | Heading |
|---|---|---|---|---|---|
| 2026-05-06 18:42 | -37.66901 | 144.84325 | 392 ft | 0 kts | 82° |
| 2026-05-06 19:14 | -37.66903 | 144.84310 | 394 ft | 4 kts | 80° |
| 2026-05-06 19:14 | -37.66908 | 144.84277 | 393 ft | 4 kts | 71° |
| 2026-05-06 19:14 | -37.66919 | 144.84246 | 393 ft | 4 kts | 52° |
| 2026-05-06 19:15 | -37.66938 | 144.84225 | 392 ft | 4 kts | 17° |
| 2026-05-06 19:15 | -37.66951 | 144.84223 | 391 ft | 1 kts | 352° |
| 2026-05-06 19:15 | -37.66951 | 144.84222 | 391 ft | 0 kts | 352° |
| 2026-05-06 19:18 | -37.66949 | 144.84222 | 391 ft | 1 kts | 352° |
| 2026-05-06 19:18 | -37.66932 | 144.84219 | 392 ft | 4 kts | 352° |
| 2026-05-06 19:18 | -37.66891 | 144.84211 | 393 ft | 8 kts | 352° |
| 2026-05-06 19:19 | -37.66829 | 144.84200 | 395 ft | 10 kts | 352° |
| 2026-05-06 19:19 | -37.66754 | 144.84186 | 398 ft | 11 kts | 352° |
| 2026-05-06 19:19 | -37.66702 | 144.84176 | 400 ft | 0 kts | 352° |
| 2026-05-06 19:20 | -37.66701 | 144.84176 | 400 ft | 1 kts | 351° |
| 2026-05-06 19:20 | -37.66694 | 144.84165 | 399 ft | 2 kts | 297° |
| 2026-05-06 19:20 | -37.66702 | 144.84132 | 400 ft | 8 kts | 250° |
| 2026-05-06 19:20 | -37.66719 | 144.84047 | 396 ft | 11 kts | 262° |
| 2026-05-06 19:21 | -37.66687 | 144.83972 | 401 ft | 11 kts | 335° |
| 2026-05-06 19:21 | -37.66615 | 144.83951 | 404 ft | 11 kts | 351° |
| 2026-05-06 19:21 | -37.66541 | 144.83937 | 407 ft | 11 kts | 351° |
| 2026-05-06 19:21 | -37.66468 | 144.83923 | 407 ft | 11 kts | 352° |
| 2026-05-06 19:22 | -37.66395 | 144.83909 | 414 ft | 11 kts | 352° |
| 2026-05-06 19:22 | -37.66321 | 144.83896 | 412 ft | 11 kts | 352° |
| 2026-05-06 19:22 | -37.66248 | 144.83882 | 414 ft | 11 kts | 352° |
| 2026-05-06 19:22 | -37.66174 | 144.83869 | 417 ft | 11 kts | 352° |
| 2026-05-06 19:23 | -37.66101 | 144.83855 | 419 ft | 11 kts | 351° |
| 2026-05-06 19:23 | -37.66028 | 144.83841 | 417 ft | 11 kts | 351° |
| 2026-05-06 19:23 | -37.65955 | 144.83827 | 427 ft | 11 kts | 351° |
| 2026-05-06 19:23 | -37.65881 | 144.83814 | 427 ft | 11 kts | 352° |
| 2026-05-06 19:24 | -37.65808 | 144.83800 | 428 ft | 11 kts | 352° |
| 2026-05-06 19:24 | -37.65734 | 144.83786 | 429 ft | 11 kts | 351° |
| 2026-05-06 19:24 | -37.65661 | 144.83773 | 431 ft | 11 kts | 352° |
| 2026-05-06 19:24 | -37.65601 | 144.83767 | 432 ft | 8 kts | 13° |
| 2026-05-06 19:25 | -37.65572 | 144.83821 | 429 ft | 8 kts | 74° |
| 2026-05-06 19:25 | -37.65562 | 144.83890 | 430 ft | 8 kts | 79° |
| 2026-05-06 19:25 | -37.65525 | 144.83941 | 424 ft | 8 kts | 17° |
| 2026-05-06 19:25 | -37.65465 | 144.83937 | 430 ft | 9 kts | 348° |
| 2026-05-06 19:26 | -37.65406 | 144.83921 | 427 ft | 9 kts | 348° |
| 2026-05-06 19:26 | -37.65347 | 144.83904 | 433 ft | 9 kts | 345° |
| 2026-05-06 19:26 | -37.65306 | 144.83852 | 435 ft | 9 kts | 291° |
| 2026-05-06 19:26 | -37.65298 | 144.83776 | 431 ft | 9 kts | 267° |
| 2026-05-06 19:27 | -37.65305 | 144.83700 | 433 ft | 9 kts | 262° |
| 2026-05-06 19:27 | -37.65314 | 144.83623 | 441 ft | 9 kts | 261° |
| 2026-05-06 19:27 | -37.65323 | 144.83548 | 440 ft | 8 kts | 261° |
| 2026-05-06 19:27 | -37.65338 | 144.83504 | 441 ft | 5 kts | 215° |
| 2026-05-06 19:28 | -37.65368 | 144.83500 | 439 ft | 2 kts | 174° |
| 2026-05-06 19:28 | -37.65369 | 144.83500 | 442 ft | 0 kts | 173° |
| 2026-05-06 19:28 | -37.65385 | 144.83502 | 442 ft | 11 kts | 173° |
| 2026-05-06 19:28 | -37.65628 | 144.83545 | 433 ft | 70 kts | 172° |
| 2026-05-06 19:29 | -37.66348 | 144.83680 | 405 ft | 138 kts | 172° |
| 2026-05-06 19:29 | -37.67504 | 144.83892 | 375 ft | 194 kts | 172° |
| 2026-05-06 19:29 | -37.68901 | 144.84157 | 594 ft | 211 kts | 173° |
| 2026-05-06 19:29 | -37.70366 | 144.84439 | 1162 ft | 212 kts | 174° |
| 2026-05-06 19:30 | -37.71801 | 144.84710 | 1791 ft | 213 kts | 174° |
| 2026-05-06 19:30 | -37.73292 | 144.84911 | 2280 ft | 210 kts | 189° |
| 2026-05-06 19:30 | -37.74582 | 144.84243 | 2587 ft | 196 kts | 229° |
| 2026-05-06 19:30 | -37.75264 | 144.82820 | 3045 ft | 189 kts | 250° |
| 2026-05-06 19:31 | -37.75459 | 144.81182 | 3402 ft | 192 kts | 270° |
| 2026-05-06 19:31 | -37.75273 | 144.79458 | 3530 ft | 205 kts | 272° |
| 2026-05-06 19:31 | -37.74862 | 144.75706 | 3933 ft | 230 kts | 272° |
| 2026-05-06 19:32 | -37.74639 | 144.73665 | 4216 ft | 239 kts | 272° |
| 2026-05-06 19:32 | -37.74399 | 144.71522 | 4595 ft | 246 kts | 275° |
| 2026-05-06 19:32 | -37.73842 | 144.69450 | 4989 ft | 255 kts | 291° |
| 2026-05-06 19:32 | -37.73030 | 144.67464 | 5379 ft | 259 kts | 289° |
| 2026-05-06 19:33 | -37.72254 | 144.65412 | 5892 ft | 259 kts | 288° |
| 2026-05-06 19:33 | -37.71484 | 144.63343 | 6358 ft | 261 kts | 288° |
| 2026-05-06 19:33 | -37.70707 | 144.61249 | 6840 ft | 263 kts | 288° |
| 2026-05-06 19:33 | -37.69926 | 144.59152 | 7310 ft | 265 kts | 288° |
| 2026-05-06 19:34 | -37.69135 | 144.57027 | 7741 ft | 268 kts | 288° |
| 2026-05-06 19:34 | -37.68337 | 144.54884 | 8197 ft | 271 kts | 288° |
| 2026-05-06 19:34 | -37.67532 | 144.52723 | 8638 ft | 273 kts | 288° |
| 2026-05-06 19:34 | -37.66725 | 144.50563 | 9089 ft | 275 kts | 288° |
| 2026-05-06 19:35 | -37.65906 | 144.48375 | 9575 ft | 276 kts | 289° |
| 2026-05-06 19:35 | -37.65083 | 144.46182 | 10013 ft | 277 kts | 289° |
| 2026-05-06 19:35 | -37.64246 | 144.43943 | 10221 ft | 288 kts | 289° |
| 2026-05-06 19:35 | -37.63373 | 144.41595 | 10342 ft | 303 kts | 289° |
| 2026-05-06 19:36 | -37.62455 | 144.39138 | 10474 ft | 317 kts | 290° |
| 2026-05-06 19:36 | -37.61502 | 144.36588 | 10601 ft | 332 kts | 290° |
| 2026-05-06 19:36 | -37.60492 | 144.33890 | 10867 ft | 346 kts | 290° |
| 2026-05-06 19:36 | -37.59453 | 144.31126 | 11309 ft | 353 kts | 290° |
| 2026-05-06 19:37 | -37.58387 | 144.28310 | 11842 ft | 357 kts | 291° |
| 2026-05-06 19:37 | -37.57317 | 144.25475 | 12531 ft | 358 kts | 291° |
| 2026-05-06 19:37 | -37.56243 | 144.22637 | 13183 ft | 359 kts | 291° |
| 2026-05-06 19:37 | -37.55529 | 144.20746 | 13535 ft | 363 kts | 291° |
| 2026-05-06 19:38 | -37.54073 | 144.16892 | 14157 ft | 366 kts | 291° |
| 2026-05-06 19:38 | -37.52974 | 144.13987 | 14601 ft | 368 kts | 291° |
| 2026-05-06 19:38 | -37.51867 | 144.11060 | 15035 ft | 371 kts | 291° |
| 2026-05-06 19:38 | -37.50752 | 144.08117 | 15477 ft | 373 kts | 291° |
| 2026-05-06 19:39 | -37.49632 | 144.05163 | 15916 ft | 375 kts | 291° |
| 2026-05-06 19:39 | -37.48519 | 144.02229 | 16327 ft | 377 kts | 291° |
| 2026-05-06 19:39 | -37.47386 | 143.99243 | 16724 ft | 379 kts | 291° |
| 2026-05-06 19:39 | -37.46242 | 143.96234 | 17095 ft | 382 kts | 291° |
| 2026-05-06 19:40 | -37.45086 | 143.93194 | 17413 ft | 387 kts | 290° |
| 2026-05-06 19:40 | -37.43921 | 143.90135 | 17790 ft | 389 kts | 290° |
| 2026-05-06 19:40 | -37.42748 | 143.87058 | 18186 ft | 391 kts | 290° |
| 2026-05-06 19:40 | -37.41569 | 143.83967 | 18580 ft | 392 kts | 290° |
| 2026-05-06 19:41 | -37.40383 | 143.80863 | 18943 ft | 394 kts | 290° |
| 2026-05-06 19:41 | -37.39193 | 143.77750 | 19295 ft | 396 kts | 290° |
| 2026-05-06 19:41 | -37.37996 | 143.74623 | 19651 ft | 397 kts | 290° |
| 2026-05-06 19:41 | -37.36794 | 143.71485 | 20002 ft | 399 kts | 290° |
| 2026-05-06 19:42 | -37.35585 | 143.68334 | 20317 ft | 401 kts | 290° |
| 2026-05-06 19:42 | -37.34366 | 143.65159 | 20628 ft | 403 kts | 290° |
| 2026-05-06 19:42 | -37.33141 | 143.61971 | 20953 ft | 405 kts | 290° |
| 2026-05-06 19:42 | -37.31914 | 143.58778 | 21265 ft | 407 kts | 290° |
| 2026-05-06 19:43 | -37.30695 | 143.55614 | 21599 ft | 408 kts | 289° |
| 2026-05-06 19:43 | -37.29456 | 143.52399 | 21905 ft | 410 kts | 289° |
| 2026-05-06 19:43 | -37.28213 | 143.49175 | 22185 ft | 412 kts | 289° |
| 2026-05-06 19:43 | -37.26960 | 143.45931 | 22472 ft | 414 kts | 289° |
| 2026-05-06 19:44 | -37.25699 | 143.42671 | 22745 ft | 416 kts | 289° |
| 2026-05-06 19:44 | -37.24429 | 143.39391 | 23011 ft | 418 kts | 289° |
| 2026-05-06 19:44 | -37.23157 | 143.36106 | 23276 ft | 420 kts | 289° |
| 2026-05-06 19:44 | -37.21871 | 143.32795 | 23556 ft | 421 kts | 289° |
| 2026-05-06 19:45 | -37.20579 | 143.29485 | 23730 ft | 423 kts | 288° |
| 2026-05-06 19:45 | -37.19309 | 143.26141 | 23879 ft | 426 kts | 286° |
| 2026-05-06 19:45 | -37.18190 | 143.22759 | 24180 ft | 424 kts | 283° |
| 2026-05-06 19:45 | -37.17146 | 143.19320 | 24517 ft | 421 kts | 283° |
| 2026-05-06 19:46 | -37.16120 | 143.15869 | 24672 ft | 425 kts | 283° |
| 2026-05-06 19:46 | -37.15086 | 143.12368 | 24977 ft | 428 kts | 282° |
| 2026-05-06 19:46 | -37.14061 | 143.08870 | 25253 ft | 427 kts | 282° |
| 2026-05-06 19:46 | -37.13018 | 143.05371 | 25338 ft | 431 kts | 283° |
| 2026-05-06 19:47 | -37.11944 | 143.01849 | 25496 ft | 435 kts | 284° |
| 2026-05-06 19:47 | -37.10810 | 142.98317 | 25753 ft | 436 kts | 283° |
| 2026-05-06 19:47 | -37.09737 | 142.94775 | 25980 ft | 434 kts | 282° |
| 2026-05-06 19:47 | -37.08673 | 142.91227 | 26038 ft | 438 kts | 282° |
| 2026-05-06 19:48 | -37.07596 | 142.87661 | 26078 ft | 440 kts | 282° |
| 2026-05-06 19:48 | -37.06501 | 142.84061 | 26300 ft | 443 kts | 283° |
| 2026-05-06 19:48 | -37.05366 | 142.80507 | 26750 ft | 442 kts | 283° |
| 2026-05-06 19:48 | -37.04244 | 142.76927 | 26974 ft | 442 kts | 282° |
| 2026-05-06 19:49 | -37.03130 | 142.73336 | 27154 ft | 446 kts | 282° |
| 2026-05-06 19:49 | -37.01986 | 142.69722 | 27246 ft | 447 kts | 282° |
| 2026-05-06 19:49 | -37.00866 | 142.66063 | 27387 ft | 451 kts | 282° |
| 2026-05-06 19:49 | -36.99737 | 142.62406 | 27772 ft | 449 kts | 282° |
| 2026-05-06 19:50 | -36.98623 | 142.58765 | 27886 ft | 448 kts | 282° |
| 2026-05-06 19:50 | -36.97471 | 142.55117 | 27976 ft | 452 kts | 283° |
| 2026-05-06 19:50 | -36.96324 | 142.51435 | 28170 ft | 456 kts | 282° |
| 2026-05-06 19:50 | -36.95206 | 142.47784 | 28460 ft | 456 kts | 282° |
| 2026-05-06 19:51 | -36.94056 | 142.44077 | 28688 ft | 459 kts | 282° |
| 2026-05-06 19:51 | -36.92905 | 142.40355 | 28766 ft | 458 kts | 282° |
| 2026-05-06 19:51 | -36.90585 | 142.32898 | 28950 ft | 461 kts | 282° |
| 2026-05-06 19:52 | -36.88218 | 142.25482 | 29064 ft | 457 kts | 282° |
| 2026-05-06 19:52 | -36.85880 | 142.18071 | 29207 ft | 461 kts | 282° |
| 2026-05-06 19:53 | -36.84691 | 142.14326 | 29433 ft | 463 kts | 282° |
| 2026-05-06 19:53 | -36.83505 | 142.10595 | 29671 ft | 461 kts | 282° |
| 2026-05-06 19:53 | -36.82331 | 142.06860 | 29878 ft | 460 kts | 282° |
| 2026-05-06 19:53 | -36.81165 | 142.03137 | 29987 ft | 461 kts | 282° |
| 2026-05-06 19:54 | -36.80001 | 141.99427 | 30117 ft | 458 kts | 282° |
| 2026-05-06 19:54 | -36.78831 | 141.95762 | 30179 ft | 462 kts | 282° |
| 2026-05-06 19:54 | -36.76473 | 141.88262 | 30214 ft | 467 kts | 282° |
| 2026-05-06 19:55 | -36.74012 | 141.80714 | 30211 ft | 471 kts | 282° |
| 2026-05-06 19:55 | -36.71566 | 141.73209 | 30223 ft | 470 kts | 283° |
| 2026-05-06 19:56 | -36.69102 | 141.65712 | 30216 ft | 468 kts | 282° |
| 2026-05-06 19:56 | -36.66765 | 141.58226 | 30206 ft | 463 kts | 281° |
| 2026-05-06 19:57 | -36.64403 | 141.50833 | 30254 ft | 467 kts | 282° |
| 2026-05-06 19:57 | -36.61965 | 141.43341 | 30239 ft | 466 kts | 282° |
| 2026-05-06 19:58 | -36.59553 | 141.35888 | 30248 ft | 466 kts | 282° |
| 2026-05-06 19:58 | -36.57105 | 141.28385 | 30258 ft | 470 kts | 282° |
| 2026-05-06 19:59 | -36.54659 | 141.20852 | 30237 ft | 468 kts | 282° |
| 2026-05-06 19:59 | -36.52639 | 141.14605 | 30267 ft | 468 kts | 282° |
| 2026-05-06 20:00 | -36.50145 | 141.07076 | 30269 ft | 471 kts | 282° |
| 2026-05-06 20:00 | -36.47650 | 140.99530 | 30280 ft | 475 kts | 283° |
| 2026-05-06 20:01 | -36.45135 | 140.91875 | 30289 ft | 477 kts | 281° |
| 2026-05-06 20:01 | -36.42648 | 140.84246 | 30288 ft | 479 kts | 283° |
| 2026-05-06 20:02 | -36.40076 | 140.76755 | 30295 ft | 487 kts | 286° |
| 2026-05-06 20:02 | -36.36728 | 140.69863 | 30307 ft | 501 kts | 297° |
| 2026-05-06 20:03 | -36.32368 | 140.63030 | 30298 ft | 507 kts | 300° |
| 2026-05-06 20:03 | -36.27923 | 140.56173 | 30311 ft | 510 kts | 299° |
| 2026-05-06 20:04 | -36.23555 | 140.49330 | 30317 ft | 505 kts | 299° |
| 2026-05-06 20:04 | -36.19195 | 140.42514 | 30313 ft | 506 kts | 300° |
| 2026-05-06 20:05 | -36.14862 | 140.35727 | 30311 ft | 499 kts | 299° |
| 2026-05-06 20:05 | -36.10597 | 140.29012 | 30318 ft | 502 kts | 298° |
| 2026-05-06 20:06 | -36.06288 | 140.22182 | 30336 ft | 508 kts | 300° |
| 2026-05-06 20:06 | -36.01852 | 140.15337 | 30331 ft | 507 kts | 300° |
| 2026-05-06 20:07 | -35.97458 | 140.08571 | 30355 ft | 502 kts | 299° |
| 2026-05-06 20:07 | -35.93114 | 140.01856 | 30343 ft | 498 kts | 300° |
| 2026-05-06 20:08 | -35.88789 | 139.95188 | 30364 ft | 506 kts | 299° |
| 2026-05-06 20:08 | -35.84397 | 139.88383 | 30357 ft | 504 kts | 299° |
| 2026-05-06 20:09 | -35.80052 | 139.81581 | 30373 ft | 505 kts | 300° |
| 2026-05-06 20:09 | -35.75640 | 139.74810 | 30385 ft | 505 kts | 300° |
| 2026-05-06 20:10 | -35.71224 | 139.68050 | 30357 ft | 506 kts | 299° |
| 2026-05-06 20:10 | -35.66901 | 139.61278 | 30378 ft | 504 kts | 301° |
| 2026-05-06 20:11 | -35.62484 | 139.54634 | 30391 ft | 506 kts | 301° |
| 2026-05-06 20:11 | -35.58054 | 139.47928 | 30384 ft | 506 kts | 301° |
| 2026-05-06 20:12 | -35.53629 | 139.41227 | 30382 ft | 502 kts | 301° |
| 2026-05-06 20:12 | -35.49363 | 139.34589 | 30397 ft | 493 kts | 300° |
| 2026-05-06 20:13 | -35.45086 | 139.28132 | 30392 ft | 500 kts | 302° |
| 2026-05-06 20:13 | -35.40715 | 139.21554 | 30404 ft | 498 kts | 300° |
| 2026-05-06 20:14 | -35.36397 | 139.14947 | 30391 ft | 500 kts | 301° |
| 2026-05-06 20:14 | -35.32004 | 139.08308 | 30392 ft | 502 kts | 302° |
| 2026-05-06 20:15 | -35.27570 | 139.01681 | 30401 ft | 504 kts | 302° |
| 2026-05-06 20:15 | -35.23134 | 138.95023 | 30402 ft | 504 kts | 302° |
| 2026-05-06 20:16 | -35.18716 | 138.88382 | 30392 ft | 503 kts | 302° |
| 2026-05-06 20:16 | -35.14329 | 138.81802 | 30390 ft | 500 kts | 302° |
| 2026-05-06 20:17 | -35.09937 | 138.75226 | 30396 ft | 498 kts | 302° |
| 2026-05-06 20:17 | -35.05558 | 138.68680 | 30408 ft | 496 kts | 302° |
| 2026-05-06 20:18 | -35.01219 | 138.62202 | 30406 ft | 496 kts | 303° |
| 2026-05-06 20:18 | -34.96923 | 138.55630 | 30400 ft | 492 kts | 297° |
| 2026-05-06 20:19 | -34.93759 | 138.48370 | 30408 ft | 480 kts | 285° |
| 2026-05-06 20:19 | -34.91783 | 138.40683 | 30412 ft | 474 kts | 279° |
| 2026-05-06 20:20 | -34.89984 | 138.32994 | 30408 ft | 475 kts | 279° |
| 2026-05-06 20:20 | -34.88128 | 138.25234 | 30404 ft | 476 kts | 280° |
| 2026-05-06 20:21 | -34.86249 | 138.17480 | 30405 ft | 477 kts | 280° |
| 2026-05-06 20:21 | -34.84375 | 138.09782 | 30406 ft | 478 kts | 280° |
| 2026-05-06 20:22 | -34.82482 | 138.02024 | 30406 ft | 478 kts | 280° |
| 2026-05-06 20:22 | -34.80586 | 137.94272 | 30397 ft | 478 kts | 281° |
| 2026-05-06 20:23 | -34.78678 | 137.86494 | 30404 ft | 479 kts | 281° |
| 2026-05-06 20:23 | -34.76780 | 137.78782 | 30408 ft | 479 kts | 281° |
| 2026-05-06 20:24 | -34.74861 | 137.71007 | 30405 ft | 480 kts | 281° |
| 2026-05-06 20:24 | -34.72936 | 137.63228 | 30403 ft | 480 kts | 281° |
| 2026-05-06 20:25 | -34.71000 | 137.55442 | 30402 ft | 480 kts | 281° |
| 2026-05-06 20:25 | -34.69063 | 137.47675 | 30402 ft | 480 kts | 281° |
| 2026-05-06 20:26 | -34.67132 | 137.39947 | 30394 ft | 480 kts | 281° |
| 2026-05-06 20:26 | -34.65186 | 137.32183 | 30395 ft | 480 kts | 282° |
| 2026-05-06 20:27 | -34.63235 | 137.24418 | 30394 ft | 480 kts | 282° |
| 2026-05-06 20:27 | -34.61277 | 137.16650 | 30401 ft | 481 kts | 282° |
| 2026-05-06 20:28 | -34.59312 | 137.08878 | 30392 ft | 481 kts | 282° |
| 2026-05-06 20:28 | -34.57354 | 137.01156 | 30400 ft | 481 kts | 282° |
| 2026-05-06 20:29 | -34.55378 | 136.93387 | 30391 ft | 482 kts | 282° |
| 2026-05-06 20:29 | -34.53393 | 136.85605 | 30394 ft | 482 kts | 282° |
| 2026-05-06 20:30 | -34.50416 | 136.73979 | 30395 ft | 483 kts | 282° |
| 2026-05-06 20:31 | -34.48408 | 136.66181 | 30402 ft | 483 kts | 282° |
| 2026-05-06 20:31 | -34.46401 | 136.58407 | 30406 ft | 484 kts | 282° |
| 2026-05-06 20:32 | -34.44385 | 136.50621 | 30405 ft | 485 kts | 283° |
| 2026-05-06 20:32 | -34.42361 | 136.42822 | 30404 ft | 485 kts | 283° |
| 2026-05-06 20:33 | -34.40332 | 136.35028 | 30405 ft | 485 kts | 283° |
| 2026-05-06 20:33 | -34.38309 | 136.27279 | 30403 ft | 485 kts | 283° |
| 2026-05-06 20:34 | -34.36271 | 136.19497 | 30403 ft | 484 kts | 283° |
| 2026-05-06 20:34 | -34.34228 | 136.11718 | 30406 ft | 484 kts | 283° |
| 2026-05-06 20:35 | -34.32187 | 136.03963 | 30406 ft | 484 kts | 283° |
| 2026-05-06 20:35 | -34.30149 | 135.96248 | 30404 ft | 484 kts | 283° |
| 2026-05-06 20:36 | -34.28096 | 135.88495 | 30401 ft | 484 kts | 283° |
| 2026-05-06 20:36 | -34.26040 | 135.80757 | 30405 ft | 483 kts | 283° |
| 2026-05-06 20:37 | -34.23978 | 135.73013 | 30404 ft | 484 kts | 283° |
| 2026-05-06 20:37 | -34.21910 | 135.65269 | 30405 ft | 484 kts | 283° |
| 2026-05-06 20:38 | -34.19850 | 135.57580 | 30403 ft | 484 kts | 283° |
| 2026-05-06 20:38 | -34.17766 | 135.49819 | 30403 ft | 485 kts | 284° |
| 2026-05-06 20:39 | -34.15677 | 135.42062 | 30408 ft | 486 kts | 284° |
| 2026-05-06 20:39 | -34.13552 | 135.34314 | 30400 ft | 488 kts | 286° |
| 2026-05-06 20:40 | -34.10679 | 135.26854 | 30408 ft | 492 kts | 292° |
| 2026-05-06 20:40 | -34.07590 | 135.19467 | 30404 ft | 493 kts | 292° |
| 2026-05-06 20:41 | -34.04518 | 135.12060 | 30406 ft | 494 kts | 292° |
| 2026-05-06 20:41 | -34.01479 | 135.04679 | 30404 ft | 495 kts | 292° |
| 2026-05-06 20:42 | -33.98410 | 134.97217 | 30409 ft | 496 kts | 293° |
| 2026-05-06 20:42 | -33.95339 | 134.89771 | 30405 ft | 495 kts | 293° |
| 2026-05-06 20:43 | -33.92271 | 134.82355 | 30398 ft | 494 kts | 293° |
| 2026-05-06 20:43 | -33.89222 | 134.74998 | 30404 ft | 493 kts | 293° |
| 2026-05-06 20:44 | -33.86149 | 134.67600 | 30409 ft | 493 kts | 293° |
| 2026-05-06 20:44 | -33.83091 | 134.60252 | 30414 ft | 493 kts | 294° |
| 2026-05-06 20:45 | -33.80012 | 134.52871 | 30414 ft | 495 kts | 294° |
| 2026-05-06 20:45 | -33.76916 | 134.45462 | 30416 ft | 496 kts | 294° |
| 2026-05-06 20:46 | -33.73810 | 134.38049 | 30413 ft | 497 kts | 294° |
| 2026-05-06 20:46 | -33.70690 | 134.30618 | 30415 ft | 498 kts | 294° |
| 2026-05-06 20:47 | -33.68087 | 134.24430 | 30413 ft | 499 kts | 294° |
| 2026-05-06 20:47 | -33.64950 | 134.16989 | 30415 ft | 499 kts | 294° |
| 2026-05-06 20:48 | -33.61807 | 134.09551 | 30415 ft | 500 kts | 294° |
| 2026-05-06 20:48 | -33.58669 | 134.02138 | 30414 ft | 500 kts | 294° |
| 2026-05-06 20:49 | -33.55513 | 133.94698 | 30411 ft | 500 kts | 294° |
| 2026-05-06 20:49 | -33.52355 | 133.87269 | 30415 ft | 500 kts | 294° |
| 2026-05-06 20:50 | -33.49192 | 133.79843 | 30413 ft | 500 kts | 294° |
| 2026-05-06 20:50 | -33.46046 | 133.72474 | 30414 ft | 499 kts | 294° |
| 2026-05-06 20:51 | -33.42880 | 133.65075 | 30412 ft | 499 kts | 294° |
| 2026-05-06 20:51 | -33.39712 | 133.57690 | 30413 ft | 498 kts | 295° |
| 2026-05-06 20:52 | -33.36549 | 133.50327 | 30416 ft | 497 kts | 295° |
| 2026-05-06 20:52 | -33.33374 | 133.42954 | 30413 ft | 497 kts | 295° |
| 2026-05-06 20:53 | -33.30208 | 133.35614 | 30412 ft | 496 kts | 295° |
| 2026-05-06 20:53 | -33.27060 | 133.28334 | 30413 ft | 496 kts | 295° |
| 2026-05-06 20:54 | -33.23885 | 133.21004 | 30415 ft | 496 kts | 295° |
| 2026-05-06 20:54 | -33.20705 | 133.13681 | 30412 ft | 496 kts | 295° |
| 2026-05-06 20:55 | -33.17526 | 133.06372 | 30414 ft | 496 kts | 295° |
| 2026-05-06 20:55 | -33.14338 | 132.99060 | 30416 ft | 496 kts | 295° |
| 2026-05-06 20:56 | -33.11150 | 132.91762 | 30417 ft | 496 kts | 295° |
| 2026-05-06 20:56 | -33.07979 | 132.84518 | 30422 ft | 496 kts | 295° |
| 2026-05-06 20:57 | -33.04782 | 132.77230 | 30422 ft | 496 kts | 295° |
| 2026-05-06 20:57 | -33.01580 | 132.69946 | 30424 ft | 496 kts | 295° |
| 2026-05-06 20:58 | -32.98371 | 132.62658 | 30423 ft | 496 kts | 296° |
| 2026-05-06 20:58 | -32.95160 | 132.55382 | 30423 ft | 496 kts | 296° |
| 2026-05-06 20:59 | -32.91947 | 132.48116 | 30423 ft | 496 kts | 296° |
| 2026-05-06 20:59 | -32.88753 | 132.40904 | 30424 ft | 495 kts | 296° |
| 2026-05-06 21:00 | -32.85540 | 132.33667 | 30424 ft | 495 kts | 296° |
| 2026-05-06 21:00 | -32.82316 | 132.26441 | 30422 ft | 494 kts | 296° |
| 2026-05-06 21:01 | -32.79093 | 132.19234 | 30424 ft | 493 kts | 296° |
| 2026-05-06 21:01 | -32.75875 | 132.12049 | 30423 ft | 492 kts | 296° |
| 2026-05-06 21:02 | -32.72674 | 132.04913 | 30424 ft | 491 kts | 296° |
| 2026-05-06 21:02 | -32.69460 | 131.97761 | 30422 ft | 490 kts | 296° |
| 2026-05-06 21:03 | -32.66237 | 131.90603 | 30425 ft | 490 kts | 296° |
| 2026-05-06 21:03 | -32.63045 | 131.83526 | 30432 ft | 489 kts | 296° |
| 2026-05-06 21:04 | -32.59829 | 131.76413 | 30432 ft | 489 kts | 296° |
| 2026-05-06 21:04 | -32.56603 | 131.69289 | 30433 ft | 489 kts | 296° |
| 2026-05-06 21:05 | -32.53372 | 131.62172 | 30432 ft | 489 kts | 296° |
| 2026-05-06 21:05 | -32.50161 | 131.55109 | 30430 ft | 490 kts | 297° |
| 2026-05-06 21:06 | -32.46915 | 131.47984 | 30431 ft | 491 kts | 297° |
| 2026-05-06 21:06 | -32.43663 | 131.40861 | 30435 ft | 492 kts | 297° |
| 2026-05-06 21:07 | -32.40395 | 131.33718 | 30433 ft | 494 kts | 297° |
| 2026-05-06 21:07 | -32.37115 | 131.26561 | 30433 ft | 495 kts | 297° |
| 2026-05-06 21:08 | -32.33848 | 131.19448 | 30432 ft | 496 kts | 297° |
| 2026-05-06 21:08 | -32.30548 | 131.12274 | 30432 ft | 496 kts | 297° |
| 2026-05-06 21:09 | -32.27248 | 131.05117 | 30433 ft | 496 kts | 297° |
| 2026-05-06 21:09 | -32.23943 | 130.97961 | 30440 ft | 495 kts | 297° |
| 2026-05-06 21:10 | -32.20646 | 130.90838 | 30440 ft | 494 kts | 297° |
| 2026-05-06 21:10 | -32.17342 | 130.83714 | 30441 ft | 493 kts | 297° |
| 2026-05-06 21:11 | -32.14039 | 130.76604 | 30441 ft | 493 kts | 297° |
| 2026-05-06 21:11 | -32.10757 | 130.69554 | 30441 ft | 492 kts | 297° |
| 2026-05-06 21:12 | -32.07456 | 130.62475 | 30441 ft | 492 kts | 297° |
| 2026-05-06 21:12 | -32.04149 | 130.55398 | 30441 ft | 491 kts | 297° |
| 2026-05-06 21:13 | -32.00865 | 130.48383 | 30441 ft | 491 kts | 297° |
| 2026-05-06 21:13 | -31.97563 | 130.41344 | 30445 ft | 490 kts | 298° |
| 2026-05-06 21:14 | -31.94260 | 130.34316 | 30439 ft | 489 kts | 298° |
| 2026-05-06 21:14 | -31.90962 | 130.27312 | 30440 ft | 488 kts | 298° |
| 2026-05-06 21:15 | -31.87684 | 130.20362 | 30442 ft | 488 kts | 298° |
| 2026-05-06 21:15 | -31.84384 | 130.13380 | 30449 ft | 488 kts | 298° |
| 2026-05-06 21:16 | -31.81076 | 130.06394 | 30459 ft | 488 kts | 298° |
| 2026-05-06 21:16 | -31.77792 | 129.99470 | 30469 ft | 488 kts | 298° |
| 2026-05-06 21:17 | -31.74479 | 129.92496 | 30469 ft | 489 kts | 298° |
| 2026-05-06 21:17 | -31.71158 | 129.85523 | 30470 ft | 489 kts | 298° |
| 2026-05-06 21:18 | -31.67828 | 129.78540 | 30469 ft | 490 kts | 298° |
| 2026-05-06 21:18 | -31.64498 | 129.71572 | 30475 ft | 490 kts | 298° |
| 2026-05-06 21:19 | -31.61160 | 129.64601 | 30481 ft | 489 kts | 298° |
| 2026-05-06 21:19 | -31.57822 | 129.57642 | 30475 ft | 490 kts | 298° |
| 2026-05-06 21:20 | -31.54498 | 129.50726 | 30477 ft | 490 kts | 298° |
| 2026-05-06 21:20 | -31.51143 | 129.43758 | 30476 ft | 490 kts | 298° |
| 2026-05-06 21:21 | -31.47786 | 129.36795 | 30477 ft | 489 kts | 298° |
| 2026-05-06 21:21 | -31.44456 | 129.29903 | 30479 ft | 489 kts | 298° |
| 2026-05-06 21:22 | -31.41097 | 129.22966 | 30478 ft | 489 kts | 298° |
| 2026-05-06 21:22 | -31.37731 | 129.16026 | 30477 ft | 489 kts | 298° |
| 2026-05-06 21:23 | -31.34368 | 129.09106 | 30478 ft | 489 kts | 298° |
| 2026-05-06 21:23 | -31.30997 | 129.02179 | 30481 ft | 489 kts | 298° |
| 2026-05-06 21:24 | -31.27637 | 128.95286 | 30478 ft | 490 kts | 299° |
| 2026-05-06 21:24 | -31.24256 | 128.88367 | 30477 ft | 490 kts | 299° |
| 2026-05-06 21:25 | -31.20869 | 128.81448 | 30477 ft | 490 kts | 299° |
| 2026-05-06 21:25 | -31.17483 | 128.74541 | 30477 ft | 490 kts | 299° |
| 2026-05-06 21:26 | -31.14112 | 128.67676 | 30477 ft | 490 kts | 299° |
| 2026-05-06 21:26 | -31.10711 | 128.60763 | 30479 ft | 491 kts | 299° |
| 2026-05-06 21:27 | -31.07307 | 128.53859 | 30476 ft | 491 kts | 299° |
| 2026-05-06 21:27 | -31.03897 | 128.46953 | 30479 ft | 491 kts | 299° |
| 2026-05-06 21:28 | -31.00479 | 128.40043 | 30477 ft | 491 kts | 299° |
| 2026-05-06 21:28 | -30.97086 | 128.33197 | 30477 ft | 491 kts | 299° |
| 2026-05-06 21:29 | -30.93660 | 128.26295 | 30485 ft | 491 kts | 299° |
| 2026-05-06 21:29 | -30.90236 | 128.19408 | 30489 ft | 491 kts | 299° |
| 2026-05-06 21:30 | -30.86808 | 128.12523 | 30486 ft | 492 kts | 299° |
| 2026-05-06 21:30 | -30.83336 | 128.05652 | 30487 ft | 492 kts | 300° |
| 2026-05-06 21:31 | -30.79795 | 127.98881 | 30486 ft | 492 kts | 301° |
| 2026-05-06 21:31 | -30.76218 | 127.92073 | 30486 ft | 493 kts | 301° |
| 2026-05-06 21:32 | -30.72642 | 127.85247 | 30486 ft | 494 kts | 301° |
| 2026-05-06 21:32 | -30.67310 | 127.75064 | 30486 ft | 494 kts | 301° |
| 2026-05-06 21:33 | -30.63731 | 127.68243 | 30479 ft | 494 kts | 301° |
| 2026-05-06 21:33 | -30.60151 | 127.61432 | 30476 ft | 494 kts | 301° |
| 2026-05-06 21:34 | -30.56571 | 127.54632 | 30476 ft | 493 kts | 301° |
| 2026-05-06 21:34 | -30.52981 | 127.47827 | 30478 ft | 493 kts | 301° |
| 2026-05-06 21:35 | -30.49415 | 127.41077 | 30477 ft | 493 kts | 301° |
| 2026-05-06 21:35 | -30.45819 | 127.34283 | 30481 ft | 494 kts | 301° |
| 2026-05-06 21:36 | -30.42223 | 127.27498 | 30477 ft | 494 kts | 301° |
| 2026-05-06 21:36 | -30.38639 | 127.20751 | 30477 ft | 494 kts | 301° |
| 2026-05-06 21:37 | -30.35615 | 127.15068 | 30479 ft | 494 kts | 301° |
| 2026-05-06 21:37 | -30.32030 | 127.08339 | 30477 ft | 494 kts | 301° |
| 2026-05-06 21:38 | -30.28407 | 127.01550 | 30477 ft | 494 kts | 301° |
| 2026-05-06 21:38 | -30.24786 | 126.94774 | 30479 ft | 494 kts | 301° |
| 2026-05-06 21:39 | -30.21166 | 126.88012 | 30477 ft | 495 kts | 301° |
| 2026-05-06 21:39 | -30.17563 | 126.81295 | 30477 ft | 495 kts | 301° |
| 2026-05-06 21:40 | -30.13927 | 126.74528 | 30480 ft | 495 kts | 301° |
| 2026-05-06 21:40 | -30.10294 | 126.67777 | 30476 ft | 495 kts | 301° |
| 2026-05-06 21:41 | -30.06660 | 126.61035 | 30479 ft | 494 kts | 301° |
| 2026-05-06 21:41 | -30.03019 | 126.54295 | 30479 ft | 494 kts | 301° |
| 2026-05-06 21:42 | -29.99379 | 126.47566 | 30476 ft | 494 kts | 301° |
| 2026-05-06 21:42 | -29.95732 | 126.40836 | 30478 ft | 494 kts | 301° |
| 2026-05-06 21:43 | -29.92091 | 126.34126 | 30476 ft | 493 kts | 301° |
| 2026-05-06 21:43 | -29.88470 | 126.27465 | 30473 ft | 494 kts | 301° |
| 2026-05-06 21:44 | -29.84814 | 126.20749 | 30467 ft | 494 kts | 301° |
| 2026-05-06 21:44 | -29.81145 | 126.14022 | 30674 ft | 498 kts | 301° |
| 2026-05-06 21:45 | -29.79305 | 126.10653 | 31033 ft | 496 kts | 301° |
| 2026-05-06 21:45 | -29.77472 | 126.07300 | 31456 ft | 492 kts | 301° |
| 2026-05-06 21:45 | -29.75653 | 126.03975 | 31875 ft | 489 kts | 301° |
| 2026-05-06 21:45 | -29.73845 | 126.00674 | 32252 ft | 486 kts | 301° |
| 2026-05-06 21:46 | -29.72041 | 125.97381 | 32417 ft | 487 kts | 301° |
| 2026-05-06 21:46 | -29.70253 | 125.94120 | 32454 ft | 488 kts | 301° |
| 2026-05-06 21:46 | -29.66641 | 125.87540 | 32465 ft | 486 kts | 301° |
| 2026-05-06 21:47 | -29.63034 | 125.80981 | 32463 ft | 484 kts | 301° |
| 2026-05-06 21:47 | -29.59439 | 125.74454 | 32479 ft | 483 kts | 301° |
| 2026-05-06 21:48 | -29.55841 | 125.67930 | 32467 ft | 483 kts | 301° |
| 2026-05-06 21:48 | -29.52264 | 125.61456 | 32466 ft | 483 kts | 301° |
| 2026-05-06 21:49 | -29.48656 | 125.54937 | 32476 ft | 483 kts | 301° |
| 2026-05-06 21:49 | -29.45045 | 125.48422 | 32479 ft | 484 kts | 301° |
| 2026-05-06 21:50 | -29.41418 | 125.41890 | 32466 ft | 485 kts | 301° |
| 2026-05-06 21:50 | -29.37790 | 125.35365 | 32483 ft | 485 kts | 301° |
| 2026-05-06 21:51 | -29.34155 | 125.28839 | 32476 ft | 486 kts | 301° |
| 2026-05-06 21:51 | -29.30517 | 125.22317 | 32467 ft | 486 kts | 301° |
| 2026-05-06 21:52 | -29.26871 | 125.15790 | 32464 ft | 486 kts | 301° |
| 2026-05-06 21:52 | -29.23249 | 125.09318 | 32467 ft | 486 kts | 301° |
| 2026-05-06 21:53 | -29.19595 | 125.02797 | 32459 ft | 485 kts | 301° |
| 2026-05-06 21:53 | -29.15939 | 124.96284 | 32457 ft | 485 kts | 301° |
| 2026-05-06 21:54 | -29.12310 | 124.89831 | 32448 ft | 485 kts | 301° |
| 2026-05-06 21:54 | -29.08653 | 124.83334 | 32451 ft | 485 kts | 301° |
| 2026-05-06 21:55 | -29.05003 | 124.76859 | 32450 ft | 484 kts | 301° |
| 2026-05-06 21:55 | -29.01370 | 124.70369 | 32449 ft | 484 kts | 299° |
| 2026-05-06 21:56 | -28.98369 | 124.63518 | 32454 ft | 482 kts | 294° |
| 2026-05-06 21:56 | -28.95508 | 124.56583 | 32450 ft | 482 kts | 294° |
| 2026-05-06 21:57 | -28.92648 | 124.49719 | 32451 ft | 482 kts | 294° |
| 2026-05-06 21:57 | -28.89739 | 124.42802 | 32449 ft | 482 kts | 294° |
| 2026-05-06 21:58 | -28.86823 | 124.35898 | 32450 ft | 483 kts | 294° |
| 2026-05-06 21:58 | -28.83901 | 124.28992 | 32451 ft | 483 kts | 294° |
| 2026-05-06 21:59 | -28.80994 | 124.22133 | 32451 ft | 483 kts | 294° |
| 2026-05-06 21:59 | -28.78067 | 124.15236 | 32450 ft | 483 kts | 294° |
| 2026-05-06 22:00 | -28.75139 | 124.08352 | 32451 ft | 483 kts | 294° |
| 2026-05-06 22:00 | -28.72206 | 124.01463 | 32450 ft | 482 kts | 294° |
| 2026-05-06 22:01 | -28.69272 | 123.94589 | 32450 ft | 482 kts | 294° |
| 2026-05-06 22:01 | -28.66334 | 123.87714 | 32451 ft | 482 kts | 294° |
| 2026-05-06 22:02 | -28.63418 | 123.80901 | 32448 ft | 481 kts | 294° |
| 2026-05-06 22:02 | -28.60478 | 123.74047 | 32444 ft | 481 kts | 294° |
| 2026-05-06 22:03 | -28.57538 | 123.67203 | 32436 ft | 481 kts | 294° |
| 2026-05-06 22:03 | -28.54594 | 123.60364 | 32431 ft | 481 kts | 294° |
| 2026-05-06 22:04 | -28.51645 | 123.53523 | 32434 ft | 481 kts | 294° |
| 2026-05-06 22:04 | -28.48697 | 123.46695 | 32431 ft | 481 kts | 294° |
| 2026-05-06 22:05 | -28.45760 | 123.39906 | 32432 ft | 481 kts | 294° |
| 2026-05-06 22:05 | -28.42803 | 123.33083 | 32432 ft | 481 kts | 294° |
| 2026-05-06 22:06 | -28.39840 | 123.26257 | 32432 ft | 481 kts | 294° |
| 2026-05-06 22:06 | -28.36891 | 123.19474 | 32435 ft | 481 kts | 294° |
| 2026-05-06 22:07 | -28.33925 | 123.12664 | 32430 ft | 481 kts | 294° |
| 2026-05-06 22:07 | -28.30955 | 123.05856 | 32433 ft | 481 kts | 294° |
| 2026-05-06 22:08 | -28.27999 | 122.99097 | 32431 ft | 481 kts | 295° |
| 2026-05-06 22:08 | -28.25025 | 122.92301 | 32433 ft | 481 kts | 295° |
| 2026-05-06 22:09 | -28.22047 | 122.85509 | 32429 ft | 481 kts | 294° |
| 2026-05-06 22:09 | -28.19063 | 122.78713 | 32423 ft | 481 kts | 295° |
| 2026-05-06 22:10 | -28.16077 | 122.71927 | 32423 ft | 480 kts | 295° |
| 2026-05-06 22:10 | -28.13111 | 122.65197 | 32423 ft | 480 kts | 294° |
| 2026-05-06 22:11 | -28.10126 | 122.58436 | 32421 ft | 479 kts | 294° |
| 2026-05-06 22:11 | -28.07154 | 122.51714 | 32422 ft | 479 kts | 294° |
| 2026-05-06 22:12 | -28.04189 | 122.45021 | 32423 ft | 478 kts | 294° |
| 2026-05-06 22:12 | -28.01204 | 122.38292 | 32423 ft | 478 kts | 295° |
| 2026-05-06 22:13 | -27.98216 | 122.31568 | 32423 ft | 477 kts | 294° |
| 2026-05-06 22:13 | -27.95258 | 122.24920 | 32421 ft | 477 kts | 295° |
| 2026-05-06 22:14 | -27.92270 | 122.18219 | 32417 ft | 477 kts | 295° |
| 2026-05-06 22:14 | -27.89279 | 122.11522 | 32412 ft | 477 kts | 295° |
| 2026-05-06 22:15 | -27.86282 | 122.04822 | 32414 ft | 477 kts | 295° |
| 2026-05-06 22:15 | -27.83281 | 121.98123 | 32416 ft | 477 kts | 295° |
| 2026-05-06 22:16 | -27.80302 | 121.91484 | 32417 ft | 477 kts | 295° |
| 2026-05-06 22:16 | -27.77291 | 121.84784 | 32417 ft | 477 kts | 295° |
| 2026-05-06 22:17 | -27.74282 | 121.78102 | 32413 ft | 477 kts | 295° |
| 2026-05-06 22:17 | -27.71267 | 121.71417 | 32413 ft | 477 kts | 295° |
| 2026-05-06 22:18 | -27.68271 | 121.64783 | 32408 ft | 477 kts | 295° |
| 2026-05-06 22:18 | -27.65249 | 121.58102 | 32404 ft | 477 kts | 295° |
| 2026-05-06 22:19 | -27.62232 | 121.51443 | 32407 ft | 476 kts | 295° |
| 2026-05-06 22:19 | -27.59212 | 121.44791 | 32403 ft | 476 kts | 295° |
| 2026-05-06 22:20 | -27.56209 | 121.38185 | 32402 ft | 476 kts | 295° |
| 2026-05-06 22:20 | -27.53190 | 121.31553 | 32395 ft | 475 kts | 295° |
| 2026-05-06 22:21 | -27.50168 | 121.24927 | 32396 ft | 475 kts | 295° |
| 2026-05-06 22:21 | -27.47147 | 121.18312 | 32390 ft | 475 kts | 295° |
| 2026-05-06 22:22 | -27.44138 | 121.11737 | 32383 ft | 474 kts | 295° |
| 2026-05-06 22:22 | -27.41111 | 121.05130 | 32373 ft | 474 kts | 295° |
| 2026-05-06 22:23 | -27.38078 | 120.98520 | 32364 ft | 474 kts | 295° |
| 2026-05-06 22:23 | -27.35067 | 120.91967 | 32349 ft | 474 kts | 295° |
| 2026-05-06 22:24 | -27.32039 | 120.85388 | 32361 ft | 474 kts | 295° |
| 2026-05-06 22:24 | -27.29007 | 120.78814 | 32361 ft | 473 kts | 295° |
| 2026-05-06 22:25 | -27.26484 | 120.73350 | 32347 ft | 474 kts | 295° |
| 2026-05-06 22:25 | -27.23448 | 120.66784 | 32347 ft | 473 kts | 295° |
| 2026-05-06 22:26 | -27.20408 | 120.60218 | 32349 ft | 473 kts | 295° |
| 2026-05-06 22:26 | -27.17361 | 120.53650 | 32352 ft | 473 kts | 295° |
| 2026-05-06 22:27 | -27.14333 | 120.47132 | 32345 ft | 473 kts | 295° |
| 2026-05-06 22:27 | -27.11272 | 120.40552 | 32345 ft | 474 kts | 295° |
| 2026-05-06 22:28 | -27.08218 | 120.33998 | 32340 ft | 474 kts | 295° |
| 2026-05-06 22:28 | -27.05164 | 120.27451 | 32334 ft | 473 kts | 295° |
| 2026-05-06 22:29 | -27.02126 | 120.20955 | 32333 ft | 473 kts | 295° |
| 2026-05-06 22:29 | -26.99066 | 120.14418 | 32332 ft | 473 kts | 295° |
| 2026-05-06 22:30 | -26.96003 | 120.07884 | 32331 ft | 473 kts | 295° |
| 2026-05-06 22:30 | -26.92937 | 120.01355 | 32330 ft | 473 kts | 295° |
| 2026-05-06 22:31 | -26.89870 | 119.94832 | 32321 ft | 472 kts | 295° |
| 2026-05-06 22:31 | -26.86804 | 119.88322 | 32320 ft | 472 kts | 295° |
| 2026-05-06 22:32 | -26.83734 | 119.81814 | 32325 ft | 472 kts | 295° |
| 2026-05-06 22:32 | -26.80678 | 119.75344 | 32316 ft | 472 kts | 295° |
| 2026-05-06 22:33 | -26.77598 | 119.68834 | 32313 ft | 473 kts | 295° |
| 2026-05-06 22:33 | -26.74518 | 119.62333 | 32314 ft | 473 kts | 295° |
| 2026-05-06 22:34 | -26.71449 | 119.55866 | 32312 ft | 473 kts | 295° |
| 2026-05-06 22:34 | -26.68363 | 119.49370 | 32310 ft | 473 kts | 295° |
| 2026-05-06 22:35 | -26.65265 | 119.42860 | 32302 ft | 473 kts | 295° |
| 2026-05-06 22:35 | -26.62168 | 119.36360 | 32305 ft | 473 kts | 295° |
| 2026-05-06 22:36 | -26.58805 | 119.30093 | 32309 ft | 474 kts | 302° |
| 2026-05-06 22:36 | -26.55080 | 119.24009 | 32304 ft | 475 kts | 302° |
| 2026-05-06 22:37 | -26.51358 | 119.17911 | 32294 ft | 475 kts | 301° |
| 2026-05-06 22:37 | -26.47652 | 119.11806 | 32296 ft | 475 kts | 301° |
| 2026-05-06 22:38 | -26.43941 | 119.05686 | 32295 ft | 475 kts | 301° |
| 2026-05-06 22:38 | -26.40253 | 118.99611 | 32295 ft | 475 kts | 301° |
| 2026-05-06 22:39 | -26.36542 | 118.93506 | 32286 ft | 475 kts | 301° |
| 2026-05-06 22:39 | -26.32828 | 118.87405 | 32287 ft | 476 kts | 301° |
| 2026-05-06 22:40 | -26.29106 | 118.81301 | 32284 ft | 475 kts | 301° |
| 2026-05-06 22:40 | -26.25384 | 118.75206 | 32285 ft | 475 kts | 301° |
| 2026-05-06 22:41 | -26.19815 | 118.66101 | 32279 ft | 475 kts | 301° |
| 2026-05-06 22:42 | -26.16086 | 118.60012 | 32275 ft | 475 kts | 301° |
| 2026-05-06 22:42 | -26.12357 | 118.53933 | 32274 ft | 475 kts | 301° |
| 2026-05-06 22:43 | -26.08627 | 118.47858 | 32260 ft | 475 kts | 301° |
| 2026-05-06 22:43 | -26.04892 | 118.41785 | 32253 ft | 475 kts | 301° |
| 2026-05-06 22:44 | -26.01156 | 118.35718 | 32250 ft | 475 kts | 301° |
| 2026-05-06 22:44 | -25.97435 | 118.29683 | 32249 ft | 475 kts | 301° |
| 2026-05-06 22:45 | -25.93698 | 118.23630 | 32244 ft | 475 kts | 301° |
| 2026-05-06 22:45 | -25.89961 | 118.17586 | 32246 ft | 474 kts | 301° |
| 2026-05-06 22:46 | -25.86218 | 118.11540 | 32249 ft | 474 kts | 301° |
| 2026-05-06 22:46 | -25.82496 | 118.05535 | 32241 ft | 475 kts | 301° |
| 2026-05-06 22:47 | -25.78749 | 117.99496 | 32241 ft | 475 kts | 301° |
| 2026-05-06 22:47 | -25.75000 | 117.93463 | 32239 ft | 475 kts | 301° |
| 2026-05-06 22:48 | -25.71243 | 117.87426 | 32240 ft | 475 kts | 301° |
| 2026-05-06 22:48 | -25.67497 | 117.81413 | 32235 ft | 475 kts | 301° |
| 2026-05-06 22:49 | -25.63728 | 117.75373 | 32232 ft | 475 kts | 301° |
| 2026-05-06 22:49 | -25.59969 | 117.69353 | 32233 ft | 475 kts | 301° |
| 2026-05-06 22:50 | -25.56207 | 117.63339 | 32228 ft | 475 kts | 301° |
| 2026-05-06 22:50 | -25.52467 | 117.57368 | 32225 ft | 475 kts | 301° |
| 2026-05-06 22:51 | -25.48696 | 117.51354 | 32218 ft | 474 kts | 301° |
| 2026-05-06 22:51 | -25.44938 | 117.45367 | 32224 ft | 473 kts | 301° |
| 2026-05-06 22:52 | -25.41183 | 117.39394 | 32219 ft | 473 kts | 301° |
| 2026-05-06 22:52 | -25.37450 | 117.33464 | 32216 ft | 472 kts | 300° |
| 2026-05-06 22:53 | -25.33696 | 117.27508 | 32202 ft | 472 kts | 300° |
| 2026-05-06 22:53 | -25.29940 | 117.21555 | 32214 ft | 471 kts | 300° |
| 2026-05-06 22:54 | -25.26184 | 117.15610 | 32207 ft | 471 kts | 300° |
| 2026-05-06 22:54 | -25.22453 | 117.09711 | 32197 ft | 471 kts | 300° |
| 2026-05-06 22:55 | -25.18696 | 117.03778 | 32215 ft | 471 kts | 300° |
| 2026-05-06 22:55 | -25.14938 | 116.97852 | 32199 ft | 471 kts | 300° |
| 2026-05-06 22:56 | -25.11184 | 116.91939 | 32200 ft | 471 kts | 300° |
| 2026-05-06 22:56 | -25.07416 | 116.86010 | 32199 ft | 471 kts | 300° |
| 2026-05-06 22:57 | -25.03666 | 116.80131 | 32194 ft | 472 kts | 301° |
| 2026-05-06 22:57 | -24.99289 | 116.74677 | 32190 ft | 480 kts | 312° |
| 2026-05-06 22:58 | -24.94271 | 116.69778 | 32193 ft | 481 kts | 313° |
| 2026-05-06 22:58 | -24.89266 | 116.64882 | 32182 ft | 481 kts | 312° |
| 2026-05-06 22:59 | -24.84266 | 116.59957 | 32186 ft | 481 kts | 312° |
| 2026-05-06 22:59 | -24.79274 | 116.55028 | 32180 ft | 482 kts | 312° |
| 2026-05-06 23:00 | -24.74306 | 116.50127 | 32177 ft | 482 kts | 312° |
| 2026-05-06 23:00 | -24.69310 | 116.45201 | 32173 ft | 482 kts | 311° |
| 2026-05-06 23:01 | -24.64317 | 116.40286 | 32173 ft | 481 kts | 311° |
| 2026-05-06 23:01 | -24.59313 | 116.35366 | 32166 ft | 481 kts | 311° |
| 2026-05-06 23:02 | -24.54320 | 116.30462 | 32168 ft | 481 kts | 311° |
| 2026-05-06 23:02 | -24.49370 | 116.25606 | 32163 ft | 481 kts | 311° |
| 2026-05-06 23:03 | -24.44386 | 116.20723 | 32156 ft | 481 kts | 311° |
| 2026-05-06 23:03 | -24.39390 | 116.15833 | 32155 ft | 480 kts | 311° |
| 2026-05-06 23:04 | -24.34399 | 116.10953 | 32154 ft | 480 kts | 311° |
| 2026-05-06 23:04 | -24.29410 | 116.06080 | 32150 ft | 481 kts | 311° |
| 2026-05-06 23:05 | -24.24409 | 116.01200 | 32144 ft | 481 kts | 311° |
| 2026-05-06 23:05 | -24.19398 | 115.96318 | 32148 ft | 481 kts | 310° |
| 2026-05-06 23:06 | -24.14426 | 115.91477 | 32142 ft | 481 kts | 311° |
| 2026-05-06 23:06 | -24.09416 | 115.86605 | 32142 ft | 481 kts | 311° |
| 2026-05-06 23:07 | -24.04404 | 115.81737 | 32140 ft | 482 kts | 311° |
| 2026-05-06 23:07 | -23.99385 | 115.76867 | 32136 ft | 482 kts | 311° |
| 2026-05-06 23:08 | -23.94363 | 115.72000 | 32127 ft | 482 kts | 311° |
| 2026-05-06 23:08 | -23.89344 | 115.67142 | 32129 ft | 482 kts | 311° |
| 2026-05-06 23:09 | -23.84329 | 115.62292 | 32124 ft | 481 kts | 311° |
| 2026-05-06 23:09 | -23.79330 | 115.57463 | 32113 ft | 481 kts | 310° |
| 2026-05-06 23:10 | -23.74320 | 115.52627 | 32123 ft | 481 kts | 310° |
| 2026-05-06 23:10 | -23.69299 | 115.47785 | 32116 ft | 480 kts | 310° |
| 2026-05-06 23:11 | -23.64316 | 115.42988 | 32113 ft | 480 kts | 310° |
| 2026-05-06 23:11 | -23.59300 | 115.38162 | 32117 ft | 480 kts | 310° |
| 2026-05-06 23:12 | -23.54285 | 115.33344 | 32108 ft | 480 kts | 310° |
| 2026-05-06 23:12 | -23.49259 | 115.28521 | 32103 ft | 480 kts | 310° |
| 2026-05-06 23:13 | -23.45093 | 115.24524 | 32099 ft | 480 kts | 310° |
| 2026-05-06 23:13 | -23.40076 | 115.19717 | 32100 ft | 480 kts | 310° |
| 2026-05-06 23:14 | -23.35052 | 115.14909 | 32107 ft | 480 kts | 310° |
| 2026-05-06 23:14 | -23.30060 | 115.10135 | 32100 ft | 480 kts | 310° |
| 2026-05-06 23:15 | -23.25041 | 115.05341 | 32103 ft | 480 kts | 310° |
| 2026-05-06 23:15 | -23.20014 | 115.00546 | 32105 ft | 480 kts | 310° |
| 2026-05-06 23:16 | -23.14992 | 114.95761 | 32114 ft | 480 kts | 310° |
| 2026-05-06 23:16 | -23.09964 | 114.90973 | 32120 ft | 480 kts | 310° |
| 2026-05-06 23:17 | -23.04942 | 114.86195 | 32122 ft | 480 kts | 310° |
| 2026-05-06 23:17 | -22.99939 | 114.81441 | 32116 ft | 480 kts | 310° |
| 2026-05-06 23:18 | -22.94903 | 114.76661 | 32105 ft | 480 kts | 310° |
| 2026-05-06 23:18 | -22.89866 | 114.71885 | 32118 ft | 480 kts | 310° |
| 2026-05-06 23:19 | -22.84828 | 114.67113 | 32118 ft | 480 kts | 310° |
| 2026-05-06 23:19 | -22.79792 | 114.62348 | 32100 ft | 480 kts | 310° |
| 2026-05-06 23:20 | -22.74755 | 114.57586 | 32102 ft | 480 kts | 310° |
| 2026-05-06 23:20 | -22.69748 | 114.52858 | 32098 ft | 480 kts | 309° |
| 2026-05-06 23:21 | -22.64697 | 114.48094 | 32098 ft | 480 kts | 309° |
| 2026-05-06 23:21 | -22.59655 | 114.43342 | 32111 ft | 480 kts | 309° |
| 2026-05-06 23:22 | -22.54649 | 114.38628 | 32099 ft | 480 kts | 309° |
| 2026-05-06 23:22 | -22.49613 | 114.33891 | 32111 ft | 480 kts | 309° |
| 2026-05-06 23:23 | -22.44563 | 114.29145 | 32099 ft | 481 kts | 309° |
| 2026-05-06 23:23 | -22.39508 | 114.24400 | 32100 ft | 481 kts | 309° |
| 2026-05-06 23:24 | -22.34454 | 114.19660 | 32108 ft | 481 kts | 309° |
| 2026-05-06 23:24 | -22.29394 | 114.14917 | 32100 ft | 481 kts | 309° |
| 2026-05-06 23:25 | -22.24431 | 114.10189 | 32099 ft | 477 kts | 306° |
| 2026-05-06 23:25 | -22.20206 | 114.04883 | 32120 ft | 464 kts | 297° |
| 2026-05-06 23:26 | -22.16324 | 113.99310 | 32094 ft | 464 kts | 297° |
| 2026-05-06 23:26 | -22.12412 | 113.93760 | 32102 ft | 465 kts | 298° |
| 2026-05-06 23:27 | -22.08475 | 113.88210 | 32096 ft | 465 kts | 298° |
| 2026-05-06 23:27 | -22.04545 | 113.82683 | 32100 ft | 464 kts | 298° |
| 2026-05-06 23:28 | -22.00634 | 113.77188 | 32101 ft | 464 kts | 298° |
| 2026-05-06 23:28 | -21.96701 | 113.71666 | 32102 ft | 464 kts | 298° |
| 2026-05-06 23:29 | -21.92769 | 113.66149 | 32103 ft | 464 kts | 298° |
| 2026-05-06 23:29 | -21.88819 | 113.60613 | 32103 ft | 464 kts | 298° |
| 2026-05-06 23:30 | -21.84912 | 113.55142 | 32100 ft | 464 kts | 298° |
| 2026-05-06 23:30 | -21.80970 | 113.49629 | 32101 ft | 464 kts | 298° |
| 2026-05-06 23:31 | -21.77030 | 113.44121 | 32101 ft | 464 kts | 298° |
| 2026-05-06 23:31 | -21.73092 | 113.38626 | 32101 ft | 464 kts | 298° |
| 2026-05-06 23:32 | -21.69148 | 113.33127 | 32103 ft | 464 kts | 298° |
| 2026-05-06 23:32 | -21.65229 | 113.27668 | 32098 ft | 464 kts | 298° |
| 2026-05-06 23:33 | -21.61283 | 113.22174 | 32099 ft | 464 kts | 298° |
| 2026-05-06 23:33 | -21.57334 | 113.16685 | 32109 ft | 464 kts | 298° |
| 2026-05-06 23:34 | -21.53374 | 113.11185 | 32102 ft | 464 kts | 297° |
| 2026-05-06 23:34 | -21.49421 | 113.05701 | 32095 ft | 464 kts | 297° |
| 2026-05-06 23:35 | -21.45468 | 113.00222 | 32100 ft | 464 kts | 298° |
| 2026-05-06 23:35 | -21.41536 | 112.94777 | 32102 ft | 464 kts | 298° |
| 2026-05-06 23:36 | -21.37571 | 112.89292 | 32121 ft | 464 kts | 297° |
| 2026-05-06 23:36 | -21.33606 | 112.83813 | 32102 ft | 464 kts | 297° |
| 2026-05-06 23:37 | -21.29650 | 112.78349 | 32098 ft | 464 kts | 297° |
| 2026-05-06 23:37 | -21.25687 | 112.72883 | 32101 ft | 464 kts | 297° |
| 2026-05-06 23:38 | -21.21745 | 112.67452 | 32101 ft | 464 kts | 298° |
| 2026-05-06 23:38 | -21.17779 | 112.61993 | 32102 ft | 463 kts | 298° |
| 2026-05-06 23:39 | -21.13817 | 112.56544 | 32101 ft | 463 kts | 298° |
| 2026-05-06 23:39 | -21.09848 | 112.51090 | 32101 ft | 463 kts | 298° |
| 2026-05-06 23:40 | -21.05906 | 112.45679 | 32101 ft | 464 kts | 298° |
| 2026-05-06 23:40 | -21.01934 | 112.40232 | 32102 ft | 464 kts | 298° |
| 2026-05-06 23:41 | -20.97955 | 112.34780 | 32101 ft | 464 kts | 298° |
| 2026-05-06 23:41 | -20.93976 | 112.29334 | 32119 ft | 464 kts | 298° |
| 2026-05-06 23:42 | -20.89997 | 112.23894 | 32097 ft | 464 kts | 298° |
| 2026-05-06 23:42 | -20.86016 | 112.18457 | 32090 ft | 464 kts | 298° |
| 2026-05-06 23:43 | -20.82034 | 112.13021 | 32091 ft | 464 kts | 298° |
| 2026-05-06 23:43 | -20.78080 | 112.07627 | 32094 ft | 464 kts | 298° |
| 2026-05-06 23:44 | -20.74093 | 112.02201 | 32091 ft | 464 kts | 298° |
| 2026-05-06 23:44 | -20.70100 | 111.96782 | 32091 ft | 464 kts | 298° |
| 2026-05-06 23:45 | -20.66101 | 111.91359 | 32093 ft | 464 kts | 298° |
| 2026-05-06 23:45 | -20.62103 | 111.85940 | 32093 ft | 465 kts | 298° |
| 2026-05-06 23:46 | -20.58125 | 111.80552 | 32094 ft | 465 kts | 298° |
| 2026-05-06 23:46 | -20.54115 | 111.75124 | 32093 ft | 466 kts | 298° |
| 2026-05-06 23:47 | -20.50097 | 111.69694 | 32096 ft | 466 kts | 298° |
| 2026-05-06 23:47 | -20.46081 | 111.64271 | 32091 ft | 465 kts | 298° |
| 2026-05-06 23:48 | -20.42067 | 111.58856 | 32091 ft | 464 kts | 298° |
| 2026-05-06 23:48 | -20.38081 | 111.53483 | 32091 ft | 464 kts | 299° |
| 2026-05-06 23:49 | -20.34076 | 111.48089 | 32094 ft | 464 kts | 299° |
| 2026-05-06 23:49 | -20.30072 | 111.42700 | 32092 ft | 464 kts | 299° |
| 2026-05-06 23:50 | -20.26051 | 111.37294 | 32092 ft | 464 kts | 299° |
| 2026-05-06 23:50 | -20.20059 | 111.29247 | 32091 ft | 464 kts | 299° |
| 2026-05-06 23:51 | -20.16038 | 111.23854 | 32094 ft | 465 kts | 299° |
| 2026-05-06 23:51 | -20.12009 | 111.18455 | 32094 ft | 465 kts | 299° |
| 2026-05-06 23:52 | -20.07976 | 111.13055 | 32090 ft | 466 kts | 299° |
| 2026-05-06 23:52 | -20.03966 | 111.07692 | 32083 ft | 466 kts | 299° |
| 2026-05-06 23:53 | -19.99934 | 111.02306 | 32082 ft | 465 kts | 299° |
| 2026-05-06 23:53 | -19.95895 | 110.96915 | 32079 ft | 465 kts | 300° |
| 2026-05-06 23:54 | -19.91859 | 110.91531 | 32085 ft | 466 kts | 300° |
| 2026-05-06 23:54 | -19.87815 | 110.86140 | 32087 ft | 466 kts | 300° |
| 2026-05-06 23:55 | -19.83768 | 110.80751 | 32082 ft | 467 kts | 300° |
| 2026-05-06 23:55 | -19.79715 | 110.75361 | 32084 ft | 467 kts | 300° |
| 2026-05-06 23:56 | -19.75680 | 110.69998 | 32083 ft | 467 kts | 300° |
| 2026-05-06 23:56 | -19.71617 | 110.64603 | 32087 ft | 467 kts | 300° |
| 2026-05-06 23:57 | -19.67549 | 110.59208 | 32082 ft | 467 kts | 300° |
| 2026-05-06 23:57 | -19.63487 | 110.53826 | 32082 ft | 467 kts | 300° |
| 2026-05-06 23:58 | -19.59453 | 110.48483 | 32082 ft | 466 kts | 301° |
| 2026-05-06 23:58 | -19.55391 | 110.43110 | 32076 ft | 466 kts | 301° |
| 2026-05-06 23:59 | -19.51322 | 110.37729 | 32068 ft | 466 kts | 301° |
| 2026-05-06 23:59 | -19.47280 | 110.32391 | 32065 ft | 467 kts | 301° |
| 2026-05-07 00:00 | -19.43212 | 110.27023 | 32065 ft | 467 kts | 301° |
| 2026-05-07 00:00 | -19.39829 | 110.22563 | 32065 ft | 467 kts | 301° |
| 2026-05-07 00:01 | -19.35757 | 110.17199 | 32065 ft | 467 kts | 301° |
| 2026-05-07 00:01 | -19.31703 | 110.11863 | 32060 ft | 467 kts | 301° |
| 2026-05-07 00:02 | -19.27622 | 110.06496 | 32056 ft | 467 kts | 301° |
| 2026-05-07 00:02 | -19.23539 | 110.01132 | 32053 ft | 468 kts | 301° |
| 2026-05-07 00:03 | -19.19454 | 109.95770 | 32057 ft | 468 kts | 301° |
| 2026-05-07 00:03 | -19.15371 | 109.90413 | 32052 ft | 468 kts | 301° |
| 2026-05-07 00:04 | -19.11283 | 109.85057 | 32054 ft | 468 kts | 301° |
| 2026-05-07 00:04 | -19.07221 | 109.79739 | 32044 ft | 467 kts | 301° |
| 2026-05-07 00:05 | -19.03136 | 109.74396 | 32051 ft | 467 kts | 301° |
| 2026-05-07 00:05 | -18.99047 | 109.69051 | 32039 ft | 468 kts | 301° |
| 2026-05-07 00:06 | -18.94945 | 109.63693 | 32042 ft | 469 kts | 302° |
| 2026-05-07 00:06 | -18.90833 | 109.58328 | 32052 ft | 470 kts | 302° |
| 2026-05-07 00:07 | -18.86705 | 109.52946 | 32046 ft | 472 kts | 302° |
| 2026-05-07 00:07 | -18.82592 | 109.47589 | 32042 ft | 473 kts | 302° |
| 2026-05-07 00:08 | -18.78418 | 109.42156 | 32036 ft | 474 kts | 302° |
| 2026-05-07 00:08 | -18.74286 | 109.36784 | 32037 ft | 474 kts | 302° |
| 2026-05-07 00:09 | -18.70125 | 109.31379 | 32038 ft | 474 kts | 302° |
| 2026-05-07 00:09 | -18.65967 | 109.25984 | 32036 ft | 473 kts | 302° |
| 2026-05-07 00:10 | -18.61814 | 109.20596 | 32036 ft | 473 kts | 302° |
| 2026-05-07 00:10 | -18.57685 | 109.15245 | 32036 ft | 473 kts | 302° |
| 2026-05-07 00:11 | -18.53530 | 109.09864 | 32027 ft | 472 kts | 302° |
| 2026-05-07 00:11 | -18.49378 | 109.04493 | 32028 ft | 472 kts | 302° |
| 2026-05-07 00:12 | -18.45223 | 108.99124 | 32031 ft | 472 kts | 302° |
| 2026-05-07 00:12 | -18.41087 | 108.93788 | 32026 ft | 473 kts | 302° |
| 2026-05-07 00:13 | -18.36927 | 108.88422 | 32029 ft | 473 kts | 302° |
| 2026-05-07 00:13 | -18.32760 | 108.83048 | 32027 ft | 473 kts | 302° |
| 2026-05-07 00:14 | -18.28613 | 108.77709 | 32030 ft | 473 kts | 303° |
| 2026-05-07 00:14 | -18.24447 | 108.72347 | 32022 ft | 473 kts | 303° |
| 2026-05-07 00:15 | -18.20276 | 108.66983 | 32018 ft | 473 kts | 303° |
| 2026-05-07 00:15 | -18.16108 | 108.61628 | 32018 ft | 473 kts | 303° |
| 2026-05-07 00:16 | -18.11938 | 108.56275 | 32019 ft | 473 kts | 303° |
| 2026-05-07 00:16 | -18.07764 | 108.50921 | 32018 ft | 474 kts | 303° |
| 2026-05-07 00:17 | -18.03582 | 108.45560 | 32020 ft | 474 kts | 303° |
| 2026-05-07 00:17 | -17.99416 | 108.40226 | 32018 ft | 475 kts | 303° |
| 2026-05-07 00:18 | -17.95225 | 108.34865 | 32019 ft | 475 kts | 303° |
| 2026-05-07 00:18 | -17.91030 | 108.29502 | 32011 ft | 475 kts | 303° |
| 2026-05-07 00:19 | -17.86829 | 108.24136 | 32009 ft | 475 kts | 303° |
| 2026-05-07 00:19 | -17.82652 | 108.18804 | 32009 ft | 475 kts | 303° |
| 2026-05-07 00:20 | -17.78456 | 108.13453 | 32009 ft | 475 kts | 303° |
| 2026-05-07 00:20 | -17.74250 | 108.08093 | 32010 ft | 475 kts | 303° |
| 2026-05-07 00:21 | -17.70072 | 108.02774 | 32009 ft | 474 kts | 303° |
| 2026-05-07 00:21 | -17.65869 | 107.97426 | 32009 ft | 474 kts | 303° |
| 2026-05-07 00:22 | -17.61670 | 107.92090 | 32008 ft | 474 kts | 303° |
| 2026-05-07 00:22 | -17.57466 | 107.86749 | 32004 ft | 475 kts | 303° |
| 2026-05-07 00:23 | -17.53260 | 107.81411 | 32000 ft | 475 kts | 303° |
| 2026-05-07 00:23 | -17.49047 | 107.76069 | 32000 ft | 475 kts | 303° |
| 2026-05-07 00:24 | -17.44834 | 107.70730 | 31999 ft | 475 kts | 304° |
| 2026-05-07 00:24 | -17.40620 | 107.65395 | 32001 ft | 476 kts | 304° |
| 2026-05-07 00:25 | -17.36396 | 107.60052 | 32000 ft | 476 kts | 304° |
| 2026-05-07 00:25 | -17.32172 | 107.54712 | 32000 ft | 477 kts | 304° |
| 2026-05-07 00:26 | -17.27936 | 107.49361 | 32001 ft | 477 kts | 304° |
| 2026-05-07 00:26 | -17.23725 | 107.44048 | 32002 ft | 477 kts | 304° |
| 2026-05-07 00:27 | -17.19485 | 107.38700 | 31993 ft | 478 kts | 304° |
| 2026-05-07 00:27 | -17.15240 | 107.33352 | 31997 ft | 478 kts | 304° |
| 2026-05-07 00:28 | -17.10994 | 107.28007 | 31996 ft | 477 kts | 304° |
| 2026-05-07 00:28 | -17.06746 | 107.22663 | 31988 ft | 477 kts | 304° |
| 2026-05-07 00:29 | -17.02498 | 107.17322 | 31990 ft | 477 kts | 304° |
| 2026-05-07 00:30 | -16.94027 | 107.06685 | 31997 ft | 478 kts | 304° |
| 2026-05-07 00:30 | -16.89773 | 107.01349 | 31989 ft | 478 kts | 304° |
| 2026-05-07 00:31 | -16.85514 | 106.96012 | 31985 ft | 478 kts | 304° |
| 2026-05-07 00:31 | -16.81253 | 106.90677 | 31987 ft | 479 kts | 304° |
| 2026-05-07 00:32 | -16.76976 | 106.85326 | 31997 ft | 479 kts | 304° |
| 2026-05-07 00:32 | -16.72725 | 106.80010 | 31982 ft | 480 kts | 304° |
| 2026-05-07 00:33 | -16.68446 | 106.74666 | 31981 ft | 480 kts | 304° |
| 2026-05-07 00:33 | -16.64164 | 106.69320 | 31980 ft | 480 kts | 304° |
| 2026-05-07 00:34 | -16.59871 | 106.63965 | 31982 ft | 481 kts | 305° |
| 2026-05-07 00:34 | -16.55611 | 106.58653 | 31982 ft | 481 kts | 305° |
| 2026-05-07 00:35 | -16.51314 | 106.53303 | 31978 ft | 481 kts | 305° |
| 2026-05-07 00:35 | -16.47014 | 106.47951 | 31980 ft | 482 kts | 305° |
| 2026-05-07 00:36 | -16.42706 | 106.42593 | 31982 ft | 482 kts | 305° |
| 2026-05-07 00:36 | -16.38390 | 106.37229 | 31980 ft | 483 kts | 305° |
| 2026-05-07 00:37 | -16.34073 | 106.31870 | 31987 ft | 483 kts | 305° |
| 2026-05-07 00:37 | -16.29753 | 106.26511 | 31984 ft | 484 kts | 305° |
| 2026-05-07 00:38 | -16.25456 | 106.21183 | 31985 ft | 484 kts | 305° |
| 2026-05-07 00:38 | -16.21126 | 106.15817 | 31980 ft | 484 kts | 305° |
| 2026-05-07 00:39 | -16.16795 | 106.10456 | 31977 ft | 484 kts | 305° |
| 2026-05-07 00:39 | -16.12463 | 106.05097 | 31978 ft | 484 kts | 305° |
| 2026-05-07 00:40 | -16.08122 | 105.99732 | 31975 ft | 484 kts | 305° |
| 2026-05-07 00:40 | -16.03784 | 105.94373 | 31969 ft | 484 kts | 306° |
| 2026-05-07 00:41 | -15.99444 | 105.89015 | 31974 ft | 484 kts | 306° |
| 2026-05-07 00:41 | -15.95129 | 105.83694 | 31973 ft | 484 kts | 306° |
| 2026-05-07 00:42 | -15.90792 | 105.78348 | 31971 ft | 484 kts | 306° |
| 2026-05-07 00:42 | -15.86455 | 105.73007 | 31971 ft | 484 kts | 306° |
| 2026-05-07 00:43 | -15.82098 | 105.67645 | 31970 ft | 484 kts | 306° |
| 2026-05-07 00:43 | -15.77782 | 105.62337 | 31974 ft | 484 kts | 306° |
| 2026-05-07 00:44 | -15.73440 | 105.57000 | 31973 ft | 484 kts | 306° |
| 2026-05-07 00:44 | -15.69084 | 105.51651 | 31972 ft | 485 kts | 306° |
| 2026-05-07 00:45 | -15.64727 | 105.46305 | 31975 ft | 485 kts | 306° |
| 2026-05-07 00:45 | -15.60365 | 105.40957 | 31980 ft | 485 kts | 306° |
| 2026-05-07 00:46 | -15.56025 | 105.35638 | 31982 ft | 485 kts | 306° |
| 2026-05-07 00:46 | -15.51660 | 105.30293 | 31980 ft | 486 kts | 306° |
| 2026-05-07 00:47 | -15.47279 | 105.24934 | 31972 ft | 486 kts | 306° |
| 2026-05-07 00:47 | -15.42908 | 105.19589 | 31974 ft | 486 kts | 306° |
| 2026-05-07 00:48 | -15.38550 | 105.14264 | 31971 ft | 486 kts | 306° |
| 2026-05-07 00:48 | -15.34170 | 105.08916 | 31972 ft | 486 kts | 307° |
| 2026-05-07 00:49 | -15.30534 | 105.04479 | 31974 ft | 486 kts | 307° |
| 2026-05-07 00:49 | -15.26169 | 104.99158 | 31964 ft | 486 kts | 307° |
| 2026-05-07 00:50 | -15.21789 | 104.93820 | 31969 ft | 485 kts | 307° |
| 2026-05-07 00:50 | -15.17413 | 104.88491 | 31970 ft | 485 kts | 307° |
| 2026-05-07 00:51 | -15.13075 | 104.83213 | 31974 ft | 486 kts | 307° |
| 2026-05-07 00:51 | -15.08677 | 104.77864 | 31972 ft | 486 kts | 307° |
| 2026-05-07 00:52 | -15.04289 | 104.72532 | 31972 ft | 487 kts | 307° |
| 2026-05-07 00:52 | -14.99896 | 104.67198 | 31972 ft | 487 kts | 307° |
| 2026-05-07 00:53 | -14.95527 | 104.61896 | 31968 ft | 487 kts | 307° |
| 2026-05-07 00:53 | -14.91130 | 104.56565 | 31972 ft | 487 kts | 307° |
| 2026-05-07 00:54 | -14.86725 | 104.51227 | 31975 ft | 488 kts | 307° |
| 2026-05-07 00:54 | -14.82314 | 104.45884 | 31974 ft | 488 kts | 307° |
| 2026-05-07 00:55 | -14.77901 | 104.40545 | 31973 ft | 488 kts | 307° |
| 2026-05-07 00:55 | -14.73486 | 104.35207 | 31970 ft | 489 kts | 307° |
| 2026-05-07 00:56 | -14.69088 | 104.29892 | 31974 ft | 489 kts | 307° |
| 2026-05-07 00:56 | -14.64665 | 104.24551 | 31974 ft | 489 kts | 307° |
| 2026-05-07 00:57 | -14.60237 | 104.19206 | 31968 ft | 489 kts | 308° |
| 2026-05-07 00:57 | -14.55803 | 104.13860 | 31970 ft | 490 kts | 308° |
| 2026-05-07 00:58 | -14.53626 | 104.11235 | 32076 ft | 492 kts | 308° |
| 2026-05-07 00:58 | -14.51396 | 104.08548 | 32390 ft | 491 kts | 308° |
| 2026-05-07 00:58 | -14.49222 | 104.05930 | 32789 ft | 487 kts | 308° |
| 2026-05-07 00:58 | -14.47010 | 104.03269 | 33172 ft | 484 kts | 307° |
| 2026-05-07 00:59 | -14.42640 | 103.98010 | 33732 ft | 482 kts | 307° |
| 2026-05-07 00:59 | -14.40453 | 103.95379 | 33904 ft | 482 kts | 307° |
| 2026-05-07 01:00 | -14.36081 | 103.90121 | 33965 ft | 481 kts | 307° |
| 2026-05-07 01:00 | -14.31754 | 103.84920 | 33959 ft | 480 kts | 307° |
| 2026-05-07 01:01 | -14.27411 | 103.79706 | 33963 ft | 479 kts | 307° |
| 2026-05-07 01:01 | -14.23072 | 103.74498 | 33958 ft | 478 kts | 307° |
| 2026-05-07 01:02 | -14.18732 | 103.69292 | 33965 ft | 478 kts | 307° |
| 2026-05-07 01:02 | -14.14412 | 103.64114 | 33963 ft | 478 kts | 307° |
| 2026-05-07 01:03 | -14.10066 | 103.58909 | 33966 ft | 479 kts | 307° |
| 2026-05-07 01:03 | -14.05725 | 103.53712 | 33967 ft | 479 kts | 307° |
| 2026-05-07 01:04 | -14.01374 | 103.48508 | 33962 ft | 479 kts | 307° |
| 2026-05-07 01:04 | -13.97041 | 103.43327 | 33954 ft | 480 kts | 308° |
| 2026-05-07 01:05 | -13.92675 | 103.38110 | 33961 ft | 481 kts | 308° |
| 2026-05-07 01:05 | -13.88308 | 103.32897 | 33977 ft | 481 kts | 308° |
| 2026-05-07 01:06 | -13.83929 | 103.27672 | 33981 ft | 481 kts | 308° |
| 2026-05-07 01:06 | -13.79550 | 103.22450 | 33983 ft | 482 kts | 308° |
| 2026-05-07 01:07 | -13.75190 | 103.17254 | 33982 ft | 483 kts | 308° |
| 2026-05-07 01:07 | -13.70797 | 103.12023 | 33983 ft | 483 kts | 308° |
| 2026-05-07 01:08 | -13.66404 | 103.06795 | 33981 ft | 483 kts | 308° |
| 2026-05-07 01:08 | -13.62004 | 103.01560 | 33982 ft | 484 kts | 308° |
| 2026-05-07 01:09 | -13.57599 | 102.96325 | 33981 ft | 484 kts | 308° |
| 2026-05-07 01:09 | -13.53199 | 102.91097 | 33982 ft | 484 kts | 308° |
| 2026-05-07 01:10 | -13.48819 | 102.85897 | 33981 ft | 483 kts | 308° |
| 2026-05-07 01:10 | -13.44416 | 102.80673 | 33973 ft | 484 kts | 308° |
| 2026-05-07 01:11 | -13.40012 | 102.75450 | 33970 ft | 484 kts | 308° |
| 2026-05-07 01:11 | -13.35603 | 102.70224 | 33970 ft | 483 kts | 308° |
| 2026-05-07 01:12 | -13.31200 | 102.65010 | 33970 ft | 483 kts | 308° |
| 2026-05-07 01:12 | -13.26794 | 102.59795 | 33971 ft | 483 kts | 308° |
| 2026-05-07 01:13 | -13.22385 | 102.54579 | 33968 ft | 483 kts | 308° |
| 2026-05-07 01:13 | -13.17978 | 102.49369 | 33971 ft | 483 kts | 308° |
| 2026-05-07 01:14 | -13.13603 | 102.44200 | 33970 ft | 483 kts | 308° |
| 2026-05-07 01:14 | -13.09185 | 102.38983 | 33974 ft | 483 kts | 308° |
| 2026-05-07 01:15 | -13.04772 | 102.33775 | 33972 ft | 483 kts | 308° |
| 2026-05-07 01:15 | -13.00354 | 102.28565 | 33971 ft | 484 kts | 308° |
| 2026-05-07 01:16 | -12.95932 | 102.23352 | 33972 ft | 484 kts | 308° |
| 2026-05-07 01:16 | -12.91537 | 102.18175 | 33974 ft | 484 kts | 308° |
| 2026-05-07 01:17 | -12.87107 | 102.12959 | 33972 ft | 485 kts | 309° |
| 2026-05-07 01:17 | -12.82680 | 102.07750 | 33972 ft | 485 kts | 309° |
| 2026-05-07 01:18 | -12.78241 | 102.02529 | 33979 ft | 485 kts | 309° |
| 2026-05-07 01:18 | -12.73802 | 101.97312 | 33973 ft | 485 kts | 309° |
| 2026-05-07 01:19 | -12.69394 | 101.92134 | 33972 ft | 485 kts | 309° |
| 2026-05-07 01:19 | -12.64952 | 101.86919 | 33968 ft | 485 kts | 309° |
| 2026-05-07 01:20 | -12.60512 | 101.81712 | 33959 ft | 485 kts | 309° |
| 2026-05-07 01:20 | -12.56072 | 101.76504 | 33958 ft | 485 kts | 309° |
| 2026-05-07 01:21 | -12.51636 | 101.71306 | 33961 ft | 485 kts | 309° |
| 2026-05-07 01:21 | -12.47195 | 101.66104 | 33957 ft | 484 kts | 309° |
| 2026-05-07 01:22 | -12.42759 | 101.60912 | 33969 ft | 484 kts | 309° |
| 2026-05-07 01:22 | -12.38347 | 101.55749 | 33958 ft | 484 kts | 309° |
| 2026-05-07 01:23 | -12.33898 | 101.50547 | 33963 ft | 484 kts | 309° |
| 2026-05-07 01:23 | -12.29457 | 101.45358 | 33957 ft | 484 kts | 309° |
| 2026-05-07 01:24 | -12.25019 | 101.40175 | 33961 ft | 484 kts | 309° |
| 2026-05-07 01:24 | -12.20604 | 101.35021 | 33969 ft | 484 kts | 309° |
| 2026-05-07 01:25 | -12.16157 | 101.29832 | 33966 ft | 484 kts | 309° |
| 2026-05-07 01:25 | -12.11712 | 101.24649 | 33951 ft | 484 kts | 309° |
| 2026-05-07 01:26 | -12.07264 | 101.19465 | 33960 ft | 484 kts | 309° |
| 2026-05-07 01:26 | -12.02849 | 101.14324 | 33954 ft | 484 kts | 309° |
| 2026-05-07 01:27 | -11.98403 | 101.09149 | 33954 ft | 484 kts | 309° |
| 2026-05-07 01:27 | -11.93953 | 101.03970 | 33949 ft | 484 kts | 310° |
| 2026-05-07 01:28 | -11.89495 | 100.98785 | 33955 ft | 485 kts | 310° |
| 2026-05-07 01:28 | -11.85054 | 100.93622 | 33947 ft | 486 kts | 310° |
| 2026-05-07 01:29 | -11.80585 | 100.88431 | 33950 ft | 486 kts | 310° |
| 2026-05-07 01:29 | -11.76141 | 100.83272 | 33936 ft | 486 kts | 310° |
| 2026-05-07 01:30 | -11.71666 | 100.78080 | 33953 ft | 486 kts | 310° |
| 2026-05-07 01:30 | -11.67197 | 100.72896 | 33939 ft | 486 kts | 310° |
| 2026-05-07 01:31 | -11.62724 | 100.67712 | 33935 ft | 486 kts | 310° |
| 2026-05-07 01:31 | -11.58258 | 100.62536 | 33942 ft | 486 kts | 310° |
| 2026-05-07 01:32 | -11.53817 | 100.57393 | 33952 ft | 485 kts | 310° |
| 2026-05-07 01:32 | -11.49353 | 100.52225 | 33934 ft | 485 kts | 310° |
| 2026-05-07 01:33 | -11.44880 | 100.47051 | 33937 ft | 485 kts | 310° |
| 2026-05-07 01:33 | -11.40444 | 100.41929 | 33935 ft | 485 kts | 310° |
| 2026-05-07 01:34 | -11.35977 | 100.36771 | 33935 ft | 485 kts | 310° |
| 2026-05-07 01:34 | -11.31511 | 100.31615 | 33936 ft | 485 kts | 310° |
| 2026-05-07 01:35 | -11.27047 | 100.26462 | 33936 ft | 485 kts | 310° |
| 2026-05-07 01:35 | -11.22605 | 100.21339 | 33937 ft | 485 kts | 310° |
| 2026-05-07 01:36 | -11.18138 | 100.16189 | 33937 ft | 485 kts | 310° |
| 2026-05-07 01:36 | -11.14422 | 100.11906 | 33936 ft | 485 kts | 310° |
| 2026-05-07 01:37 | -11.09950 | 100.06756 | 33935 ft | 485 kts | 310° |
| 2026-05-07 01:37 | -11.05475 | 100.01605 | 33934 ft | 485 kts | 310° |
| 2026-05-07 01:38 | -11.01017 | 99.96475 | 33956 ft | 485 kts | 311° |
| 2026-05-07 01:38 | -10.96542 | 99.91327 | 33932 ft | 485 kts | 311° |
| 2026-05-07 01:39 | -10.92066 | 99.86182 | 33936 ft | 485 kts | 311° |
| 2026-05-07 01:39 | -10.87592 | 99.81041 | 33935 ft | 485 kts | 311° |
| 2026-05-07 01:40 | -10.83121 | 99.75906 | 33934 ft | 484 kts | 311° |
| 2026-05-07 01:40 | -10.78649 | 99.70774 | 33936 ft | 484 kts | 311° |
| 2026-05-07 01:41 | -10.74183 | 99.65650 | 33934 ft | 484 kts | 311° |
| 2026-05-07 01:41 | -10.69720 | 99.60532 | 33934 ft | 483 kts | 311° |
| 2026-05-07 01:42 | -10.65279 | 99.55442 | 33935 ft | 483 kts | 311° |
| 2026-05-07 01:42 | -10.60808 | 99.50319 | 33935 ft | 483 kts | 311° |
| 2026-05-07 01:43 | -10.56364 | 99.45231 | 33928 ft | 484 kts | 311° |
| 2026-05-07 01:43 | -10.51895 | 99.40117 | 33924 ft | 484 kts | 311° |
| 2026-05-07 01:44 | -10.47420 | 99.34998 | 33926 ft | 484 kts | 311° |
| 2026-05-07 01:44 | -10.42950 | 99.29885 | 33923 ft | 484 kts | 311° |
| 2026-05-07 01:45 | -10.38476 | 99.24772 | 33917 ft | 484 kts | 311° |
| 2026-05-07 01:45 | -10.34002 | 99.19661 | 33924 ft | 484 kts | 311° |
| 2026-05-07 01:46 | -10.29526 | 99.14549 | 33925 ft | 484 kts | 311° |
| 2026-05-07 01:46 | -10.25074 | 99.09469 | 33927 ft | 484 kts | 311° |
| 2026-05-07 01:47 | -10.20600 | 99.04364 | 33926 ft | 484 kts | 311° |
| 2026-05-07 01:47 | -10.16121 | 98.99257 | 33926 ft | 484 kts | 311° |
| 2026-05-07 01:48 | -10.11668 | 98.94183 | 33926 ft | 484 kts | 311° |
| 2026-05-07 01:48 | -10.07188 | 98.89079 | 33924 ft | 484 kts | 311° |
| 2026-05-07 01:49 | -10.02702 | 98.83970 | 33926 ft | 484 kts | 311° |
| 2026-05-07 01:49 | -9.98208 | 98.78854 | 33924 ft | 484 kts | 311° |
| 2026-05-07 01:50 | -9.93751 | 98.73784 | 33926 ft | 484 kts | 312° |
| 2026-05-07 01:50 | -9.89266 | 98.68684 | 33927 ft | 485 kts | 312° |
| 2026-05-07 01:51 | -9.84767 | 98.63570 | 33922 ft | 485 kts | 312° |
| 2026-05-07 01:51 | -9.80272 | 98.58462 | 33926 ft | 485 kts | 312° |
| 2026-05-07 01:52 | -9.75770 | 98.53350 | 33927 ft | 486 kts | 312° |
| 2026-05-07 01:52 | -9.71292 | 98.48267 | 33926 ft | 486 kts | 312° |
| 2026-05-07 01:53 | -9.66790 | 98.43158 | 33927 ft | 486 kts | 312° |
| 2026-05-07 01:53 | -9.62278 | 98.38039 | 33925 ft | 486 kts | 312° |
| 2026-05-07 01:54 | -9.57770 | 98.32929 | 33927 ft | 486 kts | 312° |
| 2026-05-07 01:54 | -9.53263 | 98.27821 | 33927 ft | 486 kts | 312° |
| 2026-05-07 01:55 | -9.48779 | 98.22742 | 33925 ft | 486 kts | 312° |
| 2026-05-07 01:55 | -9.44267 | 98.17634 | 33926 ft | 486 kts | 312° |
| 2026-05-07 01:56 | -9.39757 | 98.12529 | 33926 ft | 486 kts | 312° |
| 2026-05-07 01:56 | -9.35276 | 98.07460 | 33926 ft | 486 kts | 312° |
| 2026-05-07 01:57 | -9.30766 | 98.02360 | 33926 ft | 486 kts | 312° |
| 2026-05-07 01:57 | -9.26257 | 97.97263 | 33927 ft | 485 kts | 312° |
| 2026-05-07 01:58 | -9.21749 | 97.92169 | 33926 ft | 486 kts | 312° |
| 2026-05-07 01:58 | -9.17263 | 97.87103 | 33925 ft | 486 kts | 312° |
| 2026-05-07 01:59 | -9.12751 | 97.82008 | 33926 ft | 486 kts | 312° |
| 2026-05-07 01:59 | -9.08232 | 97.76909 | 33926 ft | 487 kts | 312° |
| 2026-05-07 02:00 | -9.03709 | 97.71806 | 33929 ft | 487 kts | 312° |
| 2026-05-07 02:00 | -8.99171 | 97.66689 | 33925 ft | 487 kts | 312° |
| 2026-05-07 02:01 | -8.94658 | 97.61603 | 33927 ft | 488 kts | 312° |
| 2026-05-07 02:01 | -8.90117 | 97.56488 | 33925 ft | 489 kts | 312° |
| 2026-05-07 02:02 | -8.85566 | 97.51362 | 33919 ft | 489 kts | 312° |
| 2026-05-07 02:02 | -8.81019 | 97.46243 | 33926 ft | 489 kts | 312° |
| 2026-05-07 02:03 | -8.76474 | 97.41128 | 33931 ft | 489 kts | 313° |
| 2026-05-07 02:03 | -8.71949 | 97.36039 | 33914 ft | 490 kts | 313° |
| 2026-05-07 02:04 | -8.67393 | 97.30917 | 33917 ft | 489 kts | 313° |
| 2026-05-07 02:04 | -8.62844 | 97.25804 | 33916 ft | 489 kts | 313° |
| 2026-05-07 02:05 | -8.58320 | 97.20720 | 33916 ft | 489 kts | 313° |
| 2026-05-07 02:05 | -8.53771 | 97.15611 | 33918 ft | 488 kts | 313° |
| 2026-05-07 02:06 | -8.49220 | 97.10501 | 33927 ft | 488 kts | 313° |
| 2026-05-07 02:06 | -8.44700 | 97.05428 | 33934 ft | 488 kts | 313° |
| 2026-05-07 02:07 | -8.40148 | 97.00322 | 33937 ft | 489 kts | 313° |
| 2026-05-07 02:07 | -8.33310 | 96.92655 | 33935 ft | 490 kts | 313° |
| 2026-05-07 02:08 | -8.28742 | 96.87535 | 33928 ft | 490 kts | 313° |
| 2026-05-07 02:08 | -8.24174 | 96.82417 | 33937 ft | 491 kts | 313° |
| 2026-05-07 02:09 | -8.19600 | 96.77295 | 33933 ft | 491 kts | 313° |
| 2026-05-07 02:09 | -8.15053 | 96.72205 | 33926 ft | 491 kts | 313° |
| 2026-05-07 02:10 | -8.10467 | 96.67072 | 33929 ft | 492 kts | 313° |
| 2026-05-07 02:10 | -8.05882 | 96.61943 | 33927 ft | 492 kts | 313° |
| 2026-05-07 02:11 | -8.01287 | 96.56806 | 33933 ft | 492 kts | 313° |
| 2026-05-07 02:11 | -7.96691 | 96.51668 | 33917 ft | 493 kts | 313° |
| 2026-05-07 02:12 | -7.92100 | 96.46536 | 33926 ft | 493 kts | 313° |
| 2026-05-07 02:12 | -7.87530 | 96.41432 | 33928 ft | 493 kts | 313° |
| 2026-05-07 02:13 | -7.82933 | 96.36299 | 33929 ft | 493 kts | 313° |
| 2026-05-07 02:13 | -7.78331 | 96.31161 | 33929 ft | 494 kts | 313° |
| 2026-05-07 02:14 | -7.73723 | 96.26019 | 33920 ft | 494 kts | 313° |
| 2026-05-07 02:14 | -7.69114 | 96.20878 | 33921 ft | 493 kts | 313° |
| 2026-05-07 02:15 | -7.64531 | 96.15769 | 33915 ft | 493 kts | 313° |
| 2026-05-07 02:15 | -7.59926 | 96.10636 | 33917 ft | 493 kts | 313° |
| 2026-05-07 02:16 | -7.55328 | 96.05512 | 33919 ft | 493 kts | 313° |
| 2026-05-07 02:16 | -7.50726 | 96.00385 | 33918 ft | 493 kts | 313° |
| 2026-05-07 02:17 | -7.46129 | 95.95266 | 33919 ft | 493 kts | 313° |
| 2026-05-07 02:17 | -7.41551 | 95.90170 | 33918 ft | 493 kts | 313° |
| 2026-05-07 02:18 | -7.36945 | 95.85043 | 33918 ft | 493 kts | 312° |
| 2026-05-07 02:18 | -7.32341 | 95.79923 | 33917 ft | 493 kts | 312° |
| 2026-05-07 02:19 | -7.27736 | 95.74801 | 33917 ft | 493 kts | 312° |
| 2026-05-07 02:19 | -7.23155 | 95.69708 | 33918 ft | 493 kts | 312° |
| 2026-05-07 02:20 | -7.18535 | 95.64574 | 33917 ft | 493 kts | 312° |
| 2026-05-07 02:20 | -7.13921 | 95.59447 | 33916 ft | 493 kts | 312° |
| 2026-05-07 02:21 | -7.09306 | 95.54322 | 33917 ft | 493 kts | 312° |
| 2026-05-07 02:21 | -7.04724 | 95.49235 | 33918 ft | 493 kts | 312° |
| 2026-05-07 02:22 | -7.00106 | 95.44110 | 33917 ft | 493 kts | 312° |
| 2026-05-07 02:22 | -6.95488 | 95.38987 | 33919 ft | 493 kts | 312° |
| 2026-05-07 02:23 | -6.90869 | 95.33862 | 33914 ft | 494 kts | 312° |
| 2026-05-07 02:23 | -6.86281 | 95.28774 | 33918 ft | 493 kts | 312° |
| 2026-05-07 02:24 | -6.81667 | 95.23659 | 33915 ft | 493 kts | 312° |
| 2026-05-07 02:24 | -6.77051 | 95.18545 | 33918 ft | 493 kts | 312° |
| 2026-05-07 02:25 | -6.73217 | 95.14298 | 33916 ft | 493 kts | 312° |
| 2026-05-07 02:25 | -6.68607 | 95.09193 | 33916 ft | 492 kts | 312° |
| 2026-05-07 02:26 | -6.64004 | 95.04095 | 33916 ft | 493 kts | 312° |
| 2026-05-07 02:26 | -6.58641 | 94.98158 | 33916 ft | 492 kts | 312° |
| 2026-05-07 02:27 | -6.54777 | 94.93883 | 33916 ft | 493 kts | 312° |
| 2026-05-07 02:27 | -6.50194 | 94.88815 | 33917 ft | 493 kts | 312° |
| 2026-05-07 02:28 | -6.45581 | 94.83713 | 33917 ft | 493 kts | 312° |
| 2026-05-07 02:28 | -6.40965 | 94.78611 | 33916 ft | 493 kts | 312° |
| 2026-05-07 02:29 | -6.36372 | 94.73532 | 33917 ft | 493 kts | 312° |
| 2026-05-07 02:29 | -6.31749 | 94.68424 | 33916 ft | 493 kts | 312° |
| 2026-05-07 02:30 | -6.27127 | 94.63319 | 33918 ft | 493 kts | 312° |
| 2026-05-07 02:30 | -6.22506 | 94.58215 | 33919 ft | 494 kts | 312° |
| 2026-05-07 02:31 | -6.17877 | 94.53105 | 33915 ft | 494 kts | 312° |
| 2026-05-07 02:31 | -6.13255 | 94.48005 | 33918 ft | 493 kts | 312° |
| 2026-05-07 02:32 | -6.08636 | 94.42909 | 33915 ft | 493 kts | 312° |
| 2026-05-07 02:32 | -6.04046 | 94.37845 | 33916 ft | 493 kts | 312° |
| 2026-05-07 02:33 | -5.99427 | 94.32751 | 33916 ft | 492 kts | 312° |
| 2026-05-07 02:33 | -5.94809 | 94.27659 | 33912 ft | 492 kts | 312° |
| 2026-05-07 02:34 | -5.90197 | 94.22576 | 33906 ft | 492 kts | 312° |
| 2026-05-07 02:34 | -5.85604 | 94.17515 | 33908 ft | 492 kts | 312° |
| 2026-05-07 02:35 | -5.80985 | 94.12427 | 33906 ft | 492 kts | 312° |
| 2026-05-07 02:35 | -5.76367 | 94.07341 | 33906 ft | 492 kts | 312° |
| 2026-05-07 02:36 | -5.71752 | 94.02260 | 33908 ft | 492 kts | 312° |
| 2026-05-07 02:36 | -5.67166 | 93.97211 | 33910 ft | 492 kts | 312° |
| 2026-05-07 02:37 | -5.62532 | 93.92113 | 33911 ft | 492 kts | 312° |
| 2026-05-07 02:37 | -5.57906 | 93.87023 | 33905 ft | 493 kts | 312° |
| 2026-05-07 02:38 | -5.53312 | 93.81969 | 33905 ft | 492 kts | 312° |
| 2026-05-07 02:38 | -5.48688 | 93.76885 | 33907 ft | 492 kts | 312° |
| 2026-05-07 02:39 | -5.44062 | 93.71800 | 33911 ft | 492 kts | 312° |
| 2026-05-07 02:39 | -5.39467 | 93.66750 | 33909 ft | 492 kts | 312° |
| 2026-05-07 02:40 | -5.34846 | 93.61671 | 33911 ft | 492 kts | 312° |
| 2026-05-07 02:40 | -5.30227 | 93.56597 | 33907 ft | 492 kts | 312° |
| 2026-05-07 02:41 | -5.25609 | 93.51524 | 33906 ft | 492 kts | 312° |
| 2026-05-07 02:41 | -5.20984 | 93.46447 | 33912 ft | 492 kts | 312° |
| 2026-05-07 02:42 | -5.16358 | 93.41369 | 33910 ft | 493 kts | 312° |
| 2026-05-07 02:42 | -5.11723 | 93.36281 | 33904 ft | 494 kts | 312° |
| 2026-05-07 02:43 | -5.07115 | 93.31225 | 33901 ft | 494 kts | 312° |
| 2026-05-07 02:43 | -5.02472 | 93.26132 | 33900 ft | 493 kts | 312° |
| 2026-05-07 02:44 | -4.97844 | 93.21056 | 33900 ft | 493 kts | 312° |
| 2026-05-07 02:44 | -4.93203 | 93.15967 | 33900 ft | 493 kts | 312° |
| 2026-05-07 02:45 | -4.88596 | 93.10916 | 33898 ft | 493 kts | 312° |
| 2026-05-07 02:45 | -4.83953 | 93.05827 | 33892 ft | 493 kts | 312° |
| 2026-05-07 02:46 | -4.79354 | 93.00788 | 33900 ft | 492 kts | 312° |
| 2026-05-07 02:46 | -4.74729 | 92.95722 | 33899 ft | 492 kts | 312° |
| 2026-05-07 02:47 | -4.70111 | 92.90663 | 33893 ft | 492 kts | 312° |
| 2026-05-07 02:47 | -4.65489 | 92.85602 | 33894 ft | 491 kts | 312° |
| 2026-05-07 02:48 | -4.60869 | 92.80542 | 33901 ft | 491 kts | 312° |
| 2026-05-07 02:48 | -4.56284 | 92.75523 | 33899 ft | 491 kts | 312° |
| 2026-05-07 02:49 | -4.51668 | 92.70471 | 33901 ft | 491 kts | 312° |
| 2026-05-07 02:49 | -4.47045 | 92.65411 | 33897 ft | 491 kts | 312° |
| 2026-05-07 02:50 | -4.42436 | 92.60368 | 33900 ft | 492 kts | 312° |
| 2026-05-07 02:50 | -4.37814 | 92.55312 | 33899 ft | 492 kts | 312° |
| 2026-05-07 02:51 | -4.33191 | 92.50257 | 33893 ft | 492 kts | 313° |
| 2026-05-07 02:51 | -4.28591 | 92.45229 | 33901 ft | 491 kts | 313° |
| 2026-05-07 02:52 | -4.23974 | 92.40181 | 33900 ft | 491 kts | 313° |
| 2026-05-07 02:52 | -4.19355 | 92.35132 | 33900 ft | 491 kts | 313° |
| 2026-05-07 02:53 | -4.14760 | 92.30109 | 33896 ft | 490 kts | 313° |
| 2026-05-07 02:53 | -4.10150 | 92.25070 | 33894 ft | 490 kts | 313° |
| 2026-05-07 02:54 | -4.05542 | 92.20033 | 33901 ft | 490 kts | 313° |
| 2026-05-07 02:54 | -4.00933 | 92.14999 | 33902 ft | 490 kts | 313° |
| 2026-05-07 02:55 | -3.96317 | 92.09957 | 33902 ft | 490 kts | 313° |
| 2026-05-07 02:55 | -3.91736 | 92.04953 | 33892 ft | 490 kts | 313° |
| 2026-05-07 02:56 | -3.87121 | 91.99914 | 33899 ft | 490 kts | 313° |
| 2026-05-07 02:56 | -3.82507 | 91.94876 | 33898 ft | 490 kts | 313° |
| 2026-05-07 02:57 | -3.77901 | 91.89849 | 33901 ft | 490 kts | 313° |
| 2026-05-07 02:57 | -3.73317 | 91.84846 | 33903 ft | 490 kts | 313° |
| 2026-05-07 02:58 | -3.68704 | 91.79813 | 33894 ft | 491 kts | 313° |
| 2026-05-07 02:58 | -3.64082 | 91.74769 | 33889 ft | 491 kts | 313° |
| 2026-05-07 02:59 | -3.59463 | 91.69730 | 33885 ft | 491 kts | 313° |
| 2026-05-07 02:59 | -3.54870 | 91.64721 | 33885 ft | 491 kts | 313° |
| 2026-05-07 03:00 | -3.50241 | 91.59673 | 33894 ft | 492 kts | 313° |
| 2026-05-07 03:00 | -3.45604 | 91.54618 | 33889 ft | 492 kts | 313° |
| 2026-05-07 03:01 | -3.40966 | 91.49562 | 33895 ft | 493 kts | 313° |
| 2026-05-07 03:01 | -3.36348 | 91.44529 | 33884 ft | 494 kts | 313° |
| 2026-05-07 03:02 | -3.31689 | 91.39451 | 33890 ft | 495 kts | 313° |
| 2026-05-07 03:02 | -3.27032 | 91.34377 | 33895 ft | 495 kts | 313° |
| 2026-05-07 03:03 | -3.22369 | 91.29296 | 33885 ft | 496 kts | 313° |
| 2026-05-07 03:03 | -3.17694 | 91.24203 | 33890 ft | 496 kts | 313° |
| 2026-05-07 03:04 | -3.13021 | 91.19113 | 33894 ft | 497 kts | 313° |
| 2026-05-07 03:04 | -3.08342 | 91.14018 | 33894 ft | 497 kts | 313° |
| 2026-05-07 03:05 | -3.03658 | 91.08919 | 33888 ft | 497 kts | 313° |
| 2026-05-07 03:05 | -2.99004 | 91.03851 | 33898 ft | 497 kts | 313° |
| 2026-05-07 03:06 | -2.94314 | 90.98746 | 33900 ft | 498 kts | 313° |
| 2026-05-07 03:06 | -2.89628 | 90.93645 | 33895 ft | 498 kts | 313° |
| 2026-05-07 03:07 | -2.84928 | 90.88529 | 33894 ft | 498 kts | 313° |
| 2026-05-07 03:07 | -2.80223 | 90.83411 | 33884 ft | 499 kts | 313° |
| 2026-05-07 03:08 | -2.75556 | 90.78333 | 33895 ft | 499 kts | 313° |
| 2026-05-07 03:08 | -2.70857 | 90.73220 | 33891 ft | 499 kts | 313° |
| 2026-05-07 03:09 | -2.66157 | 90.68107 | 33885 ft | 499 kts | 313° |
| 2026-05-07 03:09 | -2.61447 | 90.62984 | 33895 ft | 500 kts | 313° |
| 2026-05-07 03:10 | -2.56733 | 90.57859 | 33875 ft | 500 kts | 313° |
| 2026-05-07 03:10 | -2.52013 | 90.52728 | 33876 ft | 500 kts | 313° |
| 2026-05-07 03:11 | -2.47327 | 90.47632 | 33881 ft | 500 kts | 313° |
| 2026-05-07 03:11 | -2.42610 | 90.42504 | 33879 ft | 501 kts | 313° |
| 2026-05-07 03:12 | -2.37893 | 90.37377 | 33881 ft | 501 kts | 313° |
| 2026-05-07 03:12 | -2.33169 | 90.32242 | 33881 ft | 501 kts | 313° |
| 2026-05-07 03:13 | -2.28470 | 90.27136 | 33878 ft | 501 kts | 313° |
| 2026-05-07 03:13 | -2.23746 | 90.22003 | 33878 ft | 502 kts | 313° |
| 2026-05-07 03:14 | -2.19785 | 90.17699 | 33881 ft | 502 kts | 313° |
| 2026-05-07 03:15 | -2.12710 | 90.10011 | 33880 ft | 503 kts | 313° |
| 2026-05-07 03:15 | -2.07973 | 90.04865 | 33895 ft | 503 kts | 313° |
| 2026-05-07 03:16 | -2.03228 | 89.99709 | 33883 ft | 503 kts | 313° |
| 2026-05-07 03:16 | -1.98475 | 89.94562 | 33887 ft | 503 kts | 314° |
| 2026-05-07 03:17 | -1.93632 | 89.89481 | 33896 ft | 503 kts | 314° |
| 2026-05-07 03:17 | -1.88807 | 89.84464 | 33881 ft | 503 kts | 314° |
| 2026-05-07 03:18 | -1.83969 | 89.79413 | 33886 ft | 502 kts | 314° |
| 2026-05-07 03:18 | -1.79143 | 89.74359 | 33888 ft | 502 kts | 314° |
| 2026-05-07 03:19 | -1.74317 | 89.69302 | 33891 ft | 502 kts | 314° |
| 2026-05-07 03:19 | -1.69485 | 89.64240 | 33884 ft | 502 kts | 314° |
| 2026-05-07 03:20 | -1.64685 | 89.59213 | 33885 ft | 502 kts | 314° |
| 2026-05-07 03:20 | -1.59853 | 89.54153 | 33887 ft | 502 kts | 314° |
| 2026-05-07 03:21 | -1.55015 | 89.49087 | 33895 ft | 503 kts | 314° |
| 2026-05-07 03:21 | -1.50187 | 89.44032 | 33896 ft | 503 kts | 314° |
| 2026-05-07 03:22 | -1.45358 | 89.38974 | 33885 ft | 503 kts | 314° |
| 2026-05-07 03:22 | -1.40561 | 89.33952 | 33885 ft | 503 kts | 314° |
| 2026-05-07 03:23 | -1.35732 | 89.28896 | 33884 ft | 503 kts | 314° |
| 2026-05-07 03:23 | -1.30900 | 89.23840 | 33893 ft | 503 kts | 314° |
| 2026-05-07 03:24 | -1.26068 | 89.18783 | 33893 ft | 503 kts | 314° |
| 2026-05-07 03:24 | -1.21236 | 89.13725 | 33883 ft | 503 kts | 314° |
| 2026-05-07 03:25 | -1.16401 | 89.08663 | 33877 ft | 503 kts | 314° |
| 2026-05-07 03:25 | -1.11571 | 89.03606 | 33880 ft | 503 kts | 314° |
| 2026-05-07 03:26 | -1.06739 | 88.98549 | 33892 ft | 502 kts | 314° |
| 2026-05-07 03:26 | -1.01917 | 88.93502 | 33885 ft | 502 kts | 314° |
| 2026-05-07 03:27 | -0.97086 | 88.88451 | 33884 ft | 502 kts | 314° |
| 2026-05-07 03:27 | -0.92257 | 88.83403 | 33892 ft | 502 kts | 314° |
| 2026-05-07 03:28 | -0.87465 | 88.78391 | 33886 ft | 502 kts | 314° |
| 2026-05-07 03:28 | -0.82608 | 88.73311 | 33895 ft | 502 kts | 314° |
| 2026-05-07 03:29 | -0.77802 | 88.68284 | 33889 ft | 502 kts | 314° |
| 2026-05-07 03:29 | -0.72967 | 88.63226 | 33879 ft | 503 kts | 314° |
| 2026-05-07 03:30 | -0.68131 | 88.58169 | 33883 ft | 503 kts | 314° |
| 2026-05-07 03:30 | -0.63323 | 88.53140 | 33869 ft | 503 kts | 314° |
| 2026-05-07 03:31 | -0.58487 | 88.48083 | 33874 ft | 503 kts | 314° |
| 2026-05-07 03:31 | -0.53647 | 88.43022 | 33875 ft | 503 kts | 314° |
| 2026-05-07 03:32 | -0.48808 | 88.37961 | 33864 ft | 503 kts | 314° |
| 2026-05-07 03:32 | -0.43973 | 88.32906 | 33869 ft | 502 kts | 314° |
| 2026-05-07 03:33 | -0.39180 | 88.27893 | 33872 ft | 502 kts | 314° |
| 2026-05-07 03:33 | -0.34360 | 88.22852 | 33871 ft | 502 kts | 314° |
| 2026-05-07 03:34 | -0.29531 | 88.17803 | 33867 ft | 502 kts | 314° |
| 2026-05-07 03:34 | -0.24709 | 88.12763 | 33871 ft | 501 kts | 314° |
| 2026-05-07 03:35 | -0.19888 | 88.07720 | 33870 ft | 501 kts | 314° |
| 2026-05-07 03:35 | -0.15070 | 88.02682 | 33870 ft | 501 kts | 314° |
| 2026-05-07 03:36 | -0.10248 | 87.97641 | 33870 ft | 501 kts | 314° |
| 2026-05-07 03:36 | -0.05447 | 87.92620 | 33872 ft | 502 kts | 314° |
| 2026-05-07 03:37 | -0.00621 | 87.87574 | 33870 ft | 502 kts | 314° |
| 2026-05-07 03:37 | 0.04208 | 87.82524 | 33871 ft | 502 kts | 314° |
| 2026-05-07 03:38 | 0.09032 | 87.77481 | 33868 ft | 502 kts | 314° |
| 2026-05-07 03:38 | 0.13830 | 87.72465 | 33870 ft | 502 kts | 314° |
| 2026-05-07 03:39 | 0.18660 | 87.67412 | 33872 ft | 502 kts | 314° |
| 2026-05-07 03:39 | 0.23501 | 87.62351 | 33876 ft | 503 kts | 314° |
| 2026-05-07 03:40 | 0.28335 | 87.57296 | 33868 ft | 503 kts | 314° |
| 2026-05-07 03:40 | 0.33173 | 87.52238 | 33871 ft | 503 kts | 314° |
| 2026-05-07 03:41 | 0.38017 | 87.47171 | 33872 ft | 504 kts | 314° |
| 2026-05-07 03:41 | 0.42839 | 87.42126 | 33869 ft | 505 kts | 314° |
| 2026-05-07 03:42 | 0.47705 | 87.37038 | 33869 ft | 505 kts | 314° |
| 2026-05-07 03:42 | 0.52565 | 87.31957 | 33871 ft | 506 kts | 314° |
| 2026-05-07 03:43 | 0.57410 | 87.26892 | 33871 ft | 506 kts | 314° |
| 2026-05-07 03:43 | 0.62280 | 87.21798 | 33870 ft | 507 kts | 314° |
| 2026-05-07 03:44 | 0.67159 | 87.16694 | 33871 ft | 508 kts | 314° |
| 2026-05-07 03:44 | 0.72040 | 87.11588 | 33870 ft | 508 kts | 314° |
| 2026-05-07 03:45 | 0.76900 | 87.06504 | 33871 ft | 509 kts | 314° |
| 2026-05-07 03:45 | 0.81797 | 87.01380 | 33870 ft | 509 kts | 314° |
| 2026-05-07 03:46 | 0.86707 | 86.96243 | 33870 ft | 510 kts | 314° |
| 2026-05-07 03:46 | 0.91580 | 86.91144 | 33870 ft | 510 kts | 314° |
| 2026-05-07 03:47 | 0.96483 | 86.86014 | 33870 ft | 510 kts | 314° |
| 2026-05-07 03:47 | 1.01397 | 86.80872 | 33871 ft | 511 kts | 314° |
| 2026-05-07 03:48 | 1.06307 | 86.75734 | 33870 ft | 511 kts | 314° |
| 2026-05-07 03:48 | 1.11220 | 86.70593 | 33869 ft | 511 kts | 314° |
| 2026-05-07 03:49 | 1.16104 | 86.65482 | 33871 ft | 512 kts | 314° |
| 2026-05-07 03:49 | 1.21025 | 86.60331 | 33868 ft | 512 kts | 314° |
| 2026-05-07 03:50 | 1.25956 | 86.55170 | 33872 ft | 513 kts | 314° |
| 2026-05-07 03:50 | 1.30892 | 86.50003 | 33869 ft | 513 kts | 314° |
| 2026-05-07 03:51 | 1.35821 | 86.44843 | 34167 ft | 517 kts | 314° |
| 2026-05-07 03:51 | 1.38304 | 86.42245 | 34498 ft | 515 kts | 314° |
| 2026-05-07 03:51 | 1.40777 | 86.39656 | 34814 ft | 514 kts | 314° |
| 2026-05-07 03:51 | 1.43245 | 86.37072 | 35128 ft | 513 kts | 314° |
| 2026-05-07 03:52 | 1.45708 | 86.34492 | 35433 ft | 511 kts | 314° |
| 2026-05-07 03:52 | 1.48163 | 86.31922 | 35671 ft | 511 kts | 314° |
| 2026-05-07 03:52 | 1.50622 | 86.29348 | 35791 ft | 512 kts | 314° |
| 2026-05-07 03:53 | 1.55554 | 86.24182 | 35863 ft | 514 kts | 314° |
| 2026-05-07 03:53 | 1.60457 | 86.19047 | 35859 ft | 512 kts | 314° |
| 2026-05-07 03:54 | 1.65341 | 86.13867 | 35858 ft | 511 kts | 313° |
| 2026-05-07 03:54 | 1.70103 | 86.08596 | 35880 ft | 510 kts | 312° |
| 2026-05-07 03:55 | 1.74845 | 86.03306 | 35880 ft | 510 kts | 312° |
| 2026-05-07 03:55 | 1.79602 | 85.98030 | 35864 ft | 511 kts | 312° |
| 2026-05-07 03:56 | 1.84371 | 85.92758 | 35877 ft | 511 kts | 312° |
| 2026-05-07 03:56 | 1.89159 | 85.87472 | 35882 ft | 512 kts | 312° |
| 2026-05-07 03:57 | 1.93944 | 85.82189 | 35862 ft | 513 kts | 312° |
| 2026-05-07 03:57 | 1.98703 | 85.76932 | 35876 ft | 513 kts | 312° |
| 2026-05-07 03:58 | 2.03493 | 85.71638 | 35880 ft | 514 kts | 312° |
| 2026-05-07 03:58 | 2.08298 | 85.66328 | 35860 ft | 514 kts | 312° |
| 2026-05-07 03:59 | 2.13101 | 85.61019 | 35880 ft | 514 kts | 312° |
| 2026-05-07 03:59 | 2.17875 | 85.55743 | 35858 ft | 514 kts | 312° |
| 2026-05-07 04:00 | 2.22684 | 85.50427 | 35858 ft | 513 kts | 312° |
| 2026-05-07 04:00 | 2.26663 | 85.46028 | 35858 ft | 513 kts | 312° |
| 2026-05-07 04:01 | 2.32224 | 85.39880 | 35855 ft | 512 kts | 312° |
| 2026-05-07 04:01 | 2.36201 | 85.35482 | 35854 ft | 511 kts | 312° |
| 2026-05-07 04:02 | 2.40969 | 85.30210 | 35859 ft | 511 kts | 312° |
| 2026-05-07 04:02 | 2.45739 | 85.24933 | 35857 ft | 510 kts | 312° |
| 2026-05-07 04:03 | 2.50505 | 85.19661 | 35868 ft | 510 kts | 312° |
| 2026-05-07 04:03 | 2.55236 | 85.14429 | 35861 ft | 510 kts | 312° |
| 2026-05-07 04:04 | 2.59992 | 85.09166 | 35864 ft | 509 kts | 312° |
| 2026-05-07 04:04 | 2.64745 | 85.03906 | 35855 ft | 510 kts | 312° |
| 2026-05-07 04:05 | 2.69498 | 84.98646 | 35860 ft | 509 kts | 312° |
| 2026-05-07 04:05 | 2.74248 | 84.93388 | 35863 ft | 508 kts | 312° |
| 2026-05-07 04:06 | 2.78958 | 84.88175 | 35854 ft | 508 kts | 312° |
| 2026-05-07 04:06 | 2.83692 | 84.82933 | 35853 ft | 508 kts | 312° |
| 2026-05-07 04:07 | 2.88441 | 84.77676 | 35860 ft | 508 kts | 313° |
| 2026-05-07 04:07 | 2.93171 | 84.72438 | 35871 ft | 507 kts | 312° |
| 2026-05-07 04:08 | 2.97906 | 84.67191 | 35866 ft | 508 kts | 312° |
| 2026-05-07 04:08 | 3.02645 | 84.61943 | 35855 ft | 508 kts | 312° |
| 2026-05-07 04:09 | 3.07359 | 84.56722 | 35865 ft | 508 kts | 312° |
| 2026-05-07 04:09 | 3.12100 | 84.51469 | 35869 ft | 508 kts | 312° |
| 2026-05-07 04:10 | 3.16843 | 84.46212 | 35856 ft | 508 kts | 312° |
| 2026-05-07 04:10 | 3.21548 | 84.40998 | 35859 ft | 508 kts | 312° |
| 2026-05-07 04:11 | 3.26291 | 84.35740 | 35870 ft | 508 kts | 312° |
| 2026-05-07 04:11 | 3.31028 | 84.30488 | 35870 ft | 508 kts | 312° |
| 2026-05-07 04:12 | 3.35760 | 84.25240 | 35853 ft | 508 kts | 312° |
| 2026-05-07 04:12 | 3.40464 | 84.20023 | 35864 ft | 507 kts | 312° |
| 2026-05-07 04:13 | 3.45201 | 84.14768 | 35857 ft | 507 kts | 312° |
| 2026-05-07 04:13 | 3.49937 | 84.09513 | 35861 ft | 507 kts | 312° |
| 2026-05-07 04:14 | 3.54648 | 84.04267 | 35860 ft | 507 kts | 311° |
| 2026-05-07 04:14 | 3.59281 | 83.98949 | 35869 ft | 506 kts | 311° |
| 2026-05-07 04:15 | 3.63853 | 83.93643 | 35865 ft | 506 kts | 311° |
| 2026-05-07 04:15 | 3.68469 | 83.88302 | 35854 ft | 506 kts | 311° |
| 2026-05-07 04:16 | 3.73086 | 83.82978 | 35865 ft | 506 kts | 311° |
| 2026-05-07 04:16 | 3.77717 | 83.77642 | 35861 ft | 506 kts | 311° |
| 2026-05-07 04:17 | 3.82336 | 83.72317 | 35862 ft | 506 kts | 311° |
| 2026-05-07 04:17 | 3.86955 | 83.66992 | 35860 ft | 506 kts | 311° |
| 2026-05-07 04:18 | 3.91575 | 83.61663 | 35864 ft | 507 kts | 311° |
| 2026-05-07 04:18 | 3.96167 | 83.56366 | 35863 ft | 506 kts | 311° |
| 2026-05-07 04:19 | 4.00790 | 83.51032 | 35856 ft | 507 kts | 311° |
| 2026-05-07 04:19 | 4.05418 | 83.45692 | 35857 ft | 507 kts | 311° |
| 2026-05-07 04:20 | 4.10040 | 83.40357 | 35857 ft | 507 kts | 311° |
| 2026-05-07 04:20 | 4.14656 | 83.35028 | 35853 ft | 506 kts | 311° |
| 2026-05-07 04:21 | 4.21571 | 83.27044 | 35862 ft | 506 kts | 311° |
| 2026-05-07 04:21 | 4.26179 | 83.21721 | 35866 ft | 505 kts | 311° |
| 2026-05-07 04:22 | 4.30763 | 83.16425 | 35858 ft | 505 kts | 311° |
| 2026-05-07 04:22 | 4.35364 | 83.11109 | 35860 ft | 505 kts | 311° |
| 2026-05-07 04:23 | 4.39970 | 83.05787 | 35854 ft | 505 kts | 311° |
| 2026-05-07 04:23 | 4.44573 | 83.00467 | 35853 ft | 504 kts | 311° |
| 2026-05-07 04:24 | 4.49151 | 82.95174 | 35853 ft | 504 kts | 311° |
| 2026-05-07 04:24 | 4.53746 | 82.89859 | 35858 ft | 504 kts | 311° |
| 2026-05-07 04:25 | 4.58345 | 82.84539 | 35871 ft | 504 kts | 311° |
| 2026-05-07 04:25 | 4.62947 | 82.79215 | 35870 ft | 504 kts | 311° |
| 2026-05-07 04:26 | 4.67515 | 82.73930 | 35861 ft | 505 kts | 311° |
| 2026-05-07 04:26 | 4.72118 | 82.68603 | 35861 ft | 504 kts | 311° |
| 2026-05-07 04:27 | 4.76717 | 82.63278 | 35866 ft | 505 kts | 311° |
| 2026-05-07 04:27 | 4.81312 | 82.57958 | 35866 ft | 505 kts | 311° |
| 2026-05-07 04:28 | 4.85914 | 82.52628 | 35861 ft | 505 kts | 311° |
| 2026-05-07 04:28 | 4.90484 | 82.47334 | 35857 ft | 504 kts | 311° |
| 2026-05-07 04:29 | 4.95077 | 82.42012 | 35853 ft | 504 kts | 311° |
| 2026-05-07 04:29 | 4.99665 | 82.36694 | 35856 ft | 504 kts | 311° |
| 2026-05-07 04:30 | 5.04256 | 82.31371 | 35869 ft | 504 kts | 311° |
| 2026-05-07 04:30 | 5.08846 | 82.26050 | 35865 ft | 504 kts | 311° |
| 2026-05-07 04:31 | 5.13432 | 82.20732 | 35862 ft | 504 kts | 311° |
| 2026-05-07 04:31 | 5.17985 | 82.15448 | 35870 ft | 503 kts | 311° |
| 2026-05-07 04:32 | 5.22572 | 82.10127 | 35871 ft | 503 kts | 311° |
| 2026-05-07 04:32 | 5.27147 | 82.04817 | 35863 ft | 503 kts | 311° |
| 2026-05-07 04:33 | 5.31730 | 81.99496 | 35856 ft | 503 kts | 311° |
| 2026-05-07 04:33 | 5.36305 | 81.94184 | 35864 ft | 502 kts | 311° |
| 2026-05-07 04:34 | 5.40852 | 81.88902 | 35852 ft | 502 kts | 311° |
| 2026-05-07 04:34 | 5.45414 | 81.83601 | 35865 ft | 502 kts | 311° |
| 2026-05-07 04:35 | 5.49980 | 81.78294 | 35855 ft | 501 kts | 311° |
| 2026-05-07 04:35 | 5.54541 | 81.72992 | 35853 ft | 501 kts | 311° |
| 2026-05-07 04:36 | 5.59094 | 81.67697 | 35855 ft | 501 kts | 311° |
| 2026-05-07 04:36 | 5.63620 | 81.62434 | 35870 ft | 501 kts | 311° |
| 2026-05-07 04:37 | 5.68188 | 81.57161 | 35861 ft | 500 kts | 311° |
| 2026-05-07 04:37 | 5.72767 | 81.51888 | 35857 ft | 500 kts | 311° |
| 2026-05-07 04:38 | 5.77345 | 81.46608 | 35865 ft | 500 kts | 311° |
| 2026-05-07 04:38 | 5.81888 | 81.41363 | 35858 ft | 500 kts | 311° |
| 2026-05-07 04:39 | 5.86462 | 81.36080 | 35856 ft | 501 kts | 311° |
| 2026-05-07 04:39 | 5.91032 | 81.30800 | 35863 ft | 500 kts | 311° |
| 2026-05-07 04:40 | 5.95603 | 81.25518 | 35857 ft | 500 kts | 311° |
| 2026-05-07 04:40 | 6.00144 | 81.20269 | 35855 ft | 500 kts | 311° |
| 2026-05-07 04:41 | 6.04709 | 81.14990 | 35855 ft | 499 kts | 311° |
| 2026-05-07 04:41 | 6.09268 | 81.09716 | 35871 ft | 499 kts | 311° |
| 2026-05-07 04:42 | 6.13811 | 81.04450 | 35870 ft | 498 kts | 311° |
| 2026-05-07 04:42 | 6.18327 | 80.99167 | 35860 ft | 498 kts | 310° |
| 2026-05-07 04:43 | 6.22809 | 80.93913 | 35869 ft | 497 kts | 311° |
| 2026-05-07 04:43 | 6.27313 | 80.88638 | 35855 ft | 496 kts | 311° |
| 2026-05-07 04:44 | 6.31809 | 80.83374 | 35864 ft | 495 kts | 310° |
| 2026-05-07 04:44 | 6.36305 | 80.78108 | 35867 ft | 495 kts | 310° |
| 2026-05-07 04:45 | 6.40764 | 80.72885 | 35859 ft | 495 kts | 310° |
| 2026-05-07 04:45 | 6.45238 | 80.67639 | 35863 ft | 494 kts | 310° |
| 2026-05-07 04:46 | 6.49727 | 80.62401 | 35857 ft | 494 kts | 311° |
| 2026-05-07 04:46 | 6.54282 | 80.57229 | 35864 ft | 493 kts | 312° |
| 2026-05-07 04:47 | 6.58848 | 80.52074 | 35855 ft | 493 kts | 311° |
| 2026-05-07 04:47 | 6.63406 | 80.46908 | 35872 ft | 493 kts | 311° |
| 2026-05-07 04:48 | 6.67194 | 80.42603 | 35868 ft | 493 kts | 311° |
| 2026-05-07 04:48 | 6.72480 | 80.36590 | 35857 ft | 493 kts | 311° |
| 2026-05-07 04:49 | 6.77032 | 80.31412 | 35856 ft | 494 kts | 311° |
| 2026-05-07 04:49 | 6.80818 | 80.27105 | 35872 ft | 494 kts | 311° |
| 2026-05-07 04:50 | 6.85375 | 80.21918 | 35867 ft | 494 kts | 311° |
| 2026-05-07 04:50 | 6.89933 | 80.16729 | 35852 ft | 495 kts | 311° |
| 2026-05-07 04:51 | 6.94501 | 80.11527 | 35848 ft | 495 kts | 311° |
| 2026-05-07 04:51 | 6.99059 | 80.06333 | 35848 ft | 495 kts | 311° |
| 2026-05-07 04:52 | 7.03593 | 80.01166 | 35842 ft | 495 kts | 311° |
| 2026-05-07 04:52 | 7.08157 | 79.95961 | 35842 ft | 495 kts | 311° |
| 2026-05-07 04:53 | 7.12718 | 79.90761 | 35834 ft | 495 kts | 311° |
| 2026-05-07 04:53 | 7.17714 | 79.85995 | 35833 ft | 495 kts | 322° |
| 2026-05-07 04:54 | 7.23441 | 79.82173 | 35843 ft | 494 kts | 329° |
| 2026-05-07 04:54 | 7.29308 | 79.78561 | 35834 ft | 494 kts | 329° |
| 2026-05-07 04:55 | 7.35157 | 79.74921 | 35836 ft | 494 kts | 328° |
| 2026-05-07 04:55 | 7.40963 | 79.71274 | 35834 ft | 495 kts | 328° |
| 2026-05-07 04:56 | 7.46806 | 79.67592 | 35836 ft | 495 kts | 328° |
| 2026-05-07 04:56 | 7.52649 | 79.63910 | 35835 ft | 495 kts | 328° |
| 2026-05-07 04:57 | 7.58504 | 79.60223 | 35836 ft | 496 kts | 328° |
| 2026-05-07 04:57 | 7.64321 | 79.56558 | 35834 ft | 496 kts | 328° |
| 2026-05-07 04:58 | 7.70176 | 79.52868 | 35835 ft | 496 kts | 328° |
| 2026-05-07 04:58 | 7.76040 | 79.49170 | 35832 ft | 496 kts | 328° |
| 2026-05-07 04:59 | 7.81897 | 79.45474 | 35844 ft | 497 kts | 328° |
| 2026-05-07 04:59 | 7.87741 | 79.41748 | 35839 ft | 497 kts | 327° |
| 2026-05-07 05:00 | 7.93427 | 79.37782 | 35839 ft | 496 kts | 325° |
| 2026-05-07 05:00 | 7.99073 | 79.33753 | 35843 ft | 496 kts | 325° |
| 2026-05-07 05:01 | 8.04698 | 79.29786 | 35842 ft | 496 kts | 325° |
| 2026-05-07 05:01 | 8.10363 | 79.25822 | 35861 ft | 496 kts | 326° |
| 2026-05-07 05:02 | 8.16045 | 79.21852 | 35849 ft | 496 kts | 325° |
| 2026-05-07 05:02 | 8.21720 | 79.17884 | 35849 ft | 495 kts | 325° |
| 2026-05-07 05:03 | 8.27380 | 79.13921 | 35858 ft | 495 kts | 325° |
| 2026-05-07 05:03 | 8.33003 | 79.09983 | 35866 ft | 495 kts | 325° |
| 2026-05-07 05:04 | 8.38660 | 79.06020 | 35869 ft | 495 kts | 325° |
| 2026-05-07 05:04 | 8.44317 | 79.02055 | 35863 ft | 495 kts | 325° |
| 2026-05-07 05:05 | 8.49979 | 78.98085 | 35856 ft | 495 kts | 325° |
| 2026-05-07 05:05 | 8.55636 | 78.94117 | 35849 ft | 495 kts | 325° |
| 2026-05-07 05:06 | 8.61352 | 78.90242 | 35857 ft | 494 kts | 327° |
| 2026-05-07 05:06 | 8.67076 | 78.86472 | 35850 ft | 494 kts | 327° |
| 2026-05-07 05:07 | 8.72828 | 78.82675 | 35847 ft | 494 kts | 327° |
| 2026-05-07 05:07 | 8.78570 | 78.78859 | 35853 ft | 493 kts | 327° |
| 2026-05-07 05:08 | 8.84305 | 78.75039 | 35867 ft | 493 kts | 327° |
| 2026-05-07 05:08 | 8.90053 | 78.71208 | 35858 ft | 493 kts | 327° |
| 2026-05-07 05:09 | 8.95741 | 78.67416 | 35870 ft | 493 kts | 327° |
| 2026-05-07 05:09 | 9.01467 | 78.63598 | 35862 ft | 493 kts | 327° |
| 2026-05-07 05:10 | 9.07196 | 78.59778 | 35855 ft | 493 kts | 327° |
| 2026-05-07 05:10 | 9.12903 | 78.55969 | 35866 ft | 493 kts | 327° |
| 2026-05-07 05:11 | 9.18630 | 78.52146 | 35856 ft | 492 kts | 327° |
| 2026-05-07 05:11 | 9.24355 | 78.48323 | 35880 ft | 492 kts | 327° |
| 2026-05-07 05:12 | 9.30073 | 78.44503 | 35870 ft | 492 kts | 327° |
| 2026-05-07 05:12 | 9.35796 | 78.40678 | 35865 ft | 492 kts | 327° |
| 2026-05-07 05:13 | 9.41480 | 78.36879 | 35873 ft | 492 kts | 327° |
| 2026-05-07 05:13 | 9.47191 | 78.33059 | 35880 ft | 492 kts | 327° |
| 2026-05-07 05:14 | 9.52906 | 78.29233 | 35881 ft | 491 kts | 327° |
| 2026-05-07 05:14 | 9.58617 | 78.25410 | 35880 ft | 491 kts | 327° |
| 2026-05-07 05:15 | 9.64296 | 78.21607 | 35882 ft | 491 kts | 327° |
| 2026-05-07 05:15 | 9.70000 | 78.17785 | 35880 ft | 491 kts | 327° |
| 2026-05-07 05:16 | 9.75698 | 78.13968 | 35882 ft | 491 kts | 327° |
| 2026-05-07 05:16 | 9.81248 | 78.09936 | 35867 ft | 491 kts | 318° |
| 2026-05-07 05:17 | 9.85818 | 78.04769 | 35892 ft | 491 kts | 304° |
| 2026-05-07 05:17 | 9.89428 | 77.98935 | 35895 ft | 491 kts | 302° |
| 2026-05-07 05:18 | 9.92995 | 77.93014 | 35888 ft | 491 kts | 302° |
| 2026-05-07 05:18 | 9.96592 | 77.87112 | 35889 ft | 491 kts | 302° |
| 2026-05-07 05:19 | 10.00206 | 77.81226 | 35890 ft | 492 kts | 302° |
| 2026-05-07 05:19 | 10.03817 | 77.75359 | 35889 ft | 492 kts | 302° |
| 2026-05-07 05:20 | 10.07439 | 77.69470 | 35886 ft | 492 kts | 302° |
| 2026-05-07 05:20 | 10.11073 | 77.63558 | 35891 ft | 493 kts | 302° |
| 2026-05-07 05:21 | 10.16514 | 77.54697 | 35896 ft | 493 kts | 302° |
| 2026-05-07 05:22 | 10.20138 | 77.48791 | 35902 ft | 493 kts | 302° |
| 2026-05-07 05:22 | 10.23766 | 77.42877 | 35899 ft | 494 kts | 302° |
| 2026-05-07 05:23 | 10.27402 | 77.36945 | 35897 ft | 494 kts | 302° |
| 2026-05-07 05:23 | 10.31005 | 77.31064 | 35898 ft | 493 kts | 302° |
| 2026-05-07 05:24 | 10.34632 | 77.25139 | 35905 ft | 493 kts | 302° |
| 2026-05-07 05:24 | 10.38250 | 77.19229 | 35909 ft | 492 kts | 302° |
| 2026-05-07 05:25 | 10.41869 | 77.13313 | 35907 ft | 492 kts | 302° |
| 2026-05-07 05:25 | 10.45483 | 77.07401 | 35913 ft | 492 kts | 302° |
| 2026-05-07 05:26 | 10.49092 | 77.01496 | 35921 ft | 492 kts | 301° |
| 2026-05-07 05:26 | 10.52682 | 76.95617 | 35916 ft | 492 kts | 301° |
| 2026-05-07 05:27 | 10.56295 | 76.89697 | 35919 ft | 492 kts | 301° |
| 2026-05-07 05:27 | 10.59911 | 76.83770 | 35918 ft | 493 kts | 301° |
| 2026-05-07 05:28 | 10.63503 | 76.77879 | 35917 ft | 493 kts | 301° |
| 2026-05-07 05:28 | 10.67121 | 76.71943 | 35918 ft | 493 kts | 301° |
| 2026-05-07 05:29 | 10.70734 | 76.66011 | 35917 ft | 493 kts | 301° |
| 2026-05-07 05:29 | 10.74348 | 76.60075 | 35915 ft | 494 kts | 301° |
| 2026-05-07 05:30 | 10.77964 | 76.54130 | 35919 ft | 494 kts | 301° |
| 2026-05-07 05:30 | 10.81586 | 76.48172 | 35912 ft | 494 kts | 301° |
| 2026-05-07 05:31 | 10.85186 | 76.42249 | 35907 ft | 494 kts | 301° |
| 2026-05-07 05:31 | 10.88783 | 76.36327 | 35907 ft | 494 kts | 301° |
| 2026-05-07 05:32 | 10.92400 | 76.30368 | 35898 ft | 494 kts | 301° |
| 2026-05-07 05:32 | 10.96011 | 76.24416 | 35899 ft | 494 kts | 301° |
| 2026-05-07 05:33 | 10.99624 | 76.18457 | 35895 ft | 494 kts | 301° |
| 2026-05-07 05:33 | 11.03240 | 76.12489 | 35888 ft | 494 kts | 301° |
| 2026-05-07 05:34 | 11.06826 | 76.06567 | 35885 ft | 494 kts | 301° |
| 2026-05-07 05:34 | 11.10441 | 76.00594 | 35890 ft | 495 kts | 301° |
| 2026-05-07 05:35 | 11.14089 | 75.94654 | 35885 ft | 495 kts | 304° |
| 2026-05-07 05:35 | 11.18088 | 75.88943 | 35892 ft | 495 kts | 305° |
| 2026-05-07 05:36 | 11.22108 | 75.83248 | 35889 ft | 495 kts | 305° |
| 2026-05-07 05:36 | 11.26053 | 75.77489 | 35890 ft | 496 kts | 304° |
| 2026-05-07 05:37 | 11.29278 | 75.72653 | 35889 ft | 496 kts | 303° |
| 2026-05-07 05:37 | 11.33154 | 75.66828 | 35890 ft | 496 kts | 303° |
| 2026-05-07 05:38 | 11.37040 | 75.61010 | 35890 ft | 497 kts | 304° |
| 2026-05-07 05:38 | 11.40940 | 75.55183 | 35890 ft | 497 kts | 304° |
| 2026-05-07 05:39 | 11.44843 | 75.49352 | 35889 ft | 498 kts | 304° |
| 2026-05-07 05:39 | 11.48723 | 75.43550 | 35892 ft | 498 kts | 304° |
| 2026-05-07 05:40 | 11.52623 | 75.37714 | 35887 ft | 498 kts | 304° |
| 2026-05-07 05:40 | 11.56522 | 75.31876 | 35887 ft | 497 kts | 304° |
| 2026-05-07 05:41 | 11.60416 | 75.26041 | 35887 ft | 497 kts | 304° |
| 2026-05-07 05:41 | 11.64285 | 75.20242 | 35888 ft | 497 kts | 304° |
| 2026-05-07 05:42 | 11.68177 | 75.14404 | 35891 ft | 496 kts | 304° |
| 2026-05-07 05:42 | 11.72063 | 75.08572 | 35889 ft | 496 kts | 304° |
| 2026-05-07 05:43 | 11.75946 | 75.02739 | 35888 ft | 496 kts | 304° |
| 2026-05-07 05:43 | 11.79797 | 74.96952 | 35889 ft | 496 kts | 304° |
| 2026-05-07 05:44 | 11.83675 | 74.91124 | 35891 ft | 495 kts | 304° |
| 2026-05-07 05:44 | 11.87544 | 74.85303 | 35888 ft | 495 kts | 304° |
| 2026-05-07 05:45 | 11.91415 | 74.79477 | 35886 ft | 495 kts | 304° |
| 2026-05-07 05:45 | 11.95253 | 74.73695 | 35871 ft | 495 kts | 304° |
| 2026-05-07 05:46 | 11.99117 | 74.67871 | 35882 ft | 495 kts | 304° |
| 2026-05-07 05:46 | 12.02974 | 74.62055 | 35886 ft | 494 kts | 304° |
| 2026-05-07 05:47 | 12.06831 | 74.56235 | 35879 ft | 494 kts | 304° |
| 2026-05-07 05:47 | 12.10690 | 74.50410 | 35880 ft | 494 kts | 304° |
| 2026-05-07 05:48 | 12.14544 | 74.44586 | 35881 ft | 493 kts | 304° |
| 2026-05-07 05:48 | 12.18386 | 74.38779 | 35883 ft | 494 kts | 304° |
| 2026-05-07 05:49 | 12.22211 | 74.32992 | 35879 ft | 494 kts | 304° |
| 2026-05-07 05:49 | 12.26059 | 74.27168 | 35880 ft | 494 kts | 304° |
| 2026-05-07 05:50 | 12.29845 | 74.21295 | 35881 ft | 494 kts | 303° |
| 2026-05-07 05:50 | 12.33564 | 74.15391 | 35879 ft | 494 kts | 303° |
| 2026-05-07 05:51 | 12.37269 | 74.09512 | 35882 ft | 494 kts | 303° |
| 2026-05-07 05:51 | 12.41003 | 74.03609 | 35879 ft | 494 kts | 303° |
| 2026-05-07 05:52 | 12.44747 | 73.97696 | 35868 ft | 494 kts | 303° |
| 2026-05-07 05:52 | 12.48485 | 73.91786 | 35882 ft | 494 kts | 303° |
| 2026-05-07 05:53 | 12.52221 | 73.85877 | 35879 ft | 494 kts | 303° |
| 2026-05-07 05:53 | 12.55936 | 73.79996 | 35884 ft | 495 kts | 303° |
| 2026-05-07 05:54 | 12.59677 | 73.74070 | 35880 ft | 495 kts | 303° |
| 2026-05-07 05:54 | 12.63409 | 73.68154 | 35882 ft | 495 kts | 303° |
| 2026-05-07 05:55 | 12.67141 | 73.62233 | 35876 ft | 495 kts | 303° |
| 2026-05-07 05:55 | 12.70879 | 73.56301 | 35877 ft | 494 kts | 303° |
| 2026-05-07 05:56 | 12.74603 | 73.50384 | 35883 ft | 494 kts | 302° |
| 2026-05-07 05:56 | 12.78331 | 73.44460 | 35880 ft | 494 kts | 302° |
| 2026-05-07 05:57 | 12.82038 | 73.38565 | 35884 ft | 495 kts | 302° |
| 2026-05-07 05:57 | 12.85765 | 73.32637 | 35881 ft | 495 kts | 302° |
| 2026-05-07 05:58 | 12.89490 | 73.26703 | 35883 ft | 495 kts | 302° |
| 2026-05-07 05:58 | 12.93217 | 73.20764 | 35867 ft | 495 kts | 302° |
| 2026-05-07 05:59 | 12.96938 | 73.14828 | 35882 ft | 495 kts | 302° |
| 2026-05-07 05:59 | 13.00658 | 73.08891 | 35884 ft | 495 kts | 302° |
| 2026-05-07 06:00 | 13.04381 | 73.02944 | 35884 ft | 495 kts | 302° |
| 2026-05-07 06:00 | 13.08075 | 72.97040 | 35875 ft | 495 kts | 302° |
| 2026-05-07 06:01 | 13.11794 | 72.91094 | 35880 ft | 495 kts | 302° |
| 2026-05-07 06:01 | 13.15509 | 72.85148 | 35884 ft | 495 kts | 302° |
| 2026-05-07 06:02 | 13.19219 | 72.79206 | 35866 ft | 495 kts | 302° |
| 2026-05-07 06:02 | 13.22929 | 72.73263 | 35883 ft | 494 kts | 302° |
| 2026-05-07 06:03 | 13.26640 | 72.67313 | 35881 ft | 494 kts | 302° |
| 2026-05-07 06:03 | 13.30345 | 72.61367 | 35879 ft | 494 kts | 302° |
| 2026-05-07 06:04 | 13.34049 | 72.55419 | 35884 ft | 494 kts | 302° |
| 2026-05-07 06:04 | 13.37750 | 72.49473 | 35880 ft | 494 kts | 302° |
| 2026-05-07 06:05 | 13.41423 | 72.43567 | 35878 ft | 494 kts | 302° |
| 2026-05-07 06:05 | 13.45117 | 72.37625 | 35879 ft | 493 kts | 302° |
| 2026-05-07 06:06 | 13.48810 | 72.31678 | 35864 ft | 493 kts | 302° |
| 2026-05-07 06:06 | 13.52494 | 72.25743 | 35880 ft | 492 kts | 302° |
| 2026-05-07 06:07 | 13.56170 | 72.19817 | 35874 ft | 491 kts | 302° |
| 2026-05-07 06:07 | 13.59839 | 72.13897 | 35868 ft | 490 kts | 302° |
| 2026-05-07 06:08 | 13.63501 | 72.07983 | 35863 ft | 490 kts | 302° |
| 2026-05-07 06:08 | 13.67133 | 72.02113 | 35864 ft | 489 kts | 302° |
| 2026-05-07 06:09 | 13.70821 | 71.96211 | 35866 ft | 489 kts | 302° |
| 2026-05-07 06:09 | 13.74567 | 71.90364 | 35864 ft | 489 kts | 303° |
| 2026-05-07 06:10 | 13.78291 | 71.84559 | 35864 ft | 489 kts | 303° |
| 2026-05-07 06:10 | 13.82026 | 71.78713 | 35864 ft | 489 kts | 302° |
| 2026-05-07 06:11 | 13.85759 | 71.72853 | 35880 ft | 489 kts | 302° |
| 2026-05-07 06:11 | 13.89486 | 71.66996 | 35864 ft | 489 kts | 302° |
| 2026-05-07 06:12 | 13.93216 | 71.61132 | 35871 ft | 490 kts | 302° |
| 2026-05-07 06:12 | 13.96948 | 71.55262 | 35881 ft | 490 kts | 302° |
| 2026-05-07 06:13 | 14.00659 | 71.49419 | 35869 ft | 490 kts | 302° |
| 2026-05-07 06:13 | 14.04395 | 71.43534 | 35870 ft | 490 kts | 302° |
| 2026-05-07 06:14 | 14.08126 | 71.37653 | 35868 ft | 490 kts | 302° |
| 2026-05-07 06:14 | 14.11855 | 71.31772 | 35876 ft | 490 kts | 302° |
| 2026-05-07 06:15 | 14.15561 | 71.25921 | 35866 ft | 489 kts | 302° |
| 2026-05-07 06:15 | 14.19283 | 71.20040 | 35853 ft | 489 kts | 302° |
| 2026-05-07 06:16 | 14.23002 | 71.14158 | 35863 ft | 489 kts | 302° |
| 2026-05-07 06:16 | 14.26712 | 71.08290 | 35868 ft | 488 kts | 302° |
| 2026-05-07 06:17 | 14.30417 | 71.02424 | 35862 ft | 488 kts | 302° |
| 2026-05-07 06:17 | 14.34096 | 70.96594 | 35857 ft | 488 kts | 302° |
| 2026-05-07 06:18 | 14.37828 | 70.90727 | 35865 ft | 488 kts | 303° |
| 2026-05-07 06:18 | 14.41589 | 70.84900 | 35861 ft | 488 kts | 303° |
| 2026-05-07 06:19 | 14.45353 | 70.79069 | 35879 ft | 488 kts | 303° |
| 2026-05-07 06:19 | 14.49102 | 70.73241 | 35880 ft | 488 kts | 303° |
| 2026-05-07 06:20 | 14.52830 | 70.67432 | 35873 ft | 488 kts | 303° |
| 2026-05-07 06:20 | 14.56576 | 70.61591 | 35867 ft | 488 kts | 303° |
| 2026-05-07 06:21 | 14.60325 | 70.55742 | 35880 ft | 488 kts | 303° |
| 2026-05-07 06:21 | 14.64072 | 70.49892 | 35878 ft | 488 kts | 303° |
| 2026-05-07 06:22 | 14.67818 | 70.44041 | 35870 ft | 488 kts | 303° |
| 2026-05-07 06:22 | 14.73437 | 70.35255 | 35863 ft | 489 kts | 303° |
| 2026-05-07 06:23 | 14.77183 | 70.29392 | 35860 ft | 489 kts | 303° |
| 2026-05-07 06:23 | 14.80905 | 70.23563 | 35859 ft | 489 kts | 303° |
| 2026-05-07 06:24 | 14.84650 | 70.17695 | 35854 ft | 489 kts | 303° |
| 2026-05-07 06:24 | 14.88387 | 70.11832 | 35865 ft | 488 kts | 303° |
| 2026-05-07 06:25 | 14.91495 | 70.06953 | 35869 ft | 488 kts | 303° |
| 2026-05-07 06:25 | 14.95224 | 70.01095 | 35856 ft | 488 kts | 303° |
| 2026-05-07 06:26 | 14.98959 | 69.95225 | 35868 ft | 487 kts | 303° |
| 2026-05-07 06:26 | 15.02683 | 69.89364 | 35864 ft | 487 kts | 303° |
| 2026-05-07 06:27 | 15.06411 | 69.83496 | 35867 ft | 487 kts | 303° |
| 2026-05-07 06:27 | 15.10107 | 69.77671 | 35860 ft | 486 kts | 302° |
| 2026-05-07 06:28 | 15.13831 | 69.71824 | 35853 ft | 486 kts | 303° |
| 2026-05-07 06:28 | 15.17580 | 69.66003 | 35861 ft | 486 kts | 303° |
| 2026-05-07 06:29 | 15.21337 | 69.60173 | 35857 ft | 486 kts | 303° |
| 2026-05-07 06:29 | 15.25065 | 69.54375 | 35863 ft | 486 kts | 303° |
| 2026-05-07 06:30 | 15.28809 | 69.48542 | 35870 ft | 485 kts | 303° |
| 2026-05-07 06:30 | 15.32550 | 69.42707 | 35853 ft | 485 kts | 303° |
| 2026-05-07 06:31 | 15.36290 | 69.36869 | 35868 ft | 485 kts | 303° |
| 2026-05-07 06:31 | 15.40021 | 69.31042 | 35864 ft | 485 kts | 303° |
| 2026-05-07 06:32 | 15.43731 | 69.25244 | 35855 ft | 486 kts | 303° |
| 2026-05-07 06:32 | 15.47467 | 69.19400 | 35852 ft | 486 kts | 303° |
| 2026-05-07 06:33 | 15.51202 | 69.13553 | 35855 ft | 486 kts | 303° |
| 2026-05-07 06:33 | 15.54936 | 69.07702 | 35847 ft | 486 kts | 303° |
| 2026-05-07 06:34 | 15.58673 | 69.01842 | 35840 ft | 486 kts | 303° |
| 2026-05-07 06:34 | 15.62401 | 68.95993 | 35846 ft | 486 kts | 303° |
| 2026-05-07 06:35 | 15.66102 | 68.90180 | 35843 ft | 486 kts | 303° |
| 2026-05-07 06:35 | 15.69828 | 68.84326 | 35835 ft | 486 kts | 303° |
| 2026-05-07 06:36 | 15.73548 | 68.78474 | 35833 ft | 485 kts | 303° |
| 2026-05-07 06:36 | 15.77271 | 68.72614 | 35834 ft | 485 kts | 303° |
| 2026-05-07 06:37 | 15.80966 | 68.66796 | 35835 ft | 485 kts | 303° |
| 2026-05-07 06:37 | 15.84686 | 68.60930 | 35835 ft | 485 kts | 303° |
| 2026-05-07 06:38 | 15.88397 | 68.55075 | 35836 ft | 485 kts | 303° |
| 2026-05-07 06:38 | 15.92081 | 68.49257 | 35832 ft | 484 kts | 303° |
| 2026-05-07 06:39 | 15.95785 | 68.43404 | 35833 ft | 484 kts | 303° |
| 2026-05-07 06:39 | 15.99484 | 68.37554 | 35830 ft | 484 kts | 303° |
| 2026-05-07 06:40 | 16.03181 | 68.31702 | 35831 ft | 484 kts | 303° |
| 2026-05-07 06:40 | 16.06878 | 68.25846 | 35830 ft | 484 kts | 303° |
| 2026-05-07 06:41 | 16.10573 | 68.19988 | 35833 ft | 484 kts | 303° |
| 2026-05-07 06:41 | 16.14260 | 68.14137 | 35834 ft | 484 kts | 303° |
| 2026-05-07 06:42 | 16.17929 | 68.08310 | 35835 ft | 484 kts | 303° |
| 2026-05-07 06:42 | 16.21613 | 68.02454 | 35834 ft | 483 kts | 303° |
| 2026-05-07 06:43 | 16.25298 | 67.96594 | 35835 ft | 483 kts | 303° |
| 2026-05-07 06:43 | 16.28987 | 67.90740 | 35832 ft | 483 kts | 303° |
| 2026-05-07 06:44 | 16.32697 | 67.84902 | 35832 ft | 483 kts | 303° |
| 2026-05-07 06:44 | 16.36419 | 67.79046 | 35832 ft | 483 kts | 303° |
| 2026-05-07 06:45 | 16.40104 | 67.73237 | 35832 ft | 484 kts | 303° |
| 2026-05-07 06:45 | 16.43809 | 67.67385 | 35834 ft | 484 kts | 303° |
| 2026-05-07 06:46 | 16.47516 | 67.61524 | 35836 ft | 484 kts | 303° |
| 2026-05-07 06:46 | 16.51220 | 67.55665 | 35834 ft | 484 kts | 303° |
| 2026-05-07 06:47 | 16.54923 | 67.49802 | 35834 ft | 484 kts | 303° |
| 2026-05-07 06:47 | 16.58626 | 67.43931 | 35834 ft | 484 kts | 303° |
| 2026-05-07 06:48 | 16.62325 | 67.38066 | 35835 ft | 484 kts | 303° |
| 2026-05-07 06:48 | 16.66030 | 67.32185 | 35834 ft | 485 kts | 303° |
| 2026-05-07 06:49 | 16.69709 | 67.26340 | 35834 ft | 485 kts | 303° |
| 2026-05-07 06:49 | 16.73411 | 67.20455 | 35825 ft | 485 kts | 303° |
| 2026-05-07 06:50 | 16.77118 | 67.14554 | 35823 ft | 485 kts | 303° |
| 2026-05-07 06:50 | 16.80825 | 67.08653 | 35826 ft | 485 kts | 303° |
| 2026-05-07 06:51 | 16.84502 | 67.02791 | 35835 ft | 485 kts | 303° |
| 2026-05-07 06:51 | 16.88203 | 66.96887 | 35846 ft | 485 kts | 303° |
| 2026-05-07 06:52 | 16.91901 | 66.90983 | 35856 ft | 485 kts | 303° |
| 2026-05-07 06:52 | 16.95597 | 66.85076 | 35854 ft | 485 kts | 303° |
| 2026-05-07 06:53 | 16.99270 | 66.79200 | 35868 ft | 486 kts | 303° |
| 2026-05-07 06:53 | 17.02970 | 66.73278 | 35882 ft | 486 kts | 303° |
| 2026-05-07 06:54 | 17.06669 | 66.67352 | 35941 ft | 488 kts | 303° |
| 2026-05-07 06:54 | 17.08529 | 66.64370 | 36204 ft | 488 kts | 302° |
| 2026-05-07 06:54 | 17.10379 | 66.61402 | 36522 ft | 487 kts | 302° |
| 2026-05-07 06:55 | 17.12226 | 66.58439 | 36807 ft | 486 kts | 302° |
| 2026-05-07 06:55 | 17.14072 | 66.55476 | 37116 ft | 485 kts | 302° |
| 2026-05-07 06:55 | 17.15914 | 66.52519 | 37402 ft | 484 kts | 302° |
| 2026-05-07 06:55 | 17.17752 | 66.49567 | 37639 ft | 484 kts | 302° |
| 2026-05-07 06:56 | 17.19562 | 66.46657 | 37787 ft | 485 kts | 302° |
| 2026-05-07 06:56 | 17.21405 | 66.43693 | 37826 ft | 486 kts | 302° |
| 2026-05-07 06:56 | 17.25088 | 66.37766 | 37859 ft | 484 kts | 302° |
| 2026-05-07 06:57 | 17.28746 | 66.31875 | 37863 ft | 480 kts | 302° |
| 2026-05-07 06:57 | 17.32375 | 66.26026 | 37877 ft | 477 kts | 302° |
| 2026-05-07 06:58 | 17.35957 | 66.20246 | 37867 ft | 476 kts | 302° |
| 2026-05-07 06:58 | 17.39558 | 66.14430 | 37869 ft | 474 kts | 302° |
| 2026-05-07 06:59 | 17.43145 | 66.08635 | 37870 ft | 473 kts | 302° |
| 2026-05-07 06:59 | 17.46723 | 66.02847 | 37876 ft | 473 kts | 302° |
| 2026-05-07 07:00 | 17.50298 | 65.97060 | 37878 ft | 472 kts | 302° |
| 2026-05-07 07:00 | 17.53870 | 65.91272 | 37871 ft | 472 kts | 302° |
| 2026-05-07 07:01 | 17.57415 | 65.85521 | 37869 ft | 473 kts | 302° |
| 2026-05-07 07:01 | 17.60989 | 65.79721 | 37880 ft | 473 kts | 302° |
| 2026-05-07 07:02 | 17.64615 | 65.73947 | 37880 ft | 474 kts | 303° |
| 2026-05-07 07:02 | 17.68324 | 65.68219 | 37886 ft | 474 kts | 303° |
| 2026-05-07 07:03 | 17.72011 | 65.62526 | 37880 ft | 475 kts | 303° |
| 2026-05-07 07:03 | 17.75720 | 65.56768 | 37878 ft | 475 kts | 303° |
| 2026-05-07 07:04 | 17.79416 | 65.51009 | 37883 ft | 476 kts | 303° |
| 2026-05-07 07:04 | 17.83115 | 65.45240 | 37880 ft | 476 kts | 303° |
| 2026-05-07 07:05 | 17.86813 | 65.39468 | 37882 ft | 476 kts | 303° |
| 2026-05-07 07:05 | 17.90506 | 65.33697 | 37881 ft | 476 kts | 303° |
| 2026-05-07 07:06 | 17.94180 | 65.27955 | 37878 ft | 476 kts | 303° |
| 2026-05-07 07:06 | 17.97884 | 65.22160 | 37881 ft | 476 kts | 303° |
| 2026-05-07 07:07 | 18.01584 | 65.16364 | 37882 ft | 476 kts | 303° |
| 2026-05-07 07:07 | 18.05251 | 65.10614 | 37883 ft | 476 kts | 303° |
| 2026-05-07 07:08 | 18.08935 | 65.04834 | 37881 ft | 476 kts | 303° |
| 2026-05-07 07:08 | 18.12613 | 64.99058 | 37871 ft | 475 kts | 303° |
| 2026-05-07 07:09 | 18.16285 | 64.93288 | 37886 ft | 474 kts | 303° |
| 2026-05-07 07:09 | 18.19954 | 64.87514 | 37885 ft | 474 kts | 303° |
| 2026-05-07 07:10 | 18.23001 | 64.82717 | 37881 ft | 474 kts | 303° |
| 2026-05-07 07:10 | 18.26662 | 64.76947 | 37881 ft | 474 kts | 303° |
| 2026-05-07 07:11 | 18.30322 | 64.71175 | 37886 ft | 474 kts | 303° |
| 2026-05-07 07:11 | 18.33981 | 64.65399 | 37881 ft | 474 kts | 303° |
| 2026-05-07 07:12 | 18.37640 | 64.59618 | 37877 ft | 474 kts | 303° |
| 2026-05-07 07:12 | 18.41271 | 64.53875 | 37877 ft | 474 kts | 303° |
| 2026-05-07 07:13 | 18.44931 | 64.48083 | 37884 ft | 475 kts | 303° |
| 2026-05-07 07:13 | 18.48595 | 64.42279 | 37880 ft | 475 kts | 303° |
| 2026-05-07 07:14 | 18.52261 | 64.36465 | 37884 ft | 476 kts | 303° |
| 2026-05-07 07:14 | 18.55902 | 64.30684 | 37874 ft | 476 kts | 303° |
| 2026-05-07 07:15 | 18.59559 | 64.24873 | 37886 ft | 476 kts | 303° |
| 2026-05-07 07:15 | 18.63218 | 64.19055 | 37886 ft | 476 kts | 303° |
| 2026-05-07 07:16 | 18.66875 | 64.13236 | 37881 ft | 476 kts | 303° |
| 2026-05-07 07:16 | 18.70534 | 64.07407 | 37875 ft | 476 kts | 303° |
| 2026-05-07 07:17 | 18.74192 | 64.01575 | 37886 ft | 476 kts | 303° |
| 2026-05-07 07:17 | 18.77842 | 63.95750 | 37889 ft | 476 kts | 303° |
| 2026-05-07 07:18 | 18.81467 | 63.89958 | 37887 ft | 476 kts | 303° |
| 2026-05-07 07:18 | 18.85111 | 63.84130 | 37892 ft | 475 kts | 303° |
| 2026-05-07 07:19 | 18.88752 | 63.78303 | 37889 ft | 475 kts | 303° |
| 2026-05-07 07:19 | 18.92398 | 63.72462 | 37889 ft | 475 kts | 303° |
| 2026-05-07 07:20 | 18.96010 | 63.66668 | 37889 ft | 475 kts | 303° |
| 2026-05-07 07:20 | 18.99641 | 63.60841 | 37887 ft | 474 kts | 303° |
| 2026-05-07 07:21 | 19.03265 | 63.55024 | 37890 ft | 473 kts | 303° |
| 2026-05-07 07:21 | 19.06885 | 63.49208 | 37893 ft | 473 kts | 303° |
| 2026-05-07 07:22 | 19.10497 | 63.43400 | 37887 ft | 473 kts | 303° |
| 2026-05-07 07:22 | 19.14083 | 63.37628 | 37890 ft | 472 kts | 303° |
| 2026-05-07 07:23 | 19.17693 | 63.31810 | 37888 ft | 472 kts | 302° |
| 2026-05-07 07:23 | 19.21291 | 63.26004 | 37884 ft | 472 kts | 302° |
| 2026-05-07 07:24 | 19.24883 | 63.20204 | 37888 ft | 471 kts | 302° |
| 2026-05-07 07:24 | 19.28484 | 63.14384 | 37877 ft | 472 kts | 302° |
| 2026-05-07 07:25 | 19.33848 | 63.05706 | 37881 ft | 472 kts | 302° |
| 2026-05-07 07:26 | 19.37438 | 62.99890 | 37865 ft | 472 kts | 302° |
| 2026-05-07 07:26 | 19.41028 | 62.94069 | 37862 ft | 472 kts | 302° |
| 2026-05-07 07:27 | 19.44626 | 62.88230 | 37866 ft | 472 kts | 302° |
| 2026-05-07 07:27 | 19.48214 | 62.82400 | 37880 ft | 472 kts | 302° |
| 2026-05-07 07:28 | 19.51802 | 62.76566 | 37867 ft | 472 kts | 302° |
| 2026-05-07 07:28 | 19.55388 | 62.70727 | 37865 ft | 472 kts | 302° |
| 2026-05-07 07:29 | 19.58953 | 62.64920 | 37865 ft | 472 kts | 302° |
| 2026-05-07 07:29 | 19.62534 | 62.59080 | 37866 ft | 472 kts | 302° |
| 2026-05-07 07:30 | 19.66110 | 62.53240 | 37853 ft | 472 kts | 302° |
| 2026-05-07 07:30 | 19.69696 | 62.47380 | 37846 ft | 472 kts | 302° |
| 2026-05-07 07:31 | 19.73248 | 62.41569 | 37844 ft | 472 kts | 302° |
| 2026-05-07 07:31 | 19.76823 | 62.35716 | 37842 ft | 472 kts | 302° |
| 2026-05-07 07:32 | 19.80394 | 62.29866 | 37844 ft | 471 kts | 302° |
| 2026-05-07 07:32 | 19.83962 | 62.24013 | 37848 ft | 471 kts | 302° |
| 2026-05-07 07:33 | 19.87521 | 62.18167 | 37853 ft | 471 kts | 302° |
| 2026-05-07 07:33 | 19.91075 | 62.12324 | 37850 ft | 471 kts | 302° |
| 2026-05-07 07:34 | 19.94609 | 62.06510 | 37852 ft | 471 kts | 302° |
| 2026-05-07 07:34 | 19.98160 | 62.00660 | 37854 ft | 471 kts | 302° |
| 2026-05-07 07:35 | 20.01713 | 61.94803 | 37851 ft | 471 kts | 302° |
| 2026-05-07 07:35 | 20.05248 | 61.88969 | 37852 ft | 471 kts | 302° |
| 2026-05-07 07:36 | 20.08796 | 61.83108 | 37853 ft | 471 kts | 302° |
| 2026-05-07 07:36 | 20.12341 | 61.77246 | 37856 ft | 471 kts | 302° |
| 2026-05-07 07:37 | 20.15888 | 61.71376 | 37853 ft | 471 kts | 302° |
| 2026-05-07 07:37 | 20.19437 | 61.65496 | 37853 ft | 471 kts | 302° |
| 2026-05-07 07:38 | 20.22979 | 61.59619 | 37853 ft | 471 kts | 302° |
| 2026-05-07 07:38 | 20.26518 | 61.53743 | 37851 ft | 471 kts | 302° |
| 2026-05-07 07:39 | 20.30051 | 61.47871 | 37851 ft | 470 kts | 302° |
| 2026-05-07 07:39 | 20.33558 | 61.42039 | 37852 ft | 470 kts | 302° |
| 2026-05-07 07:40 | 20.37081 | 61.36172 | 37854 ft | 470 kts | 302° |
| 2026-05-07 07:40 | 20.40600 | 61.30306 | 37849 ft | 469 kts | 302° |
| 2026-05-07 07:41 | 20.44114 | 61.24442 | 37851 ft | 469 kts | 302° |
| 2026-05-07 07:41 | 20.47628 | 61.18570 | 37851 ft | 469 kts | 302° |
| 2026-05-07 07:42 | 20.51135 | 61.12706 | 37850 ft | 469 kts | 302° |
| 2026-05-07 07:42 | 20.54643 | 61.06834 | 37849 ft | 469 kts | 302° |
| 2026-05-07 07:43 | 20.58124 | 61.01002 | 37852 ft | 468 kts | 302° |
| 2026-05-07 07:43 | 20.61658 | 60.95151 | 37849 ft | 468 kts | 304° |
| 2026-05-07 07:44 | 20.65783 | 60.89768 | 37859 ft | 468 kts | 310° |
| 2026-05-07 07:44 | 20.70056 | 60.84507 | 37854 ft | 468 kts | 310° |
| 2026-05-07 07:45 | 20.74286 | 60.79257 | 37853 ft | 469 kts | 309° |
| 2026-05-07 07:45 | 20.78526 | 60.73950 | 37854 ft | 469 kts | 309° |
| 2026-05-07 07:46 | 20.82756 | 60.68638 | 37851 ft | 469 kts | 309° |
| 2026-05-07 07:46 | 20.86980 | 60.63330 | 37855 ft | 468 kts | 309° |
| 2026-05-07 07:47 | 20.91195 | 60.58029 | 37863 ft | 468 kts | 309° |
| 2026-05-07 07:47 | 20.95389 | 60.52752 | 37881 ft | 467 kts | 309° |
| 2026-05-07 07:48 | 20.99608 | 60.47437 | 37865 ft | 468 kts | 309° |
| 2026-05-07 07:48 | 21.03819 | 60.42128 | 37861 ft | 468 kts | 309° |
| 2026-05-07 07:49 | 21.08035 | 60.36807 | 37867 ft | 468 kts | 309° |
| 2026-05-07 07:49 | 21.12220 | 60.31520 | 37858 ft | 467 kts | 309° |
| 2026-05-07 07:50 | 21.16428 | 60.26198 | 37860 ft | 467 kts | 309° |
| 2026-05-07 07:50 | 21.20628 | 60.20882 | 37859 ft | 467 kts | 309° |
| 2026-05-07 07:51 | 21.24822 | 60.15569 | 37862 ft | 466 kts | 309° |
| 2026-05-07 07:51 | 21.28989 | 60.10304 | 37860 ft | 466 kts | 309° |
| 2026-05-07 07:52 | 21.33183 | 60.05006 | 37863 ft | 465 kts | 309° |
| 2026-05-07 07:52 | 21.37368 | 59.99712 | 37860 ft | 465 kts | 309° |
| 2026-05-07 07:53 | 21.41550 | 59.94415 | 37860 ft | 464 kts | 309° |
| 2026-05-07 07:53 | 21.45720 | 59.89126 | 37860 ft | 464 kts | 309° |
| 2026-05-07 07:54 | 21.49890 | 59.83832 | 37862 ft | 464 kts | 309° |
| 2026-05-07 07:54 | 21.54027 | 59.78575 | 37855 ft | 463 kts | 309° |
| 2026-05-07 07:55 | 21.58183 | 59.73284 | 37852 ft | 463 kts | 309° |
| 2026-05-07 07:55 | 21.62330 | 59.67982 | 37850 ft | 463 kts | 309° |
| 2026-05-07 07:56 | 21.66473 | 59.62676 | 37852 ft | 463 kts | 309° |
| 2026-05-07 07:56 | 21.70612 | 59.57372 | 37852 ft | 463 kts | 309° |
| 2026-05-07 07:57 | 21.74751 | 59.52064 | 37850 ft | 463 kts | 309° |
| 2026-05-07 07:57 | 21.78863 | 59.46785 | 37851 ft | 463 kts | 309° |
| 2026-05-07 07:58 | 21.83006 | 59.41463 | 37856 ft | 463 kts | 309° |
| 2026-05-07 07:58 | 21.87144 | 59.36141 | 37842 ft | 463 kts | 309° |
| 2026-05-07 07:59 | 21.90581 | 59.31715 | 37840 ft | 463 kts | 309° |
| 2026-05-07 07:59 | 21.94715 | 59.26387 | 37843 ft | 464 kts | 309° |
| 2026-05-07 08:00 | 21.98855 | 59.21047 | 37841 ft | 464 kts | 309° |
| 2026-05-07 08:00 | 22.02971 | 59.15732 | 37846 ft | 464 kts | 308° |
| 2026-05-07 08:01 | 22.07107 | 59.10387 | 37844 ft | 464 kts | 308° |
| 2026-05-07 08:01 | 22.11245 | 59.05033 | 37836 ft | 464 kts | 308° |
| 2026-05-07 08:02 | 22.15381 | 58.99675 | 37831 ft | 464 kts | 308° |
| 2026-05-07 08:02 | 22.19510 | 58.94321 | 37832 ft | 463 kts | 308° |
| 2026-05-07 08:03 | 22.24032 | 58.89363 | 37833 ft | 465 kts | 319° |
| 2026-05-07 08:03 | 22.29278 | 58.85362 | 37834 ft | 466 kts | 327° |
| 2026-05-07 08:04 | 22.34852 | 58.81760 | 37828 ft | 466 kts | 327° |
| 2026-05-07 08:04 | 22.40428 | 58.78147 | 37824 ft | 467 kts | 327° |
| 2026-05-07 08:05 | 22.45975 | 58.74508 | 37824 ft | 467 kts | 327° |
| 2026-05-07 08:05 | 22.51498 | 58.70867 | 37821 ft | 467 kts | 327° |
| 2026-05-07 08:06 | 22.57051 | 58.67204 | 37813 ft | 468 kts | 327° |
| 2026-05-07 08:06 | 22.62608 | 58.63537 | 37813 ft | 468 kts | 327° |
| 2026-05-07 08:07 | 22.68166 | 58.59866 | 37820 ft | 468 kts | 326° |
| 2026-05-07 08:07 | 22.73737 | 58.56189 | 37812 ft | 468 kts | 326° |
| 2026-05-07 08:08 | 22.79304 | 58.52510 | 37813 ft | 468 kts | 326° |
| 2026-05-07 08:08 | 22.84838 | 58.48849 | 37812 ft | 468 kts | 326° |
| 2026-05-07 08:09 | 22.90405 | 58.45161 | 37807 ft | 468 kts | 326° |
| 2026-05-07 08:09 | 22.95969 | 58.41472 | 37803 ft | 468 kts | 326° |
| 2026-05-07 08:10 | 23.01525 | 58.37784 | 37809 ft | 468 kts | 326° |
| 2026-05-07 08:10 | 23.07076 | 58.34091 | 37803 ft | 468 kts | 326° |
| 2026-05-07 08:11 | 23.12588 | 58.30412 | 37803 ft | 467 kts | 326° |
| 2026-05-07 08:11 | 23.18117 | 58.26718 | 37807 ft | 466 kts | 326° |
| 2026-05-07 08:12 | 23.23644 | 58.23023 | 37806 ft | 466 kts | 326° |
| 2026-05-07 08:12 | 23.29162 | 58.19331 | 37808 ft | 466 kts | 326° |
| 2026-05-07 08:13 | 23.34681 | 58.15634 | 37802 ft | 466 kts | 326° |
| 2026-05-07 08:13 | 23.39792 | 58.11361 | 37810 ft | 461 kts | 313° |
| 2026-05-07 08:14 | 23.43902 | 58.06110 | 37806 ft | 457 kts | 303° |
| 2026-05-07 08:14 | 23.47543 | 58.00438 | 37810 ft | 457 kts | 303° |
| 2026-05-07 08:15 | 23.51207 | 57.94757 | 37806 ft | 457 kts | 303° |
| 2026-05-07 08:15 | 23.54897 | 57.89096 | 37803 ft | 458 kts | 303° |
| 2026-05-07 08:16 | 23.58589 | 57.83435 | 37805 ft | 458 kts | 303° |
| 2026-05-07 08:16 | 23.62391 | 57.77908 | 37805 ft | 459 kts | 306° |
| 2026-05-07 08:17 | 23.66373 | 57.72452 | 37806 ft | 459 kts | 306° |
| 2026-05-07 08:17 | 23.70317 | 57.66979 | 37804 ft | 459 kts | 306° |
| 2026-05-07 08:18 | 23.74241 | 57.61476 | 37803 ft | 459 kts | 306° |
| 2026-05-07 08:18 | 23.78135 | 57.56012 | 37794 ft | 459 kts | 306° |
| 2026-05-07 08:19 | 23.82059 | 57.50509 | 37798 ft | 459 kts | 306° |
| 2026-05-07 08:19 | 23.85982 | 57.45003 | 37794 ft | 459 kts | 306° |
| 2026-05-07 08:20 | 23.89906 | 57.39488 | 37797 ft | 459 kts | 306° |
| 2026-05-07 08:20 | 23.93826 | 57.33970 | 37795 ft | 459 kts | 306° |
| 2026-05-07 08:21 | 23.97745 | 57.28449 | 37792 ft | 460 kts | 306° |
| 2026-05-07 08:21 | 24.01643 | 57.22951 | 37785 ft | 460 kts | 305° |
| 2026-05-07 08:22 | 24.05553 | 57.17431 | 37791 ft | 459 kts | 305° |
| 2026-05-07 08:22 | 24.09467 | 57.11898 | 37783 ft | 458 kts | 305° |
| 2026-05-07 08:23 | 24.13364 | 57.06382 | 37786 ft | 457 kts | 305° |
| 2026-05-07 08:23 | 24.17250 | 57.00873 | 37779 ft | 457 kts | 305° |
| 2026-05-07 08:24 | 24.21114 | 56.95394 | 37778 ft | 456 kts | 304° |
| 2026-05-07 08:24 | 24.24987 | 56.89883 | 37775 ft | 456 kts | 304° |
| 2026-05-07 08:25 | 24.28848 | 56.84371 | 37778 ft | 456 kts | 304° |
| 2026-05-07 08:25 | 24.32703 | 56.78862 | 37786 ft | 455 kts | 304° |
| 2026-05-07 08:26 | 24.38498 | 56.70570 | 37778 ft | 456 kts | 304° |
| 2026-05-07 08:26 | 24.42334 | 56.65075 | 37779 ft | 456 kts | 304° |
| 2026-05-07 08:27 | 24.46501 | 56.59807 | 37789 ft | 458 kts | 310° |
| 2026-05-07 08:27 | 24.50906 | 56.54734 | 37775 ft | 459 kts | 310° |
| 2026-05-07 08:28 | 24.55297 | 56.49643 | 37778 ft | 459 kts | 310° |
| 2026-05-07 08:28 | 24.59672 | 56.44532 | 37778 ft | 459 kts | 310° |
| 2026-05-07 08:29 | 24.64042 | 56.39413 | 37787 ft | 459 kts | 310° |
| 2026-05-07 08:29 | 24.68412 | 56.34293 | 37788 ft | 459 kts | 310° |
| 2026-05-07 08:30 | 24.72471 | 56.28973 | 37804 ft | 455 kts | 301° |
| 2026-05-07 08:30 | 24.75684 | 56.22985 | 37811 ft | 452 kts | 296° |
| 2026-05-07 08:31 | 24.78734 | 56.16969 | 37814 ft | 453 kts | 296° |
| 2026-05-07 08:31 | 24.81834 | 56.10934 | 37817 ft | 453 kts | 296° |
| 2026-05-07 08:32 | 24.84927 | 56.04889 | 37819 ft | 452 kts | 295° |
| 2026-05-07 08:32 | 24.87398 | 55.98554 | 37813 ft | 450 kts | 288° |
| 2026-05-07 08:33 | 24.89633 | 55.92110 | 37821 ft | 449 kts | 288° |
| 2026-05-07 08:33 | 24.91861 | 55.85720 | 37820 ft | 449 kts | 288° |
| 2026-05-07 08:34 | 24.94118 | 55.79291 | 37824 ft | 449 kts | 288° |
| 2026-05-07 08:34 | 24.96375 | 55.72876 | 37825 ft | 449 kts | 288° |
| 2026-05-07 08:35 | 24.98627 | 55.66460 | 37822 ft | 448 kts | 288° |
| 2026-05-07 08:35 | 25.00874 | 55.60049 | 37831 ft | 448 kts | 288° |
| 2026-05-07 08:36 | 25.03117 | 55.53634 | 37835 ft | 448 kts | 288° |
| 2026-05-07 08:36 | 25.05356 | 55.47224 | 37844 ft | 447 kts | 288° |
| 2026-05-07 08:37 | 25.07577 | 55.40855 | 37841 ft | 447 kts | 288° |
| 2026-05-07 08:37 | 25.09812 | 55.34435 | 37842 ft | 447 kts | 288° |
| 2026-05-07 08:38 | 25.12039 | 55.28024 | 37836 ft | 447 kts | 288° |
| 2026-05-07 08:38 | 25.14265 | 55.21611 | 37836 ft | 447 kts | 288° |
| 2026-05-07 08:39 | 25.16488 | 55.15195 | 37840 ft | 447 kts | 288° |
| 2026-05-07 08:39 | 25.18389 | 55.08736 | 37843 ft | 445 kts | 284° |
| 2026-05-07 08:40 | 25.20151 | 55.02188 | 37842 ft | 445 kts | 284° |
| 2026-05-07 08:40 | 25.21920 | 54.95639 | 37843 ft | 445 kts | 284° |
| 2026-05-07 08:41 | 25.23701 | 54.89084 | 37844 ft | 445 kts | 284° |
| 2026-05-07 08:41 | 25.25481 | 54.82532 | 37843 ft | 445 kts | 284° |
| 2026-05-07 08:42 | 25.27259 | 54.75979 | 37846 ft | 446 kts | 284° |
| 2026-05-07 08:42 | 25.29025 | 54.69454 | 37845 ft | 446 kts | 283° |
| 2026-05-07 08:43 | 25.30800 | 54.62879 | 37842 ft | 446 kts | 283° |
| 2026-05-07 08:43 | 25.32573 | 54.56306 | 37842 ft | 446 kts | 283° |
| 2026-05-07 08:44 | 25.34345 | 54.49739 | 37848 ft | 446 kts | 284° |
| 2026-05-07 08:44 | 25.36118 | 54.43208 | 37854 ft | 445 kts | 283° |
| 2026-05-07 08:45 | 25.37893 | 54.36651 | 37855 ft | 445 kts | 283° |
| 2026-05-07 08:45 | 25.39665 | 54.30088 | 37860 ft | 445 kts | 283° |
| 2026-05-07 08:46 | 25.41373 | 54.23502 | 37853 ft | 444 kts | 282° |
| 2026-05-07 08:46 | 25.42968 | 54.16932 | 37843 ft | 444 kts | 282° |
| 2026-05-07 08:47 | 25.44590 | 54.10336 | 37842 ft | 444 kts | 282° |
| 2026-05-07 08:47 | 25.46206 | 54.03733 | 37842 ft | 444 kts | 282° |
| 2026-05-07 08:48 | 25.47810 | 53.97135 | 37844 ft | 444 kts | 282° |
| 2026-05-07 08:48 | 25.49143 | 53.91646 | 37843 ft | 443 kts | 282° |
| 2026-05-07 08:49 | 25.51003 | 53.83977 | 37842 ft | 443 kts | 282° |
| 2026-05-07 08:49 | 25.52337 | 53.78461 | 37842 ft | 442 kts | 282° |
| 2026-05-07 08:50 | 25.53911 | 53.71917 | 37841 ft | 442 kts | 281° |
| 2026-05-07 08:50 | 25.55466 | 53.65342 | 37843 ft | 441 kts | 281° |
| 2026-05-07 08:51 | 25.57017 | 53.58766 | 37848 ft | 441 kts | 281° |
| 2026-05-07 08:51 | 25.58568 | 53.52190 | 37854 ft | 441 kts | 281° |
| 2026-05-07 08:52 | 25.60117 | 53.45612 | 37864 ft | 441 kts | 281° |
| 2026-05-07 08:52 | 25.61664 | 53.39038 | 37867 ft | 442 kts | 281° |
| 2026-05-07 08:53 | 25.63215 | 53.32483 | 37869 ft | 442 kts | 281° |
| 2026-05-07 08:53 | 25.64772 | 53.25893 | 37877 ft | 442 kts | 281° |
| 2026-05-07 08:54 | 25.66327 | 53.19292 | 37879 ft | 443 kts | 281° |
| 2026-05-07 08:54 | 25.67881 | 53.12681 | 37875 ft | 443 kts | 281° |
| 2026-05-07 08:55 | 25.69434 | 53.06059 | 37875 ft | 443 kts | 281° |
| 2026-05-07 08:55 | 25.71416 | 52.99568 | 37879 ft | 448 kts | 290° |
| 2026-05-07 08:56 | 25.74279 | 52.93405 | 37886 ft | 450 kts | 294° |
| 2026-05-07 08:56 | 25.77214 | 52.87292 | 37884 ft | 450 kts | 293° |
| 2026-05-07 08:57 | 25.80127 | 52.81152 | 37891 ft | 449 kts | 293° |
| 2026-05-07 08:57 | 25.83026 | 52.75007 | 37888 ft | 449 kts | 293° |
| 2026-05-07 08:58 | 25.85918 | 52.68860 | 37890 ft | 449 kts | 293° |
| 2026-05-07 08:58 | 25.88805 | 52.62722 | 37888 ft | 448 kts | 293° |
| 2026-05-07 08:59 | 25.91620 | 52.56598 | 37885 ft | 447 kts | 291° |
| 2026-05-07 08:59 | 25.94351 | 52.50389 | 37890 ft | 446 kts | 291° |
| 2026-05-07 09:00 | 25.97087 | 52.44193 | 37889 ft | 446 kts | 291° |
| 2026-05-07 09:00 | 25.99831 | 52.38005 | 37882 ft | 446 kts | 291° |
| 2026-05-07 09:01 | 26.02570 | 52.31857 | 37882 ft | 446 kts | 291° |
| 2026-05-07 09:01 | 26.05319 | 52.25680 | 37866 ft | 445 kts | 291° |
| 2026-05-07 09:02 | 26.08060 | 52.19508 | 37868 ft | 445 kts | 291° |
| 2026-05-07 09:02 | 26.10797 | 52.13332 | 37865 ft | 445 kts | 291° |
| 2026-05-07 09:03 | 26.13529 | 52.07157 | 37867 ft | 444 kts | 291° |
| 2026-05-07 09:03 | 26.16257 | 52.00986 | 37878 ft | 444 kts | 291° |
| 2026-05-07 09:04 | 26.19016 | 51.94824 | 37880 ft | 445 kts | 292° |
| 2026-05-07 09:04 | 26.21780 | 51.88655 | 37878 ft | 444 kts | 291° |
| 2026-05-07 09:05 | 26.24488 | 51.82514 | 37887 ft | 444 kts | 291° |
| 2026-05-07 09:05 | 26.27234 | 51.76334 | 37888 ft | 444 kts | 291° |
| 2026-05-07 09:06 | 26.29987 | 51.70173 | 37879 ft | 444 kts | 291° |
| 2026-05-07 09:06 | 26.32733 | 51.64008 | 37888 ft | 443 kts | 291° |
| 2026-05-07 09:07 | 26.35452 | 51.57895 | 37885 ft | 442 kts | 291° |
| 2026-05-07 09:07 | 26.38109 | 51.51715 | 37875 ft | 439 kts | 287° |
| 2026-05-07 09:08 | 26.40139 | 51.45327 | 37867 ft | 436 kts | 284° |
| 2026-05-07 09:08 | 26.42146 | 51.38948 | 37878 ft | 435 kts | 285° |
| 2026-05-07 09:09 | 26.44200 | 51.32592 | 37868 ft | 435 kts | 285° |
| 2026-05-07 09:09 | 26.46279 | 51.26256 | 37864 ft | 434 kts | 285° |
| 2026-05-07 09:10 | 26.48294 | 51.19956 | 37865 ft | 433 kts | 284° |
| 2026-05-07 09:10 | 26.50298 | 51.13628 | 37875 ft | 432 kts | 284° |
| 2026-05-07 09:11 | 26.52302 | 51.07301 | 37870 ft | 431 kts | 284° |
| 2026-05-07 09:11 | 26.54303 | 51.00984 | 37870 ft | 431 kts | 284° |
| 2026-05-07 09:12 | 26.56298 | 50.94678 | 37877 ft | 430 kts | 284° |
| 2026-05-07 09:12 | 26.58276 | 50.88369 | 37867 ft | 430 kts | 284° |
| 2026-05-07 09:13 | 26.60211 | 50.82049 | 37860 ft | 429 kts | 284° |
| 2026-05-07 09:13 | 26.62141 | 50.75732 | 37858 ft | 429 kts | 284° |
| 2026-05-07 09:14 | 26.64062 | 50.69454 | 37862 ft | 429 kts | 284° |
| 2026-05-07 09:14 | 26.65961 | 50.63132 | 37859 ft | 428 kts | 283° |
| 2026-05-07 09:15 | 26.67831 | 50.56819 | 37860 ft | 428 kts | 283° |
| 2026-05-07 09:15 | 26.69708 | 50.50498 | 37854 ft | 428 kts | 283° |
| 2026-05-07 09:16 | 26.71494 | 50.44153 | 37850 ft | 426 kts | 281° |
| 2026-05-07 09:16 | 26.73094 | 50.37814 | 37853 ft | 426 kts | 281° |
| 2026-05-07 09:17 | 26.74732 | 50.31422 | 37850 ft | 427 kts | 281° |
| 2026-05-07 09:17 | 26.76410 | 50.25050 | 37850 ft | 427 kts | 283° |
| 2026-05-07 09:18 | 26.78310 | 50.18733 | 37854 ft | 428 kts | 284° |
| 2026-05-07 09:18 | 26.80217 | 50.12464 | 37861 ft | 428 kts | 283° |
| 2026-05-07 09:19 | 26.82101 | 50.06141 | 37858 ft | 428 kts | 283° |
| 2026-05-07 09:19 | 26.83974 | 49.99817 | 37852 ft | 428 kts | 283° |
| 2026-05-07 09:20 | 26.85847 | 49.93494 | 37856 ft | 427 kts | 283° |
| 2026-05-07 09:20 | 26.87714 | 49.87182 | 37850 ft | 427 kts | 283° |
| 2026-05-07 09:21 | 26.89574 | 49.80875 | 37848 ft | 425 kts | 283° |
| 2026-05-07 09:21 | 26.91414 | 49.74628 | 37855 ft | 424 kts | 283° |
| 2026-05-07 09:22 | 26.93260 | 49.68345 | 37859 ft | 423 kts | 283° |
| 2026-05-07 09:22 | 26.95102 | 49.62070 | 37869 ft | 423 kts | 282° |
| 2026-05-07 09:23 | 26.96938 | 49.55804 | 37871 ft | 422 kts | 282° |
| 2026-05-07 09:23 | 26.98754 | 49.49590 | 37870 ft | 422 kts | 282° |
| 2026-05-07 09:24 | 27.00594 | 49.43344 | 37869 ft | 423 kts | 284° |
| 2026-05-07 09:24 | 27.03095 | 49.37314 | 37876 ft | 430 kts | 293° |
| 2026-05-07 09:25 | 27.06068 | 49.31487 | 37879 ft | 430 kts | 292° |
| 2026-05-07 09:25 | 27.09013 | 49.25659 | 37883 ft | 429 kts | 292° |
| 2026-05-07 09:26 | 27.11945 | 49.19818 | 37887 ft | 429 kts | 292° |
| 2026-05-07 09:26 | 27.14870 | 49.13976 | 37893 ft | 429 kts | 292° |
| 2026-05-07 09:27 | 27.17775 | 49.08164 | 37887 ft | 429 kts | 292° |
| 2026-05-07 09:28 | 27.22158 | 48.99387 | 37898 ft | 429 kts | 292° |
| 2026-05-07 09:28 | 27.25086 | 48.93533 | 37896 ft | 429 kts | 292° |
| 2026-05-07 09:29 | 27.28008 | 48.87688 | 37897 ft | 429 kts | 292° |
| 2026-05-07 09:29 | 27.30917 | 48.81861 | 37900 ft | 429 kts | 292° |
| 2026-05-07 09:30 | 27.33840 | 48.75997 | 37910 ft | 429 kts | 292° |
| 2026-05-07 09:30 | 27.36753 | 48.70140 | 37908 ft | 429 kts | 291° |
| 2026-05-07 09:31 | 27.39660 | 48.64290 | 37917 ft | 428 kts | 291° |
| 2026-05-07 09:31 | 27.42566 | 48.58434 | 37917 ft | 428 kts | 291° |
| 2026-05-07 09:32 | 27.45464 | 48.52584 | 37920 ft | 427 kts | 291° |
| 2026-05-07 09:32 | 27.48341 | 48.46771 | 37926 ft | 427 kts | 291° |
| 2026-05-07 09:33 | 27.51237 | 48.40910 | 37925 ft | 426 kts | 291° |
| 2026-05-07 09:33 | 27.54117 | 48.35073 | 37932 ft | 426 kts | 291° |
| 2026-05-07 09:34 | 27.56970 | 48.29285 | 37936 ft | 425 kts | 291° |
| 2026-05-07 09:34 | 27.59834 | 48.23458 | 37938 ft | 424 kts | 291° |
| 2026-05-07 09:35 | 27.62686 | 48.17637 | 37931 ft | 423 kts | 291° |
| 2026-05-07 09:35 | 27.65531 | 48.11822 | 37937 ft | 423 kts | 291° |
| 2026-05-07 09:36 | 27.68354 | 48.06047 | 37943 ft | 422 kts | 290° |
| 2026-05-07 09:36 | 27.71190 | 48.00241 | 37945 ft | 422 kts | 290° |
| 2026-05-07 09:37 | 27.74023 | 47.94436 | 37942 ft | 421 kts | 290° |
| 2026-05-07 09:37 | 27.76830 | 47.88674 | 37946 ft | 421 kts | 290° |
| 2026-05-07 09:38 | 27.79645 | 47.82890 | 37959 ft | 420 kts | 290° |
| 2026-05-07 09:38 | 27.81999 | 47.78043 | 37971 ft | 420 kts | 290° |
| 2026-05-07 09:39 | 27.84633 | 47.72223 | 37967 ft | 414 kts | 285° |
| 2026-05-07 09:39 | 27.86545 | 47.66132 | 37982 ft | 410 kts | 282° |
| 2026-05-07 09:40 | 27.88416 | 47.60031 | 37983 ft | 411 kts | 282° |
| 2026-05-07 09:40 | 27.90302 | 47.53916 | 37982 ft | 412 kts | 282° |
| 2026-05-07 09:41 | 27.92189 | 47.47803 | 37982 ft | 412 kts | 282° |
| 2026-05-07 09:41 | 27.94076 | 47.41677 | 37983 ft | 413 kts | 282° |
| 2026-05-07 09:42 | 27.95950 | 47.35578 | 37981 ft | 413 kts | 282° |
| 2026-05-07 09:42 | 27.97836 | 47.29434 | 37980 ft | 413 kts | 282° |
| 2026-05-07 09:43 | 27.99722 | 47.23278 | 37986 ft | 413 kts | 282° |
| 2026-05-07 09:43 | 28.01590 | 47.17167 | 37997 ft | 413 kts | 282° |
| 2026-05-07 09:44 | 28.03469 | 47.11010 | 37991 ft | 414 kts | 282° |
| 2026-05-07 09:44 | 28.05344 | 47.04858 | 37989 ft | 413 kts | 282° |
| 2026-05-07 09:45 | 28.07214 | 46.98706 | 37990 ft | 412 kts | 282° |
| 2026-05-07 09:45 | 28.09078 | 46.92567 | 37989 ft | 411 kts | 282° |
| 2026-05-07 09:46 | 28.10934 | 46.86488 | 37990 ft | 411 kts | 282° |
| 2026-05-07 09:46 | 28.12952 | 46.80420 | 37990 ft | 412 kts | 283° |
| 2026-05-07 09:47 | 28.15002 | 46.74364 | 37990 ft | 411 kts | 283° |
| 2026-05-07 09:47 | 28.17033 | 46.68306 | 37991 ft | 411 kts | 283° |
| 2026-05-07 09:48 | 28.19038 | 46.62277 | 38000 ft | 410 kts | 283° |
| 2026-05-07 09:48 | 28.21048 | 46.56215 | 37997 ft | 410 kts | 282° |
| 2026-05-07 09:49 | 28.23052 | 46.50158 | 37991 ft | 410 kts | 282° |
| 2026-05-07 09:49 | 28.25057 | 46.44092 | 37991 ft | 410 kts | 282° |
| 2026-05-07 09:50 | 28.27056 | 46.38030 | 37989 ft | 410 kts | 282° |
| 2026-05-07 09:50 | 28.29041 | 46.32001 | 37991 ft | 410 kts | 282° |
| 2026-05-07 09:51 | 28.31036 | 46.25931 | 37991 ft | 410 kts | 282° |
| 2026-05-07 09:51 | 28.33029 | 46.19859 | 37991 ft | 410 kts | 282° |
| 2026-05-07 09:52 | 28.35022 | 46.13775 | 37990 ft | 410 kts | 282° |
| 2026-05-07 09:52 | 28.37094 | 46.07722 | 37989 ft | 413 kts | 284° |
| 2026-05-07 09:53 | 28.39349 | 46.01756 | 37995 ft | 414 kts | 285° |
| 2026-05-07 09:53 | 28.41629 | 45.95745 | 37991 ft | 414 kts | 284° |
| 2026-05-07 09:54 | 28.43883 | 45.89724 | 37987 ft | 413 kts | 284° |
| 2026-05-07 09:54 | 28.46122 | 45.83698 | 37992 ft | 413 kts | 284° |
| 2026-05-07 09:55 | 28.48336 | 45.77718 | 37991 ft | 413 kts | 284° |
| 2026-05-07 09:55 | 28.50565 | 45.71688 | 37998 ft | 413 kts | 284° |
| 2026-05-07 09:56 | 28.52787 | 45.65667 | 37999 ft | 413 kts | 284° |
| 2026-05-07 09:56 | 28.55008 | 45.59641 | 38001 ft | 413 kts | 284° |
| 2026-05-07 09:57 | 28.57226 | 45.53614 | 38002 ft | 413 kts | 284° |
| 2026-05-07 09:57 | 28.59443 | 45.47578 | 37998 ft | 413 kts | 284° |
| 2026-05-07 09:58 | 28.61647 | 45.41570 | 38001 ft | 414 kts | 284° |
| 2026-05-07 09:58 | 28.63864 | 45.35517 | 38000 ft | 414 kts | 284° |
| 2026-05-07 09:59 | 28.66078 | 45.29458 | 38000 ft | 415 kts | 284° |
| 2026-05-07 09:59 | 28.68291 | 45.23392 | 37999 ft | 415 kts | 284° |
| 2026-05-07 10:00 | 28.70504 | 45.17318 | 38001 ft | 415 kts | 284° |
| 2026-05-07 10:00 | 28.72716 | 45.11236 | 38002 ft | 415 kts | 284° |
| 2026-05-07 10:01 | 28.74926 | 45.05151 | 38009 ft | 415 kts | 284° |
| 2026-05-07 10:01 | 28.77119 | 44.99102 | 38008 ft | 415 kts | 284° |
| 2026-05-07 10:02 | 28.79327 | 44.93000 | 38009 ft | 416 kts | 284° |
| 2026-05-07 10:02 | 28.81530 | 44.86905 | 38009 ft | 416 kts | 284° |
| 2026-05-07 10:03 | 28.83734 | 44.80796 | 38011 ft | 416 kts | 284° |
| 2026-05-07 10:03 | 28.86117 | 44.74733 | 38019 ft | 423 kts | 289° |
| 2026-05-07 10:04 | 28.89306 | 44.69047 | 38020 ft | 431 kts | 296° |
| 2026-05-07 10:04 | 28.92788 | 44.63464 | 38018 ft | 432 kts | 296° |
| 2026-05-07 10:05 | 28.96267 | 44.57862 | 38021 ft | 432 kts | 296° |
| 2026-05-07 10:05 | 28.99726 | 44.52258 | 38019 ft | 432 kts | 295° |
| 2026-05-07 10:06 | 29.03184 | 44.46637 | 38019 ft | 432 kts | 295° |
| 2026-05-07 10:06 | 29.06613 | 44.41052 | 38018 ft | 432 kts | 295° |
| 2026-05-07 10:07 | 29.10060 | 44.35433 | 38019 ft | 432 kts | 295° |
| 2026-05-07 10:07 | 29.13505 | 44.29809 | 38018 ft | 431 kts | 295° |
| 2026-05-07 10:08 | 29.16950 | 44.24176 | 38017 ft | 431 kts | 295° |
| 2026-05-07 10:08 | 29.20385 | 44.18552 | 38015 ft | 431 kts | 295° |
| 2026-05-07 10:09 | 29.23813 | 44.12932 | 38020 ft | 431 kts | 295° |
| 2026-05-07 10:09 | 29.27219 | 44.07340 | 38018 ft | 431 kts | 295° |
| 2026-05-07 10:10 | 29.30648 | 44.01703 | 38021 ft | 431 kts | 295° |
| 2026-05-07 10:10 | 29.34076 | 43.96060 | 38015 ft | 431 kts | 295° |
| 2026-05-07 10:11 | 29.37505 | 43.90408 | 38019 ft | 432 kts | 295° |
| 2026-05-07 10:11 | 29.40916 | 43.84778 | 38019 ft | 432 kts | 295° |
| 2026-05-07 10:12 | 29.44346 | 43.79108 | 38019 ft | 433 kts | 295° |
| 2026-05-07 10:12 | 29.47776 | 43.73431 | 38020 ft | 433 kts | 295° |
| 2026-05-07 10:13 | 29.51206 | 43.67746 | 38018 ft | 433 kts | 295° |
| 2026-05-07 10:13 | 29.54636 | 43.62053 | 38017 ft | 433 kts | 295° |
| 2026-05-07 10:14 | 29.58062 | 43.56358 | 38018 ft | 433 kts | 295° |
| 2026-05-07 10:14 | 29.61488 | 43.50657 | 38019 ft | 433 kts | 295° |
| 2026-05-07 10:15 | 29.64801 | 43.44946 | 38018 ft | 431 kts | 293° |
| 2026-05-07 10:15 | 29.68031 | 43.39149 | 38016 ft | 430 kts | 293° |
| 2026-05-07 10:16 | 29.71261 | 43.33342 | 38018 ft | 430 kts | 293° |
| 2026-05-07 10:16 | 29.74498 | 43.27545 | 38018 ft | 430 kts | 293° |
| 2026-05-07 10:17 | 29.77740 | 43.21747 | 38019 ft | 431 kts | 293° |
| 2026-05-07 10:17 | 29.80980 | 43.15947 | 38019 ft | 431 kts | 293° |
| 2026-05-07 10:18 | 29.84197 | 43.10181 | 38021 ft | 430 kts | 293° |
| 2026-05-07 10:18 | 29.87430 | 43.04377 | 38026 ft | 430 kts | 293° |
| 2026-05-07 10:19 | 29.90663 | 42.98564 | 38027 ft | 430 kts | 293° |
| 2026-05-07 10:19 | 29.93892 | 42.92749 | 38030 ft | 430 kts | 293° |
| 2026-05-07 10:20 | 29.97101 | 42.86964 | 38027 ft | 430 kts | 293° |
| 2026-05-07 10:20 | 30.00324 | 42.81143 | 38029 ft | 430 kts | 293° |
| 2026-05-07 10:21 | 30.03543 | 42.75323 | 38035 ft | 430 kts | 293° |
| 2026-05-07 10:21 | 30.06758 | 42.69499 | 38038 ft | 430 kts | 293° |
| 2026-05-07 10:22 | 30.09971 | 42.63675 | 38038 ft | 430 kts | 293° |
| 2026-05-07 10:22 | 30.13184 | 42.57839 | 38036 ft | 430 kts | 293° |
| 2026-05-07 10:23 | 30.16394 | 42.52000 | 38044 ft | 430 kts | 293° |
| 2026-05-07 10:23 | 30.19603 | 42.46155 | 38048 ft | 430 kts | 293° |
| 2026-05-07 10:24 | 30.22812 | 42.40301 | 38076 ft | 432 kts | 293° |
| 2026-05-07 10:24 | 30.24420 | 42.37360 | 38291 ft | 433 kts | 293° |
| 2026-05-07 10:24 | 30.26011 | 42.34453 | 38597 ft | 432 kts | 293° |
| 2026-05-07 10:24 | 30.27615 | 42.31524 | 38947 ft | 430 kts | 293° |
| 2026-05-07 10:25 | 30.29216 | 42.28599 | 39296 ft | 427 kts | 292° |
| 2026-05-07 10:25 | 30.30804 | 42.25692 | 39509 ft | 428 kts | 292° |
| 2026-05-07 10:25 | 30.32397 | 42.22767 | 39621 ft | 431 kts | 292° |
| 2026-05-07 10:25 | 30.33997 | 42.19827 | 39817 ft | 432 kts | 292° |
| 2026-05-07 10:26 | 30.35603 | 42.16879 | 39956 ft | 433 kts | 292° |
| 2026-05-07 10:26 | 30.38822 | 42.10960 | 40043 ft | 435 kts | 292° |
| 2026-05-07 10:27 | 30.42033 | 42.05054 | 40065 ft | 435 kts | 292° |
| 2026-05-07 10:27 | 30.45257 | 41.99115 | 40069 ft | 435 kts | 292° |
| 2026-05-07 10:28 | 30.47938 | 41.94167 | 40069 ft | 436 kts | 292° |
| 2026-05-07 10:28 | 30.51158 | 41.88216 | 40058 ft | 436 kts | 292° |
| 2026-05-07 10:29 | 30.54376 | 41.82261 | 40061 ft | 435 kts | 292° |
| 2026-05-07 10:29 | 30.57590 | 41.76304 | 40061 ft | 435 kts | 292° |
| 2026-05-07 10:30 | 30.62403 | 41.67364 | 40061 ft | 435 kts | 292° |
| 2026-05-07 10:30 | 30.65587 | 41.61439 | 40075 ft | 434 kts | 292° |
| 2026-05-07 10:31 | 30.68782 | 41.55486 | 40066 ft | 434 kts | 292° |
| 2026-05-07 10:31 | 30.71976 | 41.49524 | 40079 ft | 434 kts | 292° |
| 2026-05-07 10:32 | 30.75170 | 41.43553 | 40075 ft | 434 kts | 292° |
| 2026-05-07 10:32 | 30.78358 | 41.37585 | 40076 ft | 434 kts | 292° |
| 2026-05-07 10:33 | 30.81549 | 41.31601 | 40078 ft | 434 kts | 292° |
| 2026-05-07 10:33 | 30.84713 | 41.25658 | 40075 ft | 435 kts | 292° |
| 2026-05-07 10:34 | 30.87898 | 41.19670 | 40061 ft | 435 kts | 292° |
| 2026-05-07 10:34 | 30.90944 | 41.13629 | 40066 ft | 429 kts | 287° |
| 2026-05-07 10:35 | 30.93187 | 41.07277 | 40077 ft | 423 kts | 282° |
| 2026-05-07 10:35 | 30.95320 | 41.00867 | 40078 ft | 424 kts | 283° |
| 2026-05-07 10:36 | 30.97467 | 40.94459 | 40080 ft | 425 kts | 283° |
| 2026-05-07 10:36 | 30.99611 | 40.88075 | 40078 ft | 426 kts | 283° |
| 2026-05-07 10:37 | 31.01771 | 40.81642 | 40069 ft | 426 kts | 283° |
| 2026-05-07 10:37 | 31.03936 | 40.75180 | 40077 ft | 427 kts | 283° |
| 2026-05-07 10:38 | 31.06094 | 40.68726 | 40080 ft | 427 kts | 283° |
| 2026-05-07 10:38 | 31.08242 | 40.62289 | 40073 ft | 427 kts | 283° |
| 2026-05-07 10:39 | 31.10402 | 40.55806 | 40061 ft | 427 kts | 283° |
| 2026-05-07 10:39 | 31.12551 | 40.49339 | 40077 ft | 427 kts | 283° |
| 2026-05-07 10:40 | 31.14681 | 40.42920 | 40083 ft | 426 kts | 283° |
| 2026-05-07 10:40 | 31.16825 | 40.36444 | 40080 ft | 426 kts | 283° |
| 2026-05-07 10:41 | 31.18960 | 40.29982 | 40084 ft | 426 kts | 283° |
| 2026-05-07 10:41 | 31.21081 | 40.23551 | 40083 ft | 426 kts | 283° |
| 2026-05-07 10:42 | 31.23211 | 40.17079 | 40083 ft | 426 kts | 283° |
| 2026-05-07 10:42 | 31.25341 | 40.10594 | 40085 ft | 427 kts | 283° |
| 2026-05-07 10:43 | 31.27465 | 40.04116 | 40083 ft | 427 kts | 283° |
| 2026-05-07 10:43 | 31.29577 | 39.97660 | 40062 ft | 428 kts | 283° |
| 2026-05-07 10:44 | 31.31700 | 39.91157 | 40080 ft | 428 kts | 283° |
| 2026-05-07 10:44 | 31.33827 | 39.84629 | 40077 ft | 429 kts | 283° |
| 2026-05-07 10:45 | 31.35955 | 39.78089 | 40078 ft | 430 kts | 283° |
| 2026-05-07 10:45 | 31.38081 | 39.71538 | 40077 ft | 431 kts | 283° |
| 2026-05-07 10:46 | 31.40208 | 39.64971 | 40078 ft | 431 kts | 283° |
| 2026-05-07 10:46 | 31.42331 | 39.58406 | 40057 ft | 431 kts | 283° |
| 2026-05-07 10:47 | 31.44456 | 39.51838 | 40077 ft | 432 kts | 283° |
| 2026-05-07 10:47 | 31.46595 | 39.45260 | 40079 ft | 432 kts | 283° |
| 2026-05-07 10:48 | 31.48734 | 39.38672 | 40075 ft | 432 kts | 283° |
| 2026-05-07 10:48 | 31.50853 | 39.32128 | 40077 ft | 432 kts | 283° |
| 2026-05-07 10:49 | 31.52983 | 39.25531 | 40073 ft | 432 kts | 283° |
| 2026-05-07 10:49 | 31.55108 | 39.18939 | 40077 ft | 432 kts | 283° |
| 2026-05-07 10:50 | 31.57231 | 39.12338 | 40076 ft | 432 kts | 283° |
| 2026-05-07 10:50 | 31.59349 | 39.05737 | 40075 ft | 432 kts | 283° |
| 2026-05-07 10:51 | 31.61466 | 38.99128 | 40058 ft | 432 kts | 283° |
| 2026-05-07 10:51 | 31.63576 | 38.92524 | 40080 ft | 432 kts | 283° |
| 2026-05-07 10:52 | 31.65675 | 38.85943 | 40075 ft | 433 kts | 283° |
| 2026-05-07 10:52 | 31.67782 | 38.79317 | 40075 ft | 432 kts | 282° |
| 2026-05-07 10:53 | 31.68522 | 38.75945 | 40074 ft | 422 kts | 271° |
| 2026-05-07 10:53 | 31.68768 | 38.72545 | 40084 ft | 416 kts | 265° |
| 2026-05-07 10:53 | 31.68221 | 38.65849 | 40084 ft | 408 kts | 253° |
| 2026-05-07 10:54 | 31.66955 | 38.59399 | 40083 ft | 409 kts | 253° |
| 2026-05-07 10:54 | 31.65667 | 38.52881 | 40079 ft | 410 kts | 253° |
| 2026-05-07 10:55 | 31.64397 | 38.46332 | 40080 ft | 412 kts | 253° |
| 2026-05-07 10:55 | 31.63134 | 38.39765 | 40071 ft | 413 kts | 253° |
| 2026-05-07 10:56 | 31.61867 | 38.33179 | 40075 ft | 414 kts | 253° |
| 2026-05-07 10:56 | 31.60595 | 38.26584 | 40078 ft | 414 kts | 253° |
| 2026-05-07 10:57 | 31.59325 | 38.20028 | 40077 ft | 415 kts | 253° |
| 2026-05-07 10:57 | 31.58043 | 38.13424 | 40078 ft | 415 kts | 253° |
| 2026-05-07 10:58 | 31.56759 | 38.06829 | 40075 ft | 415 kts | 253° |
| 2026-05-07 10:58 | 31.55472 | 38.00238 | 40057 ft | 414 kts | 253° |
| 2026-05-07 10:59 | 31.54183 | 37.93660 | 40062 ft | 414 kts | 253° |
| 2026-05-07 10:59 | 31.52891 | 37.87079 | 40071 ft | 414 kts | 253° |
| 2026-05-07 11:00 | 31.51601 | 37.80528 | 40058 ft | 414 kts | 253° |
| 2026-05-07 11:00 | 31.50299 | 37.73934 | 40063 ft | 414 kts | 254° |
| 2026-05-07 11:01 | 31.49498 | 37.67252 | 40055 ft | 419 kts | 262° |
| 2026-05-07 11:01 | 31.49460 | 37.60381 | 40064 ft | 421 kts | 265° |
| 2026-05-07 11:02 | 31.49473 | 37.53512 | 40060 ft | 422 kts | 265° |
| 2026-05-07 11:02 | 31.49470 | 37.46615 | 40056 ft | 422 kts | 265° |
| 2026-05-07 11:03 | 31.49455 | 37.39780 | 40057 ft | 422 kts | 264° |
| 2026-05-07 11:03 | 31.49435 | 37.32899 | 40051 ft | 423 kts | 265° |
| 2026-05-07 11:04 | 31.49412 | 37.25998 | 40046 ft | 423 kts | 265° |
| 2026-05-07 11:04 | 31.49385 | 37.19102 | 40046 ft | 424 kts | 265° |
| 2026-05-07 11:05 | 31.49356 | 37.12197 | 40040 ft | 424 kts | 265° |
| 2026-05-07 11:05 | 31.49395 | 37.05274 | 40027 ft | 427 kts | 269° |
| 2026-05-07 11:06 | 31.50326 | 36.98336 | 40034 ft | 434 kts | 277° |
| 2026-05-07 11:06 | 31.52102 | 36.91555 | 40031 ft | 439 kts | 283° |
| 2026-05-07 11:07 | 31.54135 | 36.84786 | 40029 ft | 440 kts | 283° |
| 2026-05-07 11:07 | 31.56113 | 36.78038 | 40034 ft | 440 kts | 282° |
| 2026-05-07 11:08 | 31.58070 | 36.71236 | 40038 ft | 440 kts | 282° |
| 2026-05-07 11:08 | 31.60003 | 36.64447 | 40053 ft | 440 kts | 282° |
| 2026-05-07 11:09 | 31.61968 | 36.57639 | 40051 ft | 441 kts | 283° |
| 2026-05-07 11:09 | 31.63975 | 36.50826 | 40063 ft | 441 kts | 283° |
| 2026-05-07 11:10 | 31.65935 | 36.44002 | 40078 ft | 441 kts | 282° |
| 2026-05-07 11:10 | 31.67854 | 36.37159 | 40084 ft | 441 kts | 283° |
| 2026-05-07 11:11 | 31.69828 | 36.30330 | 40090 ft | 442 kts | 283° |
| 2026-05-07 11:11 | 31.71800 | 36.23486 | 40093 ft | 442 kts | 283° |
| 2026-05-07 11:12 | 31.73687 | 36.16632 | 40100 ft | 439 kts | 279° |
| 2026-05-07 11:12 | 31.74712 | 36.09692 | 40113 ft | 432 kts | 272° |
| 2026-05-07 11:13 | 31.75426 | 36.02673 | 40113 ft | 433 kts | 272° |
| 2026-05-07 11:13 | 31.76160 | 35.95639 | 40100 ft | 434 kts | 272° |
| 2026-05-07 11:14 | 31.76905 | 35.88597 | 40103 ft | 434 kts | 272° |
| 2026-05-07 11:14 | 31.77651 | 35.81546 | 40110 ft | 434 kts | 272° |
| 2026-05-07 11:15 | 31.78386 | 35.74542 | 40110 ft | 434 kts | 272° |
| 2026-05-07 11:15 | 31.79125 | 35.67478 | 40098 ft | 435 kts | 272° |
| 2026-05-07 11:16 | 31.79810 | 35.61611 | 40105 ft | 437 kts | 276° |
| 2026-05-07 11:16 | 31.81479 | 35.54674 | 40101 ft | 444 kts | 285° |
| 2026-05-07 11:17 | 31.83466 | 35.47822 | 40091 ft | 442 kts | 283° |
| 2026-05-07 11:17 | 31.85483 | 35.40971 | 40090 ft | 443 kts | 284° |
| 2026-05-07 11:18 | 31.87516 | 35.34179 | 40089 ft | 443 kts | 284° |
| 2026-05-07 11:18 | 31.89586 | 35.27341 | 40078 ft | 443 kts | 284° |
| 2026-05-07 11:19 | 31.91639 | 35.20490 | 40071 ft | 444 kts | 284° |
| 2026-05-07 11:19 | 31.93671 | 35.13627 | 40054 ft | 444 kts | 284° |
| 2026-05-07 11:20 | 31.95671 | 35.06753 | 40053 ft | 444 kts | 284° |
| 2026-05-07 11:20 | 31.97654 | 34.99908 | 40054 ft | 444 kts | 284° |
| 2026-05-07 11:21 | 31.99678 | 34.93010 | 40052 ft | 445 kts | 285° |
| 2026-05-07 11:21 | 32.01258 | 34.85992 | 40048 ft | 440 kts | 276° |
| 2026-05-07 11:22 | 32.01822 | 34.78879 | 40060 ft | 437 kts | 271° |
| 2026-05-07 11:22 | 32.02169 | 34.71707 | 40042 ft | 438 kts | 271° |
| 2026-05-07 11:23 | 32.02553 | 34.64536 | 40043 ft | 438 kts | 271° |
| 2026-05-07 11:23 | 32.02983 | 34.57368 | 40050 ft | 439 kts | 272° |
| 2026-05-07 11:24 | 32.03426 | 34.50189 | 40059 ft | 439 kts | 272° |
| 2026-05-07 11:24 | 32.03819 | 34.43025 | 40060 ft | 440 kts | 272° |
| 2026-05-07 11:25 | 32.04207 | 34.35833 | 40063 ft | 440 kts | 272° |
| 2026-05-07 11:25 | 32.04608 | 34.28626 | 40073 ft | 441 kts | 274° |
| 2026-05-07 11:26 | 32.06051 | 34.21573 | 40081 ft | 445 kts | 288° |
| 2026-05-07 11:26 | 32.08826 | 34.15014 | 40089 ft | 450 kts | 298° |
| 2026-05-07 11:27 | 32.12115 | 34.08722 | 40079 ft | 451 kts | 298° |
| 2026-05-07 11:27 | 32.15352 | 34.02383 | 40076 ft | 451 kts | 297° |
| 2026-05-07 11:28 | 32.18348 | 33.95947 | 40080 ft | 449 kts | 293° |
| 2026-05-07 11:28 | 32.21081 | 33.89301 | 40080 ft | 449 kts | 293° |
| 2026-05-07 11:29 | 32.23802 | 33.82648 | 40084 ft | 449 kts | 293° |
| 2026-05-07 11:29 | 32.26534 | 33.75998 | 40082 ft | 450 kts | 293° |
| 2026-05-07 11:30 | 32.29255 | 33.69381 | 40075 ft | 450 kts | 293° |
| 2026-05-07 11:30 | 32.31985 | 33.62737 | 40083 ft | 449 kts | 293° |
| 2026-05-07 11:31 | 32.34712 | 33.56089 | 40088 ft | 449 kts | 293° |
| 2026-05-07 11:31 | 32.37431 | 33.49445 | 40098 ft | 448 kts | 293° |
| 2026-05-07 11:32 | 32.41495 | 33.39490 | 40110 ft | 447 kts | 293° |
| 2026-05-07 11:33 | 32.44179 | 33.32900 | 40111 ft | 447 kts | 293° |
| 2026-05-07 11:33 | 32.46881 | 33.26253 | 40110 ft | 447 kts | 293° |
| 2026-05-07 11:34 | 32.49577 | 33.19610 | 40115 ft | 446 kts | 293° |
| 2026-05-07 11:34 | 32.52249 | 33.13013 | 40119 ft | 446 kts | 293° |
| 2026-05-07 11:35 | 32.54933 | 33.06373 | 40120 ft | 446 kts | 293° |
| 2026-05-07 11:35 | 32.57611 | 32.99734 | 40113 ft | 446 kts | 293° |
| 2026-05-07 11:36 | 32.60285 | 32.93096 | 40111 ft | 446 kts | 293° |
| 2026-05-07 11:36 | 32.62953 | 32.86458 | 40119 ft | 446 kts | 293° |
| 2026-05-07 11:37 | 32.65600 | 32.79858 | 40127 ft | 445 kts | 294° |
| 2026-05-07 11:37 | 32.68259 | 32.73217 | 40128 ft | 445 kts | 294° |
| 2026-05-07 11:38 | 32.70915 | 32.66572 | 40131 ft | 445 kts | 294° |
| 2026-05-07 11:38 | 32.73569 | 32.59918 | 40132 ft | 445 kts | 294° |
| 2026-05-07 11:39 | 32.76219 | 32.53260 | 40127 ft | 445 kts | 293° |
| 2026-05-07 11:39 | 32.78847 | 32.46645 | 40133 ft | 445 kts | 294° |
| 2026-05-07 11:40 | 32.81492 | 32.39978 | 40130 ft | 445 kts | 293° |
| 2026-05-07 11:40 | 32.84136 | 32.33300 | 40130 ft | 445 kts | 294° |
| 2026-05-07 11:41 | 32.86753 | 32.26679 | 40127 ft | 445 kts | 293° |
| 2026-05-07 11:41 | 32.89382 | 32.20012 | 40125 ft | 445 kts | 293° |
| 2026-05-07 11:42 | 32.92008 | 32.13340 | 40126 ft | 445 kts | 293° |
| 2026-05-07 11:42 | 32.94633 | 32.06657 | 40133 ft | 445 kts | 293° |
| 2026-05-07 11:43 | 32.97250 | 31.99984 | 40139 ft | 444 kts | 293° |
| 2026-05-07 11:43 | 32.99846 | 31.93347 | 40140 ft | 444 kts | 294° |
| 2026-05-07 11:44 | 33.02452 | 31.86674 | 40138 ft | 444 kts | 294° |
| 2026-05-07 11:44 | 33.05056 | 31.79994 | 40140 ft | 444 kts | 294° |
| 2026-05-07 11:45 | 33.07655 | 31.73312 | 40137 ft | 444 kts | 294° |
| 2026-05-07 11:45 | 33.10249 | 31.66632 | 40131 ft | 443 kts | 294° |
| 2026-05-07 11:46 | 33.12839 | 31.59947 | 40128 ft | 443 kts | 294° |
| 2026-05-07 11:46 | 33.15407 | 31.53308 | 40129 ft | 443 kts | 294° |
| 2026-05-07 11:47 | 33.17990 | 31.46615 | 40130 ft | 442 kts | 294° |
| 2026-05-07 11:47 | 33.20560 | 31.39944 | 40128 ft | 442 kts | 294° |
| 2026-05-07 11:48 | 33.23109 | 31.33313 | 40130 ft | 442 kts | 294° |
| 2026-05-07 11:48 | 33.25672 | 31.26634 | 40128 ft | 442 kts | 294° |
| 2026-05-07 11:49 | 33.28230 | 31.19953 | 40130 ft | 442 kts | 294° |
| 2026-05-07 11:49 | 33.30783 | 31.13271 | 40127 ft | 441 kts | 294° |
| 2026-05-07 11:50 | 33.33333 | 31.06586 | 40130 ft | 441 kts | 294° |
| 2026-05-07 11:50 | 33.35863 | 30.99940 | 40130 ft | 441 kts | 294° |
| 2026-05-07 11:51 | 33.38401 | 30.93257 | 40130 ft | 441 kts | 294° |
| 2026-05-07 11:51 | 33.40941 | 30.86559 | 40128 ft | 441 kts | 294° |
| 2026-05-07 11:52 | 33.43475 | 30.79862 | 40134 ft | 441 kts | 294° |
| 2026-05-07 11:52 | 33.46002 | 30.73170 | 40128 ft | 441 kts | 294° |
| 2026-05-07 11:53 | 33.48527 | 30.66470 | 40130 ft | 440 kts | 294° |
| 2026-05-07 11:53 | 33.51030 | 30.59815 | 40129 ft | 440 kts | 294° |
| 2026-05-07 11:54 | 33.53540 | 30.53128 | 40131 ft | 440 kts | 294° |
| 2026-05-07 11:54 | 33.56045 | 30.46440 | 40129 ft | 439 kts | 294° |
| 2026-05-07 11:55 | 33.58544 | 30.39756 | 40124 ft | 439 kts | 294° |
| 2026-05-07 11:55 | 33.61034 | 30.33081 | 40131 ft | 438 kts | 294° |
| 2026-05-07 11:56 | 33.63504 | 30.26447 | 40127 ft | 438 kts | 294° |
| 2026-05-07 11:56 | 33.65983 | 30.19775 | 40128 ft | 437 kts | 294° |
| 2026-05-07 11:57 | 33.68460 | 30.13096 | 40129 ft | 437 kts | 294° |
| 2026-05-07 11:57 | 33.70926 | 30.06432 | 40131 ft | 436 kts | 294° |
| 2026-05-07 11:58 | 33.73372 | 29.99810 | 40128 ft | 436 kts | 294° |
| 2026-05-07 11:58 | 33.75839 | 29.93158 | 40130 ft | 436 kts | 294° |
| 2026-05-07 11:59 | 33.78311 | 29.86502 | 40128 ft | 435 kts | 294° |
| 2026-05-07 11:59 | 33.80776 | 29.79847 | 40137 ft | 435 kts | 294° |
| 2026-05-07 12:00 | 33.83219 | 29.73233 | 40139 ft | 435 kts | 294° |
| 2026-05-07 12:00 | 33.85672 | 29.66579 | 40138 ft | 435 kts | 294° |
| 2026-05-07 12:01 | 33.88125 | 29.59908 | 40142 ft | 435 kts | 294° |
| 2026-05-07 12:01 | 33.90577 | 29.53229 | 40148 ft | 435 kts | 294° |
| 2026-05-07 12:02 | 33.93022 | 29.46554 | 40150 ft | 435 kts | 294° |
| 2026-05-07 12:02 | 33.95463 | 29.39878 | 40147 ft | 435 kts | 295° |
| 2026-05-07 12:03 | 33.97899 | 29.33199 | 40149 ft | 435 kts | 295° |
| 2026-05-07 12:03 | 34.00320 | 29.26548 | 40148 ft | 435 kts | 295° |
| 2026-05-07 12:04 | 34.02745 | 29.19876 | 40147 ft | 434 kts | 295° |
| 2026-05-07 12:04 | 34.05160 | 29.13213 | 40149 ft | 433 kts | 295° |
| 2026-05-07 12:05 | 34.07160 | 29.07687 | 40147 ft | 432 kts | 295° |
| 2026-05-07 12:05 | 34.09949 | 28.99965 | 40150 ft | 430 kts | 295° |
| 2026-05-07 12:06 | 34.11927 | 28.94473 | 40137 ft | 419 kts | 296° |
| 2026-05-07 12:06 | 34.14213 | 28.88116 | 40133 ft | 413 kts | 296° |
| 2026-05-07 12:07 | 34.16493 | 28.81769 | 40143 ft | 411 kts | 296° |
| 2026-05-07 12:07 | 34.18766 | 28.75428 | 40152 ft | 410 kts | 296° |
| 2026-05-07 12:08 | 34.21016 | 28.69137 | 40160 ft | 410 kts | 296° |
| 2026-05-07 12:08 | 34.23276 | 28.62807 | 40158 ft | 410 kts | 296° |
| 2026-05-07 12:09 | 34.25534 | 28.56469 | 40159 ft | 410 kts | 296° |
| 2026-05-07 12:09 | 34.27788 | 28.50129 | 40156 ft | 410 kts | 296° |
| 2026-05-07 12:10 | 34.30035 | 28.43794 | 40157 ft | 410 kts | 296° |
| 2026-05-07 12:10 | 34.32266 | 28.37493 | 40157 ft | 410 kts | 296° |
| 2026-05-07 12:11 | 34.34505 | 28.31160 | 40156 ft | 409 kts | 296° |
| 2026-05-07 12:11 | 34.36741 | 28.24819 | 40158 ft | 409 kts | 296° |
| 2026-05-07 12:12 | 34.38969 | 28.18489 | 40156 ft | 408 kts | 296° |
| 2026-05-07 12:12 | 34.41189 | 28.12168 | 40156 ft | 407 kts | 296° |
| 2026-05-07 12:13 | 34.43389 | 28.05893 | 40157 ft | 407 kts | 296° |
| 2026-05-07 12:13 | 34.45597 | 27.99582 | 40157 ft | 407 kts | 296° |
| 2026-05-07 12:14 | 34.47804 | 27.93264 | 40164 ft | 406 kts | 296° |
| 2026-05-07 12:14 | 34.49999 | 27.86964 | 40155 ft | 405 kts | 296° |
| 2026-05-07 12:15 | 34.52178 | 27.80700 | 40156 ft | 404 kts | 296° |
| 2026-05-07 12:15 | 34.54360 | 27.74413 | 40157 ft | 404 kts | 295° |
| 2026-05-07 12:16 | 34.56532 | 27.68125 | 40156 ft | 403 kts | 295° |
| 2026-05-07 12:16 | 34.58696 | 27.61846 | 40157 ft | 403 kts | 295° |
| 2026-05-07 12:17 | 34.60841 | 27.55611 | 40157 ft | 402 kts | 295° |
| 2026-05-07 12:17 | 34.62996 | 27.49332 | 40158 ft | 402 kts | 295° |
| 2026-05-07 12:18 | 34.65146 | 27.43058 | 40157 ft | 402 kts | 295° |
| 2026-05-07 12:18 | 34.67290 | 27.36790 | 40156 ft | 402 kts | 295° |
| 2026-05-07 12:19 | 34.69430 | 27.30519 | 40159 ft | 401 kts | 295° |
| 2026-05-07 12:19 | 34.71552 | 27.24287 | 40156 ft | 401 kts | 295° |
| 2026-05-07 12:20 | 34.73683 | 27.18018 | 40158 ft | 401 kts | 295° |
| 2026-05-07 12:20 | 34.75812 | 27.11742 | 40156 ft | 401 kts | 295° |
| 2026-05-07 12:21 | 34.77936 | 27.05468 | 40157 ft | 400 kts | 295° |
| 2026-05-07 12:21 | 34.80055 | 26.99194 | 40157 ft | 400 kts | 295° |
| 2026-05-07 12:22 | 34.82155 | 26.92967 | 40159 ft | 400 kts | 295° |
| 2026-05-07 12:22 | 34.84260 | 26.86710 | 40156 ft | 399 kts | 295° |
| 2026-05-07 12:23 | 34.86364 | 26.80445 | 40157 ft | 399 kts | 295° |
| 2026-05-07 12:23 | 34.88456 | 26.74200 | 40156 ft | 398 kts | 295° |
| 2026-05-07 12:24 | 34.90545 | 26.67955 | 40157 ft | 397 kts | 295° |
| 2026-05-07 12:24 | 34.92614 | 26.61753 | 40159 ft | 397 kts | 295° |
| 2026-05-07 12:25 | 34.94691 | 26.55517 | 40156 ft | 396 kts | 294° |
| 2026-05-07 12:25 | 34.96762 | 26.49287 | 40157 ft | 396 kts | 294° |
| 2026-05-07 12:26 | 34.98829 | 26.43056 | 40156 ft | 395 kts | 294° |
| 2026-05-07 12:26 | 35.00885 | 26.36845 | 40157 ft | 395 kts | 294° |
| 2026-05-07 12:27 | 35.02925 | 26.30669 | 40157 ft | 395 kts | 294° |
| 2026-05-07 12:27 | 35.04976 | 26.24448 | 40157 ft | 395 kts | 294° |
| 2026-05-07 12:28 | 35.07028 | 26.18218 | 40163 ft | 395 kts | 295° |
| 2026-05-07 12:28 | 35.09225 | 26.12059 | 40158 ft | 395 kts | 296° |
| 2026-05-07 12:29 | 35.11486 | 26.05934 | 40157 ft | 396 kts | 296° |
| 2026-05-07 12:29 | 35.13735 | 25.99799 | 40155 ft | 396 kts | 296° |
| 2026-05-07 12:30 | 35.15968 | 25.93656 | 40162 ft | 395 kts | 296° |
| 2026-05-07 12:30 | 35.18191 | 25.87507 | 40153 ft | 394 kts | 295° |
| 2026-05-07 12:31 | 35.20397 | 25.81390 | 40155 ft | 392 kts | 295° |
| 2026-05-07 12:31 | 35.22589 | 25.75296 | 40156 ft | 391 kts | 295° |
| 2026-05-07 12:32 | 35.24759 | 25.69254 | 40152 ft | 390 kts | 295° |
| 2026-05-07 12:32 | 35.26936 | 25.63181 | 40155 ft | 389 kts | 295° |
| 2026-05-07 12:33 | 35.30193 | 25.54079 | 40155 ft | 390 kts | 295° |
| 2026-05-07 12:33 | 35.32369 | 25.47981 | 40153 ft | 390 kts | 295° |
| 2026-05-07 12:34 | 35.34538 | 25.41887 | 40158 ft | 390 kts | 295° |
| 2026-05-07 12:34 | 35.36706 | 25.35783 | 40164 ft | 392 kts | 295° |
| 2026-05-07 12:35 | 35.38879 | 25.29598 | 40153 ft | 397 kts | 295° |
| 2026-05-07 12:35 | 35.41030 | 25.23502 | 40158 ft | 384 kts | 295° |
| 2026-05-07 12:36 | 35.43176 | 25.17459 | 40147 ft | 388 kts | 295° |
| 2026-05-07 12:36 | 35.45329 | 25.11360 | 40158 ft | 393 kts | 295° |
| 2026-05-07 12:37 | 35.47507 | 25.05194 | 40169 ft | 398 kts | 295° |
| 2026-05-07 12:37 | 35.49671 | 24.99106 | 40145 ft | 385 kts | 296° |
| 2026-05-07 12:38 | 35.51811 | 24.93083 | 40162 ft | 384 kts | 295° |
| 2026-05-07 12:38 | 35.53913 | 24.87015 | 40157 ft | 387 kts | 294° |
| 2026-05-07 12:39 | 35.55990 | 24.80972 | 40153 ft | 390 kts | 295° |
| 2026-05-07 12:39 | 35.58098 | 24.74898 | 40152 ft | 387 kts | 295° |
| 2026-05-07 12:40 | 35.60242 | 24.68823 | 40139 ft | 388 kts | 296° |
| 2026-05-07 12:40 | 35.62410 | 24.62678 | 40137 ft | 392 kts | 294° |
| 2026-05-07 12:41 | 35.64514 | 24.56493 | 40144 ft | 390 kts | 294° |
| 2026-05-07 12:41 | 35.66612 | 24.50368 | 40138 ft | 387 kts | 294° |
| 2026-05-07 12:42 | 35.68686 | 24.44310 | 40136 ft | 383 kts | 294° |
| 2026-05-07 12:42 | 35.70760 | 24.38297 | 40126 ft | 379 kts | 294° |
| 2026-05-07 12:43 | 35.72832 | 24.32319 | 40133 ft | 381 kts | 294° |
| 2026-05-07 12:43 | 35.74878 | 24.26362 | 40129 ft | 379 kts | 294° |
| 2026-05-07 12:44 | 35.76910 | 24.20376 | 40136 ft | 378 kts | 294° |
| 2026-05-07 12:44 | 35.78974 | 24.14398 | 40145 ft | 381 kts | 294° |
| 2026-05-07 12:45 | 35.81039 | 24.08353 | 40124 ft | 385 kts | 294° |
| 2026-05-07 12:45 | 35.83114 | 24.02240 | 40136 ft | 387 kts | 294° |
| 2026-05-07 12:46 | 35.85200 | 23.96095 | 40133 ft | 389 kts | 294° |
| 2026-05-07 12:46 | 35.87288 | 23.89934 | 40129 ft | 389 kts | 294° |
| 2026-05-07 12:47 | 35.89363 | 23.83800 | 40126 ft | 389 kts | 294° |
| 2026-05-07 12:47 | 35.91439 | 23.77652 | 40127 ft | 387 kts | 294° |
| 2026-05-07 12:48 | 35.93498 | 23.71537 | 40129 ft | 385 kts | 294° |
| 2026-05-07 12:48 | 35.95539 | 23.65467 | 40127 ft | 383 kts | 294° |
| 2026-05-07 12:49 | 35.97579 | 23.59387 | 40133 ft | 382 kts | 294° |
| 2026-05-07 12:49 | 35.99610 | 23.53325 | 40133 ft | 381 kts | 294° |
| 2026-05-07 12:50 | 36.01633 | 23.47271 | 40126 ft | 381 kts | 293° |
| 2026-05-07 12:50 | 36.03642 | 23.41247 | 40128 ft | 381 kts | 293° |
| 2026-05-07 12:51 | 36.05661 | 23.35181 | 40133 ft | 382 kts | 293° |
| 2026-05-07 12:51 | 36.07684 | 23.29093 | 40130 ft | 383 kts | 293° |
| 2026-05-07 12:52 | 36.09703 | 23.23000 | 40130 ft | 384 kts | 293° |
| 2026-05-07 12:52 | 36.11727 | 23.16882 | 40130 ft | 384 kts | 293° |
| 2026-05-07 12:53 | 36.13407 | 23.11794 | 40130 ft | 384 kts | 293° |
| 2026-05-07 12:53 | 36.15754 | 23.04671 | 40129 ft | 384 kts | 293° |
| 2026-05-07 12:54 | 36.17770 | 22.98542 | 40130 ft | 384 kts | 292° |
| 2026-05-07 12:54 | 36.19438 | 22.93457 | 40130 ft | 384 kts | 292° |
| 2026-05-07 12:55 | 36.21444 | 22.87332 | 40124 ft | 384 kts | 292° |
| 2026-05-07 12:55 | 36.23447 | 22.81203 | 40289 ft | 385 kts | 292° |
| 2026-05-07 12:56 | 36.24451 | 22.78128 | 40529 ft | 385 kts | 292° |
| 2026-05-07 12:56 | 36.25456 | 22.75044 | 40720 ft | 387 kts | 292° |
| 2026-05-07 12:56 | 36.26465 | 22.71946 | 40897 ft | 388 kts | 292° |
| 2026-05-07 12:56 | 36.27478 | 22.68835 | 41010 ft | 390 kts | 292° |
| 2026-05-07 12:57 | 36.29521 | 22.62545 | 41118 ft | 394 kts | 292° |
| 2026-05-07 12:57 | 36.31556 | 22.56264 | 41130 ft | 394 kts | 292° |
| 2026-05-07 12:58 | 36.33602 | 22.49938 | 41130 ft | 394 kts | 292° |
| 2026-05-07 12:58 | 36.35629 | 22.43657 | 41131 ft | 394 kts | 292° |
| 2026-05-07 12:59 | 36.37662 | 22.37344 | 41127 ft | 393 kts | 292° |
| 2026-05-07 12:59 | 36.39688 | 22.31041 | 41129 ft | 392 kts | 292° |
| 2026-05-07 13:00 | 36.41696 | 22.24777 | 41129 ft | 392 kts | 292° |
| 2026-05-07 13:00 | 36.43711 | 22.18479 | 41129 ft | 391 kts | 292° |
| 2026-05-07 13:01 | 36.45718 | 22.12194 | 41129 ft | 390 kts | 292° |
| 2026-05-07 13:01 | 36.47699 | 22.05973 | 41110 ft | 387 kts | 292° |
| 2026-05-07 13:02 | 36.49670 | 21.99774 | 41145 ft | 387 kts | 292° |
| 2026-05-07 13:02 | 36.51654 | 21.93538 | 41130 ft | 385 kts | 292° |
| 2026-05-07 13:03 | 36.53613 | 21.87401 | 41142 ft | 381 kts | 292° |
| 2026-05-07 13:03 | 36.55575 | 21.81174 | 41109 ft | 385 kts | 292° |
| 2026-05-07 13:04 | 36.57537 | 21.74881 | 41145 ft | 393 kts | 292° |
| 2026-05-07 13:04 | 36.59514 | 21.68546 | 41130 ft | 398 kts | 292° |
| 2026-05-07 13:05 | 36.61535 | 21.62143 | 41113 ft | 393 kts | 292° |
| 2026-05-07 13:05 | 36.63509 | 21.55863 | 41127 ft | 387 kts | 291° |
| 2026-05-07 13:06 | 36.65448 | 21.49662 | 41117 ft | 386 kts | 291° |
| 2026-05-07 13:06 | 36.67394 | 21.43419 | 41113 ft | 385 kts | 291° |
| 2026-05-07 13:07 | 36.69332 | 21.37187 | 41127 ft | 386 kts | 291° |
| 2026-05-07 13:07 | 36.71263 | 21.30965 | 41128 ft | 388 kts | 291° |
| 2026-05-07 13:08 | 36.73212 | 21.24674 | 41126 ft | 389 kts | 291° |
| 2026-05-07 13:08 | 36.75164 | 21.18355 | 41126 ft | 390 kts | 291° |
| 2026-05-07 13:09 | 36.77105 | 21.12061 | 41126 ft | 391 kts | 291° |
| 2026-05-07 13:09 | 36.79059 | 21.05710 | 41125 ft | 392 kts | 291° |
| 2026-05-07 13:10 | 36.81000 | 20.99388 | 41116 ft | 392 kts | 291° |
| 2026-05-07 13:10 | 36.82950 | 20.93022 | 41118 ft | 392 kts | 291° |
| 2026-05-07 13:11 | 36.84896 | 20.86653 | 41110 ft | 392 kts | 291° |
| 2026-05-07 13:11 | 36.86830 | 20.80309 | 41099 ft | 392 kts | 291° |
| 2026-05-07 13:12 | 36.88766 | 20.73945 | 41104 ft | 391 kts | 291° |
| 2026-05-07 13:12 | 36.90697 | 20.67586 | 41106 ft | 391 kts | 291° |
| 2026-05-07 13:13 | 36.92611 | 20.61264 | 41102 ft | 390 kts | 291° |
| 2026-05-07 13:13 | 36.94531 | 20.54911 | 41101 ft | 389 kts | 291° |
| 2026-05-07 13:14 | 36.96430 | 20.48613 | 41098 ft | 389 kts | 291° |
| 2026-05-07 13:14 | 36.98331 | 20.42292 | 41091 ft | 389 kts | 291° |
| 2026-05-07 13:15 | 37.00219 | 20.35963 | 41091 ft | 387 kts | 290° |
| 2026-05-07 13:15 | 37.02122 | 20.29607 | 41111 ft | 391 kts | 290° |
| 2026-05-07 13:16 | 37.04026 | 20.23215 | 41101 ft | 390 kts | 291° |
| 2026-05-07 13:16 | 37.05911 | 20.16877 | 41092 ft | 387 kts | 291° |
| 2026-05-07 13:17 | 37.07783 | 20.10638 | 41089 ft | 383 kts | 290° |
| 2026-05-07 13:17 | 37.09649 | 20.04383 | 41094 ft | 385 kts | 290° |
| 2026-05-07 13:18 | 37.11520 | 19.98061 | 41104 ft | 385 kts | 290° |
| 2026-05-07 13:18 | 37.13355 | 19.91822 | 41090 ft | 382 kts | 290° |
| 2026-05-07 13:19 | 37.15202 | 19.85594 | 41088 ft | 381 kts | 290° |
| 2026-05-07 13:19 | 37.17034 | 19.79348 | 41090 ft | 381 kts | 290° |
| 2026-05-07 13:20 | 37.18886 | 19.73129 | 41108 ft | 386 kts | 290° |
| 2026-05-07 13:20 | 37.20741 | 19.66757 | 41104 ft | 388 kts | 290° |
| 2026-05-07 13:21 | 37.22585 | 19.60427 | 41097 ft | 385 kts | 290° |
| 2026-05-07 13:21 | 37.24410 | 19.54111 | 41097 ft | 386 kts | 290° |
| 2026-05-07 13:22 | 37.26234 | 19.47826 | 41081 ft | 383 kts | 290° |
| 2026-05-07 13:22 | 37.28075 | 19.41496 | 41096 ft | 384 kts | 289° |
| 2026-05-07 13:23 | 37.29910 | 19.35210 | 41089 ft | 386 kts | 289° |
| 2026-05-07 13:23 | 37.31741 | 19.28841 | 41092 ft | 390 kts | 289° |
| 2026-05-07 13:24 | 37.33569 | 19.22417 | 41098 ft | 391 kts | 289° |
| 2026-05-07 13:24 | 37.35441 | 19.16044 | 41083 ft | 388 kts | 289° |
| 2026-05-07 13:25 | 37.37252 | 19.09654 | 41081 ft | 388 kts | 289° |
| 2026-05-07 13:25 | 37.39070 | 19.03256 | 41087 ft | 389 kts | 289° |
| 2026-05-07 13:26 | 37.40945 | 18.96889 | 41081 ft | 390 kts | 291° |
| 2026-05-07 13:26 | 37.43034 | 18.90575 | 41078 ft | 391 kts | 292° |
| 2026-05-07 13:27 | 37.45152 | 18.84253 | 41075 ft | 391 kts | 291° |
| 2026-05-07 13:27 | 37.47226 | 18.77983 | 41075 ft | 390 kts | 291° |
| 2026-05-07 13:28 | 37.49293 | 18.71679 | 41072 ft | 388 kts | 291° |
| 2026-05-07 13:28 | 37.51347 | 18.65380 | 41071 ft | 387 kts | 291° |
| 2026-05-07 13:29 | 37.53374 | 18.59152 | 41075 ft | 386 kts | 291° |
| 2026-05-07 13:29 | 37.55407 | 18.52887 | 41064 ft | 385 kts | 290° |
| 2026-05-07 13:30 | 37.57432 | 18.46637 | 41064 ft | 384 kts | 290° |
| 2026-05-07 13:30 | 37.59450 | 18.40393 | 41064 ft | 384 kts | 290° |
| 2026-05-07 13:31 | 37.61465 | 18.34148 | 41064 ft | 383 kts | 290° |
| 2026-05-07 13:31 | 37.63459 | 18.27953 | 41064 ft | 383 kts | 290° |
| 2026-05-07 13:32 | 37.65462 | 18.21714 | 41059 ft | 383 kts | 290° |
| 2026-05-07 13:32 | 37.67464 | 18.15467 | 41056 ft | 383 kts | 290° |
| 2026-05-07 13:33 | 37.69452 | 18.09250 | 41056 ft | 383 kts | 290° |
| 2026-05-07 13:33 | 37.71446 | 18.03001 | 41056 ft | 383 kts | 290° |
| 2026-05-07 13:34 | 37.74415 | 17.93668 | 41051 ft | 383 kts | 290° |
| 2026-05-07 13:35 | 37.76403 | 17.87403 | 41045 ft | 384 kts | 290° |
| 2026-05-07 13:35 | 37.78389 | 17.81132 | 41038 ft | 384 kts | 290° |
| 2026-05-07 13:36 | 37.80361 | 17.74891 | 41040 ft | 384 kts | 290° |
| 2026-05-07 13:36 | 37.82345 | 17.68597 | 41039 ft | 384 kts | 290° |
| 2026-05-07 13:37 | 37.84310 | 17.62349 | 41041 ft | 384 kts | 290° |
| 2026-05-07 13:37 | 37.86286 | 17.56051 | 41035 ft | 384 kts | 290° |
| 2026-05-07 13:38 | 37.88257 | 17.49757 | 41037 ft | 384 kts | 290° |
| 2026-05-07 13:38 | 37.90225 | 17.43458 | 41037 ft | 385 kts | 289° |
| 2026-05-07 13:39 | 37.92180 | 17.37184 | 41035 ft | 385 kts | 289° |
| 2026-05-07 13:39 | 37.94147 | 17.30863 | 41040 ft | 386 kts | 289° |
| 2026-05-07 13:40 | 37.96114 | 17.24524 | 41025 ft | 386 kts | 289° |
| 2026-05-07 13:40 | 37.98079 | 17.18175 | 41024 ft | 387 kts | 289° |
| 2026-05-07 13:41 | 38.00030 | 17.11862 | 41030 ft | 387 kts | 289° |
| 2026-05-07 13:41 | 38.01998 | 17.05476 | 41030 ft | 387 kts | 289° |
| 2026-05-07 13:42 | 38.03626 | 17.00181 | 41025 ft | 387 kts | 289° |
| 2026-05-07 13:42 | 38.05585 | 16.93799 | 41019 ft | 387 kts | 289° |
| 2026-05-07 13:43 | 38.07529 | 16.87450 | 41004 ft | 387 kts | 289° |
| 2026-05-07 13:43 | 38.09471 | 16.81096 | 41001 ft | 387 kts | 288° |
| 2026-05-07 13:44 | 38.11231 | 16.74653 | 40990 ft | 385 kts | 285° |
| 2026-05-07 13:44 | 38.12818 | 16.68174 | 40981 ft | 385 kts | 285° |
| 2026-05-07 13:45 | 38.14403 | 16.61660 | 40973 ft | 385 kts | 285° |
| 2026-05-07 13:45 | 38.15991 | 16.55146 | 40973 ft | 385 kts | 285° |
| 2026-05-07 13:46 | 38.17578 | 16.48640 | 40969 ft | 385 kts | 285° |
| 2026-05-07 13:46 | 38.19152 | 16.42173 | 40961 ft | 385 kts | 285° |
| 2026-05-07 13:47 | 38.20734 | 16.35661 | 40963 ft | 385 kts | 284° |
| 2026-05-07 13:47 | 38.22313 | 16.29139 | 40955 ft | 386 kts | 284° |
| 2026-05-07 13:48 | 38.23893 | 16.22601 | 40957 ft | 386 kts | 284° |
| 2026-05-07 13:48 | 38.25466 | 16.16070 | 40950 ft | 386 kts | 284° |
| 2026-05-07 13:49 | 38.27026 | 16.09576 | 40941 ft | 386 kts | 284° |
| 2026-05-07 13:49 | 38.28593 | 16.03039 | 40939 ft | 386 kts | 284° |
| 2026-05-07 13:50 | 38.30153 | 15.96506 | 40931 ft | 387 kts | 284° |
| 2026-05-07 13:50 | 38.31717 | 15.89945 | 40924 ft | 387 kts | 284° |
| 2026-05-07 13:51 | 38.33279 | 15.83368 | 40927 ft | 387 kts | 284° |
| 2026-05-07 13:51 | 38.34828 | 15.76832 | 40928 ft | 387 kts | 284° |
| 2026-05-07 13:52 | 38.36382 | 15.70253 | 40925 ft | 387 kts | 284° |
| 2026-05-07 13:52 | 38.37922 | 15.63720 | 40927 ft | 387 kts | 284° |
| 2026-05-07 13:53 | 38.39464 | 15.57156 | 40926 ft | 386 kts | 284° |
| 2026-05-07 13:53 | 38.41002 | 15.50591 | 40925 ft | 386 kts | 284° |
| 2026-05-07 13:54 | 38.42537 | 15.44023 | 40926 ft | 385 kts | 284° |
| 2026-05-07 13:54 | 38.44065 | 15.37466 | 40925 ft | 385 kts | 284° |
| 2026-05-07 13:55 | 38.45578 | 15.30953 | 40928 ft | 385 kts | 284° |
| 2026-05-07 13:55 | 38.47097 | 15.24396 | 40925 ft | 385 kts | 284° |
| 2026-05-07 13:56 | 38.48613 | 15.17836 | 40926 ft | 384 kts | 284° |
| 2026-05-07 13:56 | 38.50114 | 15.11320 | 40928 ft | 384 kts | 283° |
| 2026-05-07 13:57 | 38.51622 | 15.04755 | 40935 ft | 384 kts | 283° |
| 2026-05-07 13:57 | 38.53125 | 14.98194 | 40935 ft | 384 kts | 283° |
| 2026-05-07 13:58 | 38.54614 | 14.91679 | 40936 ft | 384 kts | 283° |
| 2026-05-07 13:58 | 38.56111 | 14.85103 | 40921 ft | 385 kts | 283° |
| 2026-05-07 13:59 | 38.57605 | 14.78525 | 40935 ft | 385 kts | 283° |
| 2026-05-07 13:59 | 38.59089 | 14.71975 | 40929 ft | 385 kts | 283° |
| 2026-05-07 14:00 | 38.60577 | 14.65385 | 40924 ft | 385 kts | 283° |
| 2026-05-07 14:00 | 38.62062 | 14.58791 | 40927 ft | 385 kts | 283° |
| 2026-05-07 14:01 | 38.63535 | 14.52227 | 40926 ft | 385 kts | 283° |
| 2026-05-07 14:01 | 38.65014 | 14.45623 | 40926 ft | 385 kts | 283° |
| 2026-05-07 14:02 | 38.66481 | 14.39050 | 40926 ft | 385 kts | 283° |
| 2026-05-07 14:02 | 38.67941 | 14.32488 | 40926 ft | 385 kts | 283° |
| 2026-05-07 14:03 | 38.69408 | 14.25880 | 40926 ft | 385 kts | 283° |
| 2026-05-07 14:03 | 38.70869 | 14.19274 | 40926 ft | 385 kts | 282° |
| 2026-05-07 14:04 | 38.72318 | 14.12704 | 40920 ft | 385 kts | 282° |
| 2026-05-07 14:04 | 38.73774 | 14.06084 | 40916 ft | 385 kts | 282° |
| 2026-05-07 14:05 | 38.75214 | 13.99517 | 40916 ft | 385 kts | 282° |
| 2026-05-07 14:05 | 38.76663 | 13.92894 | 40916 ft | 385 kts | 282° |
| 2026-05-07 14:06 | 38.78100 | 13.86302 | 40906 ft | 385 kts | 282° |
| 2026-05-07 14:06 | 38.79542 | 13.79666 | 40899 ft | 385 kts | 282° |
| 2026-05-07 14:07 | 38.80970 | 13.73073 | 40886 ft | 385 kts | 282° |
| 2026-05-07 14:07 | 38.82395 | 13.66476 | 40888 ft | 385 kts | 282° |
| 2026-05-07 14:08 | 38.83828 | 13.59830 | 40879 ft | 385 kts | 282° |
| 2026-05-07 14:08 | 38.85250 | 13.53193 | 40879 ft | 385 kts | 281° |
| 2026-05-07 14:09 | 38.86558 | 13.46540 | 40877 ft | 384 kts | 280° |
| 2026-05-07 14:09 | 38.87813 | 13.39911 | 40879 ft | 384 kts | 280° |
| 2026-05-07 14:10 | 38.89081 | 13.33227 | 40879 ft | 384 kts | 280° |
| 2026-05-07 14:10 | 38.90343 | 13.26593 | 40878 ft | 384 kts | 280° |
| 2026-05-07 14:11 | 38.91613 | 13.19916 | 40882 ft | 384 kts | 280° |
| 2026-05-07 14:11 | 38.92879 | 13.13237 | 40876 ft | 385 kts | 280° |
| 2026-05-07 14:12 | 38.94145 | 13.06543 | 40874 ft | 385 kts | 279° |
| 2026-05-07 14:12 | 38.95397 | 12.99895 | 40878 ft | 385 kts | 279° |
| 2026-05-07 14:13 | 38.96655 | 12.93195 | 40876 ft | 385 kts | 279° |
| 2026-05-07 14:13 | 38.97909 | 12.86497 | 40885 ft | 385 kts | 279° |
| 2026-05-07 14:14 | 38.99154 | 12.79819 | 40875 ft | 385 kts | 279° |
| 2026-05-07 14:14 | 39.00402 | 12.73108 | 40886 ft | 385 kts | 279° |
| 2026-05-07 14:15 | 39.01645 | 12.66392 | 40879 ft | 385 kts | 279° |
| 2026-05-07 14:15 | 39.02875 | 12.59731 | 40878 ft | 385 kts | 279° |
| 2026-05-07 14:16 | 39.04109 | 12.53021 | 40876 ft | 385 kts | 279° |
| 2026-05-07 14:16 | 39.05338 | 12.46317 | 40880 ft | 384 kts | 279° |
| 2026-05-07 14:17 | 39.06566 | 12.39596 | 40887 ft | 384 kts | 279° |
| 2026-05-07 14:17 | 39.07785 | 12.32897 | 40880 ft | 384 kts | 278° |
| 2026-05-07 14:18 | 39.08995 | 12.26230 | 40887 ft | 384 kts | 278° |
| 2026-05-07 14:18 | 39.10198 | 12.19570 | 40896 ft | 383 kts | 278° |
| 2026-05-07 14:19 | 39.11405 | 12.12871 | 40906 ft | 383 kts | 278° |
| 2026-05-07 14:19 | 39.12609 | 12.06164 | 40907 ft | 383 kts | 278° |
| 2026-05-07 14:20 | 39.13800 | 11.99507 | 40908 ft | 383 kts | 278° |
| 2026-05-07 14:20 | 39.14995 | 11.92802 | 40907 ft | 384 kts | 278° |
| 2026-05-07 14:21 | 39.16187 | 11.86089 | 40907 ft | 384 kts | 278° |
| 2026-05-07 14:21 | 39.17368 | 11.79414 | 40907 ft | 384 kts | 278° |
| 2026-05-07 14:22 | 39.18552 | 11.72701 | 40917 ft | 384 kts | 278° |
| 2026-05-07 14:22 | 39.19732 | 11.65984 | 40915 ft | 384 kts | 278° |
| 2026-05-07 14:23 | 39.20910 | 11.59255 | 40917 ft | 384 kts | 278° |
| 2026-05-07 14:23 | 39.22079 | 11.52552 | 40918 ft | 384 kts | 277° |
| 2026-05-07 14:24 | 39.23249 | 11.45821 | 40916 ft | 385 kts | 277° |
| 2026-05-07 14:24 | 39.24413 | 11.39102 | 40915 ft | 385 kts | 277° |
| 2026-05-07 14:25 | 39.25540 | 11.32355 | 40915 ft | 384 kts | 276° |
| 2026-05-07 14:25 | 39.26540 | 11.25574 | 40918 ft | 384 kts | 276° |
| 2026-05-07 14:26 | 39.27522 | 11.18789 | 40915 ft | 384 kts | 276° |
| 2026-05-07 14:26 | 39.28505 | 11.12039 | 40917 ft | 385 kts | 276° |
| 2026-05-07 14:27 | 39.29500 | 11.05230 | 40916 ft | 385 kts | 275° |
| 2026-05-07 14:27 | 39.30491 | 10.98432 | 40916 ft | 385 kts | 275° |
| 2026-05-07 14:28 | 39.31473 | 10.91674 | 40926 ft | 385 kts | 275° |
| 2026-05-07 14:28 | 39.32458 | 10.84873 | 40925 ft | 385 kts | 275° |
| 2026-05-07 14:29 | 39.33272 | 10.79219 | 40926 ft | 385 kts | 275° |
| 2026-05-07 14:29 | 39.34248 | 10.72424 | 40926 ft | 385 kts | 275° |
| 2026-05-07 14:30 | 39.35217 | 10.65644 | 40926 ft | 385 kts | 275° |
| 2026-05-07 14:30 | 39.36345 | 10.57718 | 40929 ft | 385 kts | 275° |
| 2026-05-07 14:31 | 39.37148 | 10.52047 | 40929 ft | 385 kts | 275° |
| 2026-05-07 14:31 | 39.38109 | 10.45240 | 40937 ft | 384 kts | 275° |
| 2026-05-07 14:32 | 39.39065 | 10.38434 | 40944 ft | 384 kts | 275° |
| 2026-05-07 14:32 | 39.40011 | 10.31666 | 40946 ft | 384 kts | 275° |
| 2026-05-07 14:33 | 39.40960 | 10.24848 | 40944 ft | 384 kts | 275° |
| 2026-05-07 14:33 | 39.41905 | 10.18030 | 40944 ft | 384 kts | 275° |
| 2026-05-07 14:34 | 39.42839 | 10.11258 | 40945 ft | 384 kts | 275° |
| 2026-05-07 14:34 | 39.43776 | 10.04436 | 40945 ft | 384 kts | 274° |
| 2026-05-07 14:35 | 39.44702 | 9.97664 | 40944 ft | 384 kts | 274° |
| 2026-05-07 14:35 | 39.45627 | 9.90870 | 40945 ft | 384 kts | 274° |
| 2026-05-07 14:36 | 39.46552 | 9.84040 | 40945 ft | 384 kts | 274° |
| 2026-05-07 14:36 | 39.47466 | 9.77270 | 40945 ft | 384 kts | 274° |
| 2026-05-07 14:37 | 39.48381 | 9.70452 | 40945 ft | 384 kts | 274° |
| 2026-05-07 14:37 | 39.49741 | 9.60257 | 40947 ft | 384 kts | 274° |
| 2026-05-07 14:38 | 39.50648 | 9.53429 | 40942 ft | 384 kts | 274° |
| 2026-05-07 14:38 | 39.51544 | 9.46648 | 40948 ft | 384 kts | 274° |
| 2026-05-07 14:39 | 39.52443 | 9.39809 | 40945 ft | 385 kts | 274° |
| 2026-05-07 14:39 | 39.53339 | 9.32956 | 41033 ft | 388 kts | 274° |
| 2026-05-07 14:40 | 39.53788 | 9.29507 | 41259 ft | 388 kts | 274° |
| 2026-05-07 14:40 | 39.54238 | 9.26046 | 41428 ft | 390 kts | 274° |
| 2026-05-07 14:40 | 39.55143 | 9.19067 | 41653 ft | 398 kts | 274° |
| 2026-05-07 14:41 | 39.55599 | 9.15521 | 41844 ft | 398 kts | 274° |
| 2026-05-07 14:41 | 39.56055 | 9.11958 | 41867 ft | 402 kts | 274° |
| 2026-05-07 14:41 | 39.56981 | 9.04777 | 41917 ft | 406 kts | 274° |
| 2026-05-07 14:42 | 39.57905 | 8.97528 | 41917 ft | 408 kts | 274° |
| 2026-05-07 14:42 | 39.58829 | 8.90307 | 41917 ft | 408 kts | 273° |
| 2026-05-07 14:43 | 39.59744 | 8.83037 | 41926 ft | 408 kts | 273° |
| 2026-05-07 14:43 | 39.60658 | 8.75755 | 41929 ft | 409 kts | 273° |
| 2026-05-07 14:44 | 39.61567 | 8.68452 | 41914 ft | 407 kts | 273° |
| 2026-05-07 14:44 | 39.62470 | 8.61249 | 41908 ft | 402 kts | 273° |
| 2026-05-07 14:45 | 39.63345 | 8.54144 | 41926 ft | 402 kts | 273° |
| 2026-05-07 14:45 | 39.64232 | 8.46955 | 41915 ft | 404 kts | 273° |
| 2026-05-07 14:46 | 39.65112 | 8.39735 | 41908 ft | 404 kts | 273° |
| 2026-05-07 14:46 | 39.65987 | 8.32556 | 41919 ft | 404 kts | 273° |
| 2026-05-07 14:47 | 39.66854 | 8.25385 | 41934 ft | 400 kts | 272° |
| 2026-05-07 14:47 | 39.67712 | 8.18249 | 41925 ft | 399 kts | 272° |
| 2026-05-07 14:48 | 39.68571 | 8.11148 | 41918 ft | 402 kts | 272° |
| 2026-05-07 14:48 | 39.69426 | 8.03997 | 41924 ft | 403 kts | 272° |
| 2026-05-07 14:49 | 39.70254 | 7.96777 | 41919 ft | 404 kts | 271° |
| 2026-05-07 14:49 | 39.70899 | 7.89578 | 41937 ft | 400 kts | 270° |
| 2026-05-07 14:50 | 39.71533 | 7.82391 | 41921 ft | 400 kts | 270° |
| 2026-05-07 14:50 | 39.72151 | 7.75236 | 41921 ft | 397 kts | 270° |
| 2026-05-07 14:51 | 39.72780 | 7.68121 | 41929 ft | 398 kts | 270° |
| 2026-05-07 14:51 | 39.73406 | 7.60974 | 41930 ft | 399 kts | 270° |
| 2026-05-07 14:52 | 39.74046 | 7.53769 | 41919 ft | 401 kts | 270° |
| 2026-05-07 14:52 | 39.74696 | 7.46500 | 41922 ft | 407 kts | 270° |
| 2026-05-07 14:53 | 39.75338 | 7.39188 | 41935 ft | 411 kts | 270° |
| 2026-05-07 14:53 | 39.75978 | 7.31845 | 41932 ft | 403 kts | 270° |
| 2026-05-07 14:54 | 39.76592 | 7.24711 | 41921 ft | 398 kts | 270° |
| 2026-05-07 14:54 | 39.77194 | 7.17526 | 41922 ft | 398 kts | 270° |
| 2026-05-07 14:55 | 39.77790 | 7.10404 | 41934 ft | 398 kts | 270° |
| 2026-05-07 14:55 | 39.78390 | 7.03230 | 41933 ft | 397 kts | 270° |
| 2026-05-07 14:56 | 39.78989 | 6.96028 | 41929 ft | 401 kts | 269° |
| 2026-05-07 14:56 | 39.79581 | 6.88802 | 41927 ft | 405 kts | 270° |
| 2026-05-07 14:57 | 39.80179 | 6.81502 | 41924 ft | 407 kts | 269° |
| 2026-05-07 14:57 | 39.80776 | 6.74225 | 41931 ft | 407 kts | 269° |
| 2026-05-07 14:58 | 39.81367 | 6.66878 | 41940 ft | 408 kts | 269° |
| 2026-05-07 14:58 | 39.81962 | 6.59511 | 41945 ft | 409 kts | 269° |
| 2026-05-07 14:59 | 39.82546 | 6.52172 | 41934 ft | 410 kts | 269° |
| 2026-05-07 14:59 | 39.83127 | 6.44801 | 41926 ft | 409 kts | 269° |
| 2026-05-07 15:00 | 39.83703 | 6.37477 | 41934 ft | 406 kts | 269° |
| 2026-05-07 15:00 | 39.84265 | 6.30149 | 41939 ft | 407 kts | 269° |
| 2026-05-07 15:01 | 39.84830 | 6.22862 | 41941 ft | 407 kts | 269° |
| 2026-05-07 15:01 | 39.85389 | 6.15521 | 41943 ft | 406 kts | 269° |
| 2026-05-07 15:02 | 39.85946 | 6.08199 | 41935 ft | 406 kts | 269° |
| 2026-05-07 15:02 | 39.86488 | 6.00932 | 41939 ft | 405 kts | 268° |
| 2026-05-07 15:03 | 39.87030 | 5.93618 | 41947 ft | 407 kts | 268° |
| 2026-05-07 15:03 | 39.87563 | 5.86333 | 41950 ft | 405 kts | 268° |
| 2026-05-07 15:04 | 39.88088 | 5.79029 | 41953 ft | 405 kts | 268° |
| 2026-05-07 15:04 | 39.88621 | 5.71725 | 41945 ft | 402 kts | 269° |
| 2026-05-07 15:05 | 39.89144 | 5.64471 | 41954 ft | 403 kts | 268° |
| 2026-05-07 15:05 | 39.89654 | 5.57227 | 41939 ft | 406 kts | 270° |
| 2026-05-07 15:06 | 39.90172 | 5.49807 | 41965 ft | 416 kts | 270° |
| 2026-05-07 15:06 | 39.90701 | 5.42212 | 41962 ft | 423 kts | 270° |
| 2026-05-07 15:07 | 39.91231 | 5.34560 | 41956 ft | 426 kts | 270° |
| 2026-05-07 15:07 | 39.91761 | 5.26848 | 41953 ft | 427 kts | 270° |
| 2026-05-07 15:08 | 39.92282 | 5.19175 | 41960 ft | 428 kts | 270° |
| 2026-05-07 15:08 | 39.92800 | 5.11448 | 41960 ft | 427 kts | 270° |
| 2026-05-07 15:09 | 39.93313 | 5.03732 | 41961 ft | 426 kts | 270° |
| 2026-05-07 15:09 | 39.93817 | 4.96071 | 41960 ft | 425 kts | 270° |
| 2026-05-07 15:10 | 39.94317 | 4.88383 | 41961 ft | 425 kts | 270° |
| 2026-05-07 15:10 | 39.94811 | 4.80702 | 41962 ft | 425 kts | 270° |
| 2026-05-07 15:11 | 39.95302 | 4.73022 | 41963 ft | 425 kts | 270° |
| 2026-05-07 15:11 | 39.95837 | 4.65391 | 41960 ft | 427 kts | 273° |
| 2026-05-07 15:12 | 39.96758 | 4.57707 | 41965 ft | 429 kts | 274° |
| 2026-05-07 15:12 | 39.97715 | 4.50014 | 41962 ft | 430 kts | 274° |
| 2026-05-07 15:13 | 39.98661 | 4.42300 | 41964 ft | 431 kts | 274° |
| 2026-05-07 15:13 | 39.99588 | 4.34605 | 41964 ft | 433 kts | 274° |
| 2026-05-07 15:14 | 40.00517 | 4.26825 | 41962 ft | 434 kts | 274° |
| 2026-05-07 15:14 | 40.01443 | 4.19014 | 41967 ft | 435 kts | 274° |
| 2026-05-07 15:15 | 40.02363 | 4.11221 | 41967 ft | 437 kts | 274° |
| 2026-05-07 15:15 | 40.03283 | 4.03372 | 41963 ft | 438 kts | 274° |
| 2026-05-07 15:16 | 40.04200 | 3.95508 | 41964 ft | 438 kts | 274° |
| 2026-05-07 15:16 | 40.05106 | 3.87685 | 41963 ft | 438 kts | 274° |
| 2026-05-07 15:17 | 40.06012 | 3.79820 | 41959 ft | 438 kts | 274° |
| 2026-05-07 15:17 | 40.06913 | 3.71951 | 41964 ft | 437 kts | 274° |
| 2026-05-07 15:18 | 40.07802 | 3.64136 | 41962 ft | 436 kts | 274° |
| 2026-05-07 15:18 | 40.08688 | 3.56298 | 41961 ft | 436 kts | 273° |
| 2026-05-07 15:19 | 40.09419 | 3.49791 | 41963 ft | 435 kts | 273° |
| 2026-05-07 15:19 | 40.10296 | 3.41939 | 41955 ft | 435 kts | 273° |
| 2026-05-07 15:20 | 40.11167 | 3.34096 | 41953 ft | 436 kts | 273° |
| 2026-05-07 15:20 | 40.12027 | 3.26296 | 41954 ft | 436 kts | 273° |
| 2026-05-07 15:21 | 40.12888 | 3.18439 | 41955 ft | 436 kts | 273° |
| 2026-05-07 15:21 | 40.13745 | 3.10574 | 41953 ft | 437 kts | 273° |
| 2026-05-07 15:22 | 40.14592 | 3.02751 | 41954 ft | 438 kts | 273° |
| 2026-05-07 15:22 | 40.15441 | 2.94851 | 41953 ft | 439 kts | 273° |
| 2026-05-07 15:23 | 40.16287 | 2.86937 | 41953 ft | 440 kts | 273° |
| 2026-05-07 15:23 | 40.17128 | 2.79008 | 41955 ft | 440 kts | 273° |
| 2026-05-07 15:24 | 40.17961 | 2.71110 | 41955 ft | 441 kts | 273° |
| 2026-05-07 15:24 | 40.18796 | 2.63133 | 41951 ft | 442 kts | 273° |
| 2026-05-07 15:25 | 40.19627 | 2.55151 | 41943 ft | 443 kts | 273° |
| 2026-05-07 15:25 | 40.20302 | 2.47197 | 41948 ft | 440 kts | 268° |
| 2026-05-07 15:26 | 40.20472 | 2.39187 | 41948 ft | 439 kts | 267° |
| 2026-05-07 15:26 | 40.20611 | 2.31229 | 41943 ft | 439 kts | 267° |
| 2026-05-07 15:27 | 40.20762 | 2.23228 | 41945 ft | 440 kts | 267° |
| 2026-05-07 15:27 | 40.20918 | 2.15215 | 41943 ft | 440 kts | 267° |
| 2026-05-07 15:28 | 40.21071 | 2.07263 | 41943 ft | 439 kts | 267° |
| 2026-05-07 15:28 | 40.21219 | 1.99239 | 41943 ft | 439 kts | 267° |
| 2026-05-07 15:29 | 40.21361 | 1.91297 | 41943 ft | 439 kts | 267° |
| 2026-05-07 15:29 | 40.21498 | 1.83295 | 41945 ft | 439 kts | 267° |
| 2026-05-07 15:30 | 40.21629 | 1.75297 | 41943 ft | 439 kts | 267° |
| 2026-05-07 15:30 | 40.21754 | 1.67348 | 41943 ft | 439 kts | 267° |
| 2026-05-07 15:31 | 40.21874 | 1.59360 | 41947 ft | 439 kts | 267° |
| 2026-05-07 15:31 | 40.21988 | 1.51419 | 41946 ft | 439 kts | 267° |
| 2026-05-07 15:32 | 40.22097 | 1.43415 | 41945 ft | 439 kts | 267° |
| 2026-05-07 15:32 | 40.22201 | 1.35408 | 41946 ft | 439 kts | 267° |
| 2026-05-07 15:33 | 40.22299 | 1.27400 | 41944 ft | 440 kts | 267° |
| 2026-05-07 15:33 | 40.22391 | 1.19427 | 41947 ft | 440 kts | 267° |
| 2026-05-07 15:34 | 40.22479 | 1.11400 | 41942 ft | 441 kts | 267° |
| 2026-05-07 15:34 | 40.22561 | 1.03352 | 41944 ft | 442 kts | 267° |
| 2026-05-07 15:35 | 40.22638 | 0.95299 | 41934 ft | 442 kts | 267° |
| 2026-05-07 15:35 | 40.22709 | 0.87276 | 41934 ft | 443 kts | 267° |
| 2026-05-07 15:36 | 40.22774 | 0.79185 | 41940 ft | 444 kts | 267° |
| 2026-05-07 15:36 | 40.22834 | 0.71135 | 41933 ft | 444 kts | 267° |
| 2026-05-07 15:37 | 40.22889 | 0.63029 | 41936 ft | 445 kts | 267° |
| 2026-05-07 15:37 | 40.22938 | 0.54958 | 41934 ft | 446 kts | 267° |
| 2026-05-07 15:38 | 40.22982 | 0.46832 | 41934 ft | 446 kts | 267° |
| 2026-05-07 15:38 | 40.23020 | 0.38701 | 41940 ft | 446 kts | 267° |
| 2026-05-07 15:39 | 40.23052 | 0.30620 | 41944 ft | 446 kts | 266° |
| 2026-05-07 15:39 | 40.23080 | 0.22495 | 41947 ft | 446 kts | 266° |
| 2026-05-07 15:40 | 40.23359 | 0.14335 | 41950 ft | 450 kts | 273° |
| 2026-05-07 15:40 | 40.24608 | 0.06328 | 41951 ft | 454 kts | 280° |
| 2026-05-07 15:41 | 40.26232 | -0.01673 | 41948 ft | 454 kts | 281° |
| 2026-05-07 15:41 | 40.27855 | -0.09685 | 41931 ft | 455 kts | 282° |
| 2026-05-07 15:42 | 40.29459 | -0.17736 | 41939 ft | 456 kts | 281° |
| 2026-05-07 15:42 | 40.31035 | -0.25738 | 41950 ft | 457 kts | 281° |
| 2026-05-07 15:43 | 40.32616 | -0.33819 | 41946 ft | 457 kts | 281° |
| 2026-05-07 15:43 | 40.34194 | -0.41914 | 41939 ft | 458 kts | 281° |
| 2026-05-07 15:44 | 40.35764 | -0.49993 | 41947 ft | 459 kts | 281° |
| 2026-05-07 15:44 | 40.37337 | -0.58120 | 41958 ft | 459 kts | 281° |
| 2026-05-07 15:45 | 40.38896 | -0.66212 | 41957 ft | 459 kts | 281° |
| 2026-05-07 15:45 | 40.40457 | -0.74343 | 41966 ft | 460 kts | 281° |
| 2026-05-07 15:46 | 40.42790 | -0.86558 | 41980 ft | 459 kts | 281° |
| 2026-05-07 15:47 | 40.44397 | -0.94634 | 41985 ft | 459 kts | 282° |
| 2026-05-07 15:47 | 40.46078 | -1.02740 | 41987 ft | 459 kts | 282° |
| 2026-05-07 15:48 | 40.47734 | -1.10774 | 41990 ft | 458 kts | 282° |
| 2026-05-07 15:48 | 40.49382 | -1.18866 | 41990 ft | 458 kts | 282° |
| 2026-05-07 15:49 | 40.51022 | -1.26976 | 41990 ft | 458 kts | 282° |
| 2026-05-07 15:49 | 40.52653 | -1.35081 | 41988 ft | 458 kts | 282° |
| 2026-05-07 15:50 | 40.54265 | -1.43115 | 41994 ft | 457 kts | 282° |
| 2026-05-07 15:50 | 40.55881 | -1.51205 | 41990 ft | 457 kts | 282° |
| 2026-05-07 15:51 | 40.57489 | -1.59287 | 41981 ft | 457 kts | 282° |
| 2026-05-07 15:51 | 40.59089 | -1.67355 | 41842 ft | 450 kts | 281° |
| 2026-05-07 15:51 | 40.59873 | -1.71311 | 41442 ft | 444 kts | 281° |
| 2026-05-07 15:52 | 40.60645 | -1.75225 | 40657 ft | 447 kts | 281° |
| 2026-05-07 15:52 | 40.61427 | -1.79204 | 39878 ft | 449 kts | 281° |
| 2026-05-07 15:52 | 40.62210 | -1.83195 | 39156 ft | 449 kts | 281° |
| 2026-05-07 15:52 | 40.62993 | -1.87188 | 38453 ft | 448 kts | 280° |
| 2026-05-07 15:53 | 40.63771 | -1.91158 | 37697 ft | 448 kts | 280° |
| 2026-05-07 15:53 | 40.64551 | -1.95156 | 36847 ft | 451 kts | 280° |
| 2026-05-07 15:53 | 40.65319 | -1.99104 | 36014 ft | 452 kts | 280° |
| 2026-05-07 15:53 | 40.66099 | -2.03123 | 35071 ft | 455 kts | 281° |
| 2026-05-07 15:54 | 40.66885 | -2.07166 | 33963 ft | 452 kts | 280° |
| 2026-05-07 15:54 | 40.67668 | -2.11197 | 32265 ft | 455 kts | 280° |
| 2026-05-07 15:54 | 40.68455 | -2.15273 | 30226 ft | 463 kts | 280° |
| 2026-05-07 15:54 | 40.69254 | -2.19432 | 28179 ft | 471 kts | 280° |
| 2026-05-07 15:55 | 40.70049 | -2.23563 | 26683 ft | 465 kts | 281° |
| 2026-05-07 15:55 | 40.70840 | -2.27663 | 25450 ft | 460 kts | 281° |
| 2026-05-07 15:55 | 40.71621 | -2.31726 | 24796 ft | 445 kts | 281° |
| 2026-05-07 15:55 | 40.72360 | -2.35552 | 24304 ft | 416 kts | 281° |
| 2026-05-07 15:56 | 40.73045 | -2.39112 | 23691 ft | 396 kts | 281° |
| 2026-05-07 15:56 | 40.73705 | -2.42562 | 23028 ft | 381 kts | 281° |
| 2026-05-07 15:56 | 40.74337 | -2.45887 | 22365 ft | 368 kts | 281° |
| 2026-05-07 15:56 | 40.74947 | -2.49113 | 21709 ft | 356 kts | 281° |
| 2026-05-07 15:57 | 40.75539 | -2.52242 | 21049 ft | 346 kts | 281° |
| 2026-05-07 15:57 | 40.76114 | -2.55285 | 20396 ft | 337 kts | 281° |
| 2026-05-07 15:57 | 40.76676 | -2.58259 | 19734 ft | 329 kts | 281° |
| 2026-05-07 15:57 | 40.77225 | -2.61171 | 19076 ft | 322 kts | 281° |
| 2026-05-07 15:58 | 40.77760 | -2.64011 | 18430 ft | 315 kts | 281° |
| 2026-05-07 15:58 | 40.78280 | -2.66783 | 17757 ft | 319 kts | 281° |
| 2026-05-07 15:58 | 40.78808 | -2.69601 | 17547 ft | 311 kts | 281° |
| 2026-05-07 15:58 | 40.79323 | -2.72342 | 17332 ft | 303 kts | 281° |
| 2026-05-07 15:59 | 40.79828 | -2.75034 | 17005 ft | 298 kts | 281° |
| 2026-05-07 15:59 | 40.80316 | -2.77638 | 16417 ft | 294 kts | 281° |
| 2026-05-07 15:59 | 40.80806 | -2.80263 | 15722 ft | 294 kts | 281° |
| 2026-05-07 15:59 | 40.81295 | -2.82889 | 15054 ft | 293 kts | 281° |
| 2026-05-07 16:00 | 40.81781 | -2.85505 | 14421 ft | 291 kts | 282° |
| 2026-05-07 16:00 | 40.82256 | -2.88056 | 13810 ft | 288 kts | 282° |
| 2026-05-07 16:00 | 40.82732 | -2.90620 | 13233 ft | 290 kts | 282° |
| 2026-05-07 16:00 | 40.83212 | -2.93205 | 12883 ft | 287 kts | 282° |
| 2026-05-07 16:01 | 40.83685 | -2.95749 | 12551 ft | 283 kts | 282° |
| 2026-05-07 16:01 | 40.84153 | -2.98278 | 12185 ft | 281 kts | 282° |
| 2026-05-07 16:01 | 40.84608 | -3.00741 | 11919 ft | 276 kts | 282° |
| 2026-05-07 16:01 | 40.85056 | -3.03159 | 11731 ft | 267 kts | 282° |
| 2026-05-07 16:02 | 40.85490 | -3.05511 | 11517 ft | 260 kts | 282° |
| 2026-05-07 16:02 | 40.85915 | -3.07813 | 11225 ft | 256 kts | 282° |
| 2026-05-07 16:02 | 40.86335 | -3.10101 | 10832 ft | 256 kts | 282° |
| 2026-05-07 16:02 | 40.86756 | -3.12395 | 10420 ft | 258 kts | 282° |
| 2026-05-07 16:03 | 40.87179 | -3.14704 | 10023 ft | 258 kts | 282° |
| 2026-05-07 16:03 | 40.87603 | -3.17013 | 9665 ft | 257 kts | 282° |
| 2026-05-07 16:03 | 40.88021 | -3.19291 | 9378 ft | 253 kts | 282° |
| 2026-05-07 16:03 | 40.88432 | -3.21534 | 9161 ft | 250 kts | 282° |
| 2026-05-07 16:04 | 40.88842 | -3.23776 | 8974 ft | 252 kts | 282° |
| 2026-05-07 16:04 | 40.89250 | -3.26016 | 8779 ft | 254 kts | 282° |
| 2026-05-07 16:04 | 40.89669 | -3.28307 | 8588 ft | 256 kts | 282° |
| 2026-05-07 16:04 | 40.90082 | -3.30582 | 8383 ft | 256 kts | 281° |
| 2026-05-07 16:05 | 40.90498 | -3.32883 | 8190 ft | 258 kts | 282° |
| 2026-05-07 16:05 | 40.90918 | -3.35195 | 7999 ft | 258 kts | 282° |
| 2026-05-07 16:05 | 40.91334 | -3.37484 | 7777 ft | 253 kts | 282° |
| 2026-05-07 16:05 | 40.91712 | -3.39732 | 7599 ft | 248 kts | 280° |
| 2026-05-07 16:06 | 40.92061 | -3.41921 | 7445 ft | 246 kts | 280° |
| 2026-05-07 16:06 | 40.92410 | -3.44129 | 7298 ft | 244 kts | 279° |
| 2026-05-07 16:06 | 40.92485 | -3.46345 | 7124 ft | 242 kts | 260° |
| 2026-05-07 16:06 | 40.92209 | -3.48570 | 7014 ft | 247 kts | 256° |
| 2026-05-07 16:07 | 40.91719 | -3.50722 | 6783 ft | 243 kts | 235° |
| 2026-05-07 16:07 | 40.90990 | -3.51821 | 6655 ft | 238 kts | 215° |
| 2026-05-07 16:07 | 40.89584 | -3.52928 | 6483 ft | 235 kts | 203° |
| 2026-05-07 16:07 | 40.88094 | -3.53842 | 6282 ft | 236 kts | 201° |
| 2026-05-07 16:08 | 40.86588 | -3.54659 | 6065 ft | 230 kts | 192° |
| 2026-05-07 16:08 | 40.85041 | -3.55058 | 5865 ft | 224 kts | 187° |
| 2026-05-07 16:08 | 40.83497 | -3.55368 | 5666 ft | 223 kts | 188° |
| 2026-05-07 16:08 | 40.81974 | -3.55686 | 5597 ft | 220 kts | 188° |
| 2026-05-07 16:09 | 40.80459 | -3.56002 | 5539 ft | 222 kts | 186° |
| 2026-05-07 16:09 | 40.78912 | -3.56134 | 5538 ft | 224 kts | 181° |
| 2026-05-07 16:09 | 40.77342 | -3.56149 | 5528 ft | 226 kts | 180° |
| 2026-05-07 16:09 | 40.75780 | -3.56137 | 5526 ft | 221 kts | 180° |
| 2026-05-07 16:10 | 40.74289 | -3.56123 | 5507 ft | 208 kts | 179° |
| 2026-05-07 16:10 | 40.72874 | -3.56110 | 5509 ft | 208 kts | 177° |
| 2026-05-07 16:10 | 40.71415 | -3.56097 | 5520 ft | 209 kts | 177° |
| 2026-05-07 16:10 | 40.69971 | -3.56086 | 5314 ft | 204 kts | 177° |
| 2026-05-07 16:11 | 40.68564 | -3.56075 | 5032 ft | 200 kts | 177° |
| 2026-05-07 16:11 | 40.67184 | -3.56063 | 4759 ft | 197 kts | 178° |
| 2026-05-07 16:11 | 40.65820 | -3.56051 | 4496 ft | 194 kts | 178° |
| 2026-05-07 16:11 | 40.64488 | -3.56040 | 4257 ft | 189 kts | 178° |
| 2026-05-07 16:12 | 40.63187 | -3.56029 | 3992 ft | 185 kts | 178° |
| 2026-05-07 16:12 | 40.61919 | -3.56020 | 3765 ft | 179 kts | 178° |
| 2026-05-07 16:12 | 40.60716 | -3.56009 | 3522 ft | 170 kts | 178° |
| 2026-05-07 16:12 | 40.59588 | -3.56000 | 3304 ft | 154 kts | 178° |
| 2026-05-07 16:13 | 40.58571 | -3.55991 | 3110 ft | 143 kts | 178° |
| 2026-05-07 16:13 | 40.57558 | -3.55983 | 2930 ft | 148 kts | 178° |
| 2026-05-07 16:13 | 40.56520 | -3.55971 | 2740 ft | 151 kts | 179° |
| 2026-05-07 16:13 | 40.55464 | -3.55965 | 2530 ft | 152 kts | 179° |
| 2026-05-07 16:14 | 40.54410 | -3.55958 | 2312 ft | 149 kts | 179° |
| 2026-05-07 16:14 | 40.53377 | -3.55948 | 2106 ft | 148 kts | 179° |
| 2026-05-07 16:14 | 40.52354 | -3.55938 | 1963 ft | 144 kts | 179° |
| 2026-05-07 16:14 | 40.51432 | -3.55931 | 1956 ft | 118 kts | 179° |
| 2026-05-07 16:15 | 40.50736 | -3.55927 | 1973 ft | 82 kts | 179° |
| 2026-05-07 16:15 | 40.50308 | -3.55925 | 1966 ft | 33 kts | 180° |
| 2026-05-07 16:15 | 40.50175 | -3.55944 | 1965 ft | 16 kts | 208° |
| 2026-05-07 16:15 | 40.50123 | -3.56049 | 1963 ft | 9 kts | 254° |
| 2026-05-07 16:16 | 40.50118 | -3.56095 | 1963 ft | 3 kts | 266° |
| 2026-05-07 16:16 | 40.50117 | -3.56117 | 1963 ft | 2 kts | 267° |
| 2026-05-07 16:16 | 40.50117 | -3.56125 | 1963 ft | 0 kts | 267° |
| 2026-05-07 16:17 | 40.50109 | -3.56146 | 1963 ft | 4 kts | 227° |
| 2026-05-07 16:17 | 40.50067 | -3.56149 | 1963 ft | 10 kts | 177° |
| 2026-05-07 16:17 | 40.49986 | -3.56146 | 1963 ft | 12 kts | 179° |
| 2026-05-07 16:18 | 40.49900 | -3.56144 | 1963 ft | 13 kts | 179° |
| 2026-05-07 16:18 | 40.49809 | -3.56144 | 1963 ft | 13 kts | 180° |
| 2026-05-07 16:18 | 40.49715 | -3.56144 | 1963 ft | 14 kts | 180° |
| 2026-05-07 16:18 | 40.49620 | -3.56143 | 1963 ft | 14 kts | 180° |
| 2026-05-07 16:19 | 40.49524 | -3.56143 | 1964 ft | 14 kts | 179° |
| 2026-05-07 16:19 | 40.49428 | -3.56142 | 1964 ft | 14 kts | 179° |
| 2026-05-07 16:19 | 40.49330 | -3.56141 | 1964 ft | 14 kts | 179° |
| 2026-05-07 16:19 | 40.49310 | -3.56141 | 1963 ft | 1 kts | 180° |
| 2026-05-07 16:20 | 40.49256 | -3.56141 | 1965 ft | 13 kts | 180° |
| 2026-05-07 16:20 | 40.49164 | -3.56140 | 1963 ft | 14 kts | 179° |
| 2026-05-07 16:20 | 40.49069 | -3.56139 | 1963 ft | 14 kts | 179° |
| 2026-05-07 16:20 | 40.48973 | -3.56138 | 1963 ft | 14 kts | 179° |
| 2026-05-07 16:21 | 40.48877 | -3.56138 | 1963 ft | 14 kts | 179° |
| 2026-05-07 16:21 | 40.48786 | -3.56157 | 1967 ft | 14 kts | 223° |
| 2026-05-07 16:21 | 40.48768 | -3.56278 | 1967 ft | 14 kts | 269° |
| 2026-05-07 16:21 | 40.48768 | -3.56403 | 1971 ft | 14 kts | 270° |
| 2026-05-07 16:22 | 40.48780 | -3.56523 | 1976 ft | 14 kts | 310° |
| 2026-05-07 16:22 | 40.48873 | -3.56541 | 1977 ft | 14 kts | 0° |
| 2026-05-07 16:22 | 40.48971 | -3.56541 | 1974 ft | 14 kts | 360° |
| 2026-05-07 16:22 | 40.49072 | -3.56542 | 1974 ft | 15 kts | 359° |
| 2026-05-07 16:23 | 40.49175 | -3.56543 | 1974 ft | 15 kts | 360° |
| 2026-05-07 16:23 | 40.49266 | -3.56543 | 1975 ft | 10 kts | 358° |
| 2026-05-07 16:23 | 40.49301 | -3.56607 | 1976 ft | 8 kts | 277° |
| 2026-05-07 16:23 | 40.49301 | -3.56645 | 1977 ft | 3 kts | 270° |
| 2026-05-07 16:24 | 40.49301 | -3.56650 | 1980 ft | 0 kts | 270° |